<?xml version="1.0" encoding="UTF-8" standalone="no" ?>
<gpx xmlns="http://www.topografix.com/GPX/1/1" xmlns:xsi="http://www.w3.org/2001/XMLSchema-instance" xsi:schemaLocation="http://www.topografix.com/GPX/1/1 http://www.topografix.com/GPX/1/1/gpx.xsd" version="1.1" creator="VisuGPX - https://www.visugpx.com">
  <metadata>
    <name>Sortie Gréoliere</name>
    <desc><![CDATA[Sortie tres technique avec une grosse montée en portage]]></desc>
  </metadata>
  <trk>
    <name><![CDATA[Gréolière]]></name>
    <trkseg>
      <trkpt lat="43.80768" lon="6.89217">
        <ele>1135.4543457</ele>
        <time>2012-06-28T19:15:05Z</time>
      </trkpt>
      <trkpt lat="43.80764" lon="6.89217">
        <ele>1136.8962402</ele>
        <time>2012-06-28T19:15:20Z</time>
      </trkpt>
      <trkpt lat="43.80758" lon="6.89207">
        <ele>1136.4157715</ele>
        <time>2012-06-28T19:15:32Z</time>
      </trkpt>
      <trkpt lat="43.80755" lon="6.89202">
        <ele>1136.8962402</ele>
        <time>2012-06-28T19:15:35Z</time>
      </trkpt>
      <trkpt lat="43.80752" lon="6.89202">
        <ele>1136.4157715</ele>
        <time>2012-06-28T19:15:40Z</time>
      </trkpt>
      <trkpt lat="43.80756" lon="6.89203">
        <ele>1135.9350586</ele>
        <time>2012-06-28T19:15:55Z</time>
      </trkpt>
      <trkpt lat="43.80754" lon="6.89203">
        <ele>1135.9350586</ele>
        <time>2012-06-28T19:15:57Z</time>
      </trkpt>
      <trkpt lat="43.80758" lon="6.89202">
        <ele>1136.4157715</ele>
        <time>2012-06-28T19:16:05Z</time>
      </trkpt>
      <trkpt lat="43.80756" lon="6.89202">
        <ele>1135.9350586</ele>
        <time>2012-06-28T19:16:16Z</time>
      </trkpt>
      <trkpt lat="43.80756" lon="6.89198">
        <ele>1136.4157715</ele>
        <time>2012-06-28T19:16:22Z</time>
      </trkpt>
      <trkpt lat="43.80767" lon="6.89197">
        <ele>1135.9350586</ele>
        <time>2012-06-28T19:16:28Z</time>
      </trkpt>
      <trkpt lat="43.80803" lon="6.89209">
        <ele>1135.9350586</ele>
        <time>2012-06-28T19:16:40Z</time>
      </trkpt>
      <trkpt lat="43.80849" lon="6.89242">
        <ele>1136.4157715</ele>
        <time>2012-06-28T19:16:54Z</time>
      </trkpt>
      <trkpt lat="43.80905" lon="6.89243">
        <ele>1136.4157715</ele>
        <time>2012-06-28T19:17:10Z</time>
      </trkpt>
      <trkpt lat="43.80948" lon="6.89243">
        <ele>1138.3383789</ele>
        <time>2012-06-28T19:17:24Z</time>
      </trkpt>
      <trkpt lat="43.8098" lon="6.89239">
        <ele>1140.2609863</ele>
        <time>2012-06-28T19:17:36Z</time>
      </trkpt>
      <trkpt lat="43.80988" lon="6.89237">
        <ele>1139.2995605</ele>
        <time>2012-06-28T19:17:38Z</time>
      </trkpt>
      <trkpt lat="43.81039" lon="6.89228">
        <ele>1137.3769531</ele>
        <time>2012-06-28T19:17:52Z</time>
      </trkpt>
      <trkpt lat="43.81065" lon="6.89219">
        <ele>1137.857666</ele>
        <time>2012-06-28T19:18:01Z</time>
      </trkpt>
      <trkpt lat="43.8107" lon="6.8918">
        <ele>1137.3769531</ele>
        <time>2012-06-28T19:18:10Z</time>
      </trkpt>
      <trkpt lat="43.81072" lon="6.89148">
        <ele>1137.857666</ele>
        <time>2012-06-28T19:18:18Z</time>
      </trkpt>
      <trkpt lat="43.81082" lon="6.89143">
        <ele>1139.2995605</ele>
        <time>2012-06-28T19:18:23Z</time>
      </trkpt>
      <trkpt lat="43.81082" lon="6.89146">
        <ele>1139.7802734</ele>
        <time>2012-06-28T19:18:25Z</time>
      </trkpt>
      <trkpt lat="43.81085" lon="6.89149">
        <ele>1139.7802734</ele>
        <time>2012-06-28T19:18:34Z</time>
      </trkpt>
      <trkpt lat="43.81094" lon="6.89127">
        <ele>1141.222168</ele>
        <time>2012-06-28T19:18:44Z</time>
      </trkpt>
      <trkpt lat="43.81111" lon="6.89128">
        <ele>1142.6643066</ele>
        <time>2012-06-28T19:18:53Z</time>
      </trkpt>
      <trkpt lat="43.81149" lon="6.89134">
        <ele>1142.1835938</ele>
        <time>2012-06-28T19:19:09Z</time>
      </trkpt>
      <trkpt lat="43.81184" lon="6.89182">
        <ele>1141.7028809</ele>
        <time>2012-06-28T19:19:26Z</time>
      </trkpt>
      <trkpt lat="43.81212" lon="6.89241">
        <ele>1143.1447754</ele>
        <time>2012-06-28T19:19:43Z</time>
      </trkpt>
      <trkpt lat="43.81236" lon="6.89324">
        <ele>1145.5480957</ele>
        <time>2012-06-28T19:20:05Z</time>
      </trkpt>
      <trkpt lat="43.81254" lon="6.89392">
        <ele>1149.8742676</ele>
        <time>2012-06-28T19:20:23Z</time>
      </trkpt>
      <trkpt lat="43.81289" lon="6.89444">
        <ele>1151.796875</ele>
        <time>2012-06-28T19:20:42Z</time>
      </trkpt>
      <trkpt lat="43.81318" lon="6.89483">
        <ele>1151.796875</ele>
        <time>2012-06-28T19:20:54Z</time>
      </trkpt>
      <trkpt lat="43.81351" lon="6.89569">
        <ele>1153.2387695</ele>
        <time>2012-06-28T19:21:13Z</time>
      </trkpt>
      <trkpt lat="43.81374" lon="6.89661">
        <ele>1155.6420898</ele>
        <time>2012-06-28T19:21:31Z</time>
      </trkpt>
      <trkpt lat="43.81384" lon="6.89742">
        <ele>1156.6032715</ele>
        <time>2012-06-28T19:21:47Z</time>
      </trkpt>
      <trkpt lat="43.81392" lon="6.89807">
        <ele>1157.5646973</ele>
        <time>2012-06-28T19:22:03Z</time>
      </trkpt>
      <trkpt lat="43.81393" lon="6.8985">
        <ele>1156.1225586</ele>
        <time>2012-06-28T19:22:14Z</time>
      </trkpt>
      <trkpt lat="43.81422" lon="6.89923">
        <ele>1152.7580566</ele>
        <time>2012-06-28T19:22:31Z</time>
      </trkpt>
      <trkpt lat="43.81441" lon="6.89977">
        <ele>1152.7580566</ele>
        <time>2012-06-28T19:22:44Z</time>
      </trkpt>
      <trkpt lat="43.81452" lon="6.90018">
        <ele>1150.8354492</ele>
        <time>2012-06-28T19:22:55Z</time>
      </trkpt>
      <trkpt lat="43.81468" lon="6.90058">
        <ele>1153.2387695</ele>
        <time>2012-06-28T19:23:05Z</time>
      </trkpt>
      <trkpt lat="43.81493" lon="6.90087">
        <ele>1158.5258789</ele>
        <time>2012-06-28T19:23:18Z</time>
      </trkpt>
      <trkpt lat="43.81516" lon="6.90108">
        <ele>1160.4484863</ele>
        <time>2012-06-28T19:23:29Z</time>
      </trkpt>
      <trkpt lat="43.81528" lon="6.90113">
        <ele>1161.890625</ele>
        <time>2012-06-28T19:23:34Z</time>
      </trkpt>
      <trkpt lat="43.81541" lon="6.90123">
        <ele>1162.8518066</ele>
        <time>2012-06-28T19:23:40Z</time>
      </trkpt>
      <trkpt lat="43.81574" lon="6.90141">
        <ele>1166.2165527</ele>
        <time>2012-06-28T19:23:56Z</time>
      </trkpt>
      <trkpt lat="43.81594" lon="6.90167">
        <ele>1170.0617676</ele>
        <time>2012-06-28T19:24:09Z</time>
      </trkpt>
      <trkpt lat="43.816" lon="6.90207">
        <ele>1169.5812988</ele>
        <time>2012-06-28T19:24:23Z</time>
      </trkpt>
      <trkpt lat="43.81604" lon="6.90239">
        <ele>1171.5036621</ele>
        <time>2012-06-28T19:24:35Z</time>
      </trkpt>
      <trkpt lat="43.81609" lon="6.90264">
        <ele>1174.3876953</ele>
        <time>2012-06-28T19:24:44Z</time>
      </trkpt>
      <trkpt lat="43.81615" lon="6.90289">
        <ele>1180.6364746</ele>
        <time>2012-06-28T19:24:54Z</time>
      </trkpt>
      <trkpt lat="43.81619" lon="6.90302">
        <ele>1181.5976563</ele>
        <time>2012-06-28T19:24:59Z</time>
      </trkpt>
      <trkpt lat="43.81623" lon="6.90332">
        <ele>1184.0009766</ele>
        <time>2012-06-28T19:25:12Z</time>
      </trkpt>
      <trkpt lat="43.81632" lon="6.90344">
        <ele>1184.9624023</ele>
        <time>2012-06-28T19:25:19Z</time>
      </trkpt>
      <trkpt lat="43.81647" lon="6.90344">
        <ele>1187.8461914</ele>
        <time>2012-06-28T19:25:27Z</time>
      </trkpt>
      <trkpt lat="43.81652" lon="6.90351">
        <ele>1187.3654785</ele>
        <time>2012-06-28T19:25:31Z</time>
      </trkpt>
      <trkpt lat="43.81664" lon="6.90372">
        <ele>1189.2880859</ele>
        <time>2012-06-28T19:25:42Z</time>
      </trkpt>
      <trkpt lat="43.81671" lon="6.90377">
        <ele>1188.8076172</ele>
        <time>2012-06-28T19:25:46Z</time>
      </trkpt>
      <trkpt lat="43.81687" lon="6.90405">
        <ele>1193.6140137</ele>
        <time>2012-06-28T19:26:02Z</time>
      </trkpt>
      <trkpt lat="43.81702" lon="6.90432">
        <ele>1198.9013672</ele>
        <time>2012-06-28T19:26:17Z</time>
      </trkpt>
      <trkpt lat="43.81716" lon="6.90457">
        <ele>1204.1887207</ele>
        <time>2012-06-28T19:26:32Z</time>
      </trkpt>
      <trkpt lat="43.81728" lon="6.90473">
        <ele>1208.0339355</ele>
        <time>2012-06-28T19:26:45Z</time>
      </trkpt>
      <trkpt lat="43.81742" lon="6.90496">
        <ele>1211.8791504</ele>
        <time>2012-06-28T19:27:00Z</time>
      </trkpt>
      <trkpt lat="43.81745" lon="6.90532">
        <ele>1212.8405762</ele>
        <time>2012-06-28T19:27:18Z</time>
      </trkpt>
      <trkpt lat="43.81746" lon="6.90563">
        <ele>1213.8017578</ele>
        <time>2012-06-28T19:27:36Z</time>
      </trkpt>
      <trkpt lat="43.81747" lon="6.90571">
        <ele>1214.7631836</ele>
        <time>2012-06-28T19:27:41Z</time>
      </trkpt>
      <trkpt lat="43.81747" lon="6.90576">
        <ele>1215.2438965</ele>
        <time>2012-06-28T19:27:44Z</time>
      </trkpt>
      <trkpt lat="43.81751" lon="6.90603">
        <ele>1218.1276855</ele>
        <time>2012-06-28T19:28:00Z</time>
      </trkpt>
      <trkpt lat="43.81756" lon="6.90617">
        <ele>1219.0891113</ele>
        <time>2012-06-28T19:28:13Z</time>
      </trkpt>
      <trkpt lat="43.81758" lon="6.90625">
        <ele>1220.5310059</ele>
        <time>2012-06-28T19:28:21Z</time>
      </trkpt>
      <trkpt lat="43.81761" lon="6.90633">
        <ele>1222.4536133</ele>
        <time>2012-06-28T19:28:27Z</time>
      </trkpt>
      <trkpt lat="43.81765" lon="6.90639">
        <ele>1222.4536133</ele>
        <time>2012-06-28T19:28:33Z</time>
      </trkpt>
      <trkpt lat="43.81769" lon="6.90649">
        <ele>1221.9729004</ele>
        <time>2012-06-28T19:28:50Z</time>
      </trkpt>
      <trkpt lat="43.81779" lon="6.90669">
        <ele>1226.779541</ele>
        <time>2012-06-28T19:29:05Z</time>
      </trkpt>
      <trkpt lat="43.81784" lon="6.90685">
        <ele>1229.1828613</ele>
        <time>2012-06-28T19:29:17Z</time>
      </trkpt>
      <trkpt lat="43.81786" lon="6.90691">
        <ele>1230.625</ele>
        <time>2012-06-28T19:29:37Z</time>
      </trkpt>
      <trkpt lat="43.81786" lon="6.907">
        <ele>1230.1442871</ele>
        <time>2012-06-28T19:29:42Z</time>
      </trkpt>
      <trkpt lat="43.81789" lon="6.90707">
        <ele>1231.1057129</ele>
        <time>2012-06-28T19:29:46Z</time>
      </trkpt>
      <trkpt lat="43.81794" lon="6.90715">
        <ele>1233.989502</ele>
        <time>2012-06-28T19:30:02Z</time>
      </trkpt>
      <trkpt lat="43.81794" lon="6.90715">
        <ele>1233.5087891</ele>
        <time>2012-06-28T19:30:12Z</time>
      </trkpt>
      <trkpt lat="43.81798" lon="6.90728">
        <ele>1233.5087891</ele>
        <time>2012-06-28T19:30:20Z</time>
      </trkpt>
      <trkpt lat="43.81803" lon="6.90744">
        <ele>1240.2380371</ele>
        <time>2012-06-28T19:30:31Z</time>
      </trkpt>
      <trkpt lat="43.81805" lon="6.90751">
        <ele>1241.1992188</ele>
        <time>2012-06-28T19:30:34Z</time>
      </trkpt>
      <trkpt lat="43.81809" lon="6.90759">
        <ele>1242.1606445</ele>
        <time>2012-06-28T19:30:44Z</time>
      </trkpt>
      <trkpt lat="43.81814" lon="6.9077">
        <ele>1243.1218262</ele>
        <time>2012-06-28T19:31:06Z</time>
      </trkpt>
      <trkpt lat="43.8182" lon="6.9078">
        <ele>1247.9287109</ele>
        <time>2012-06-28T19:31:19Z</time>
      </trkpt>
      <trkpt lat="43.81823" lon="6.90785">
        <ele>1249.3706055</ele>
        <time>2012-06-28T19:31:23Z</time>
      </trkpt>
      <trkpt lat="43.81834" lon="6.90811">
        <ele>1251.7739258</ele>
        <time>2012-06-28T19:31:38Z</time>
      </trkpt>
      <trkpt lat="43.8185" lon="6.90833">
        <ele>1253.2158203</ele>
        <time>2012-06-28T19:31:53Z</time>
      </trkpt>
      <trkpt lat="43.81864" lon="6.9085">
        <ele>1253.2158203</ele>
        <time>2012-06-28T19:32:07Z</time>
      </trkpt>
      <trkpt lat="43.8188" lon="6.90869">
        <ele>1252.7351074</ele>
        <time>2012-06-28T19:32:20Z</time>
      </trkpt>
      <trkpt lat="43.8189" lon="6.90869">
        <ele>1252.7351074</ele>
        <time>2012-06-28T19:32:29Z</time>
      </trkpt>
      <trkpt lat="43.81905" lon="6.90874">
        <ele>1255.6191406</ele>
        <time>2012-06-28T19:32:40Z</time>
      </trkpt>
      <trkpt lat="43.8191" lon="6.90875">
        <ele>1256.5803223</ele>
        <time>2012-06-28T19:32:56Z</time>
      </trkpt>
      <trkpt lat="43.81927" lon="6.90876">
        <ele>1258.0224609</ele>
        <time>2012-06-28T19:33:09Z</time>
      </trkpt>
      <trkpt lat="43.81931" lon="6.90877">
        <ele>1258.5029297</ele>
        <time>2012-06-28T19:33:13Z</time>
      </trkpt>
      <trkpt lat="43.81949" lon="6.90875">
        <ele>1260.9064941</ele>
        <time>2012-06-28T19:33:26Z</time>
      </trkpt>
      <trkpt lat="43.81952" lon="6.90874">
        <ele>1260.9064941</ele>
        <time>2012-06-28T19:33:41Z</time>
      </trkpt>
      <trkpt lat="43.81971" lon="6.90876">
        <ele>1263.7902832</ele>
        <time>2012-06-28T19:33:55Z</time>
      </trkpt>
      <trkpt lat="43.81978" lon="6.90875">
        <ele>1264.2709961</ele>
        <time>2012-06-28T19:34:00Z</time>
      </trkpt>
      <trkpt lat="43.81987" lon="6.90874">
        <ele>1264.2709961</ele>
        <time>2012-06-28T19:34:07Z</time>
      </trkpt>
      <trkpt lat="43.81994" lon="6.90875">
        <ele>1265.7131348</ele>
        <time>2012-06-28T19:34:12Z</time>
      </trkpt>
      <trkpt lat="43.82002" lon="6.90872">
        <ele>1266.1936035</ele>
        <time>2012-06-28T19:34:17Z</time>
      </trkpt>
      <trkpt lat="43.8201" lon="6.90868">
        <ele>1267.1550293</ele>
        <time>2012-06-28T19:34:23Z</time>
      </trkpt>
      <trkpt lat="43.82016" lon="6.90864">
        <ele>1266.6743164</ele>
        <time>2012-06-28T19:34:27Z</time>
      </trkpt>
      <trkpt lat="43.82038" lon="6.90858">
        <ele>1270.0388184</ele>
        <time>2012-06-28T19:34:42Z</time>
      </trkpt>
      <trkpt lat="43.82049" lon="6.90859">
        <ele>1271.0002441</ele>
        <time>2012-06-28T19:34:48Z</time>
      </trkpt>
      <trkpt lat="43.8207" lon="6.90868">
        <ele>1274.3647461</ele>
        <time>2012-06-28T19:35:02Z</time>
      </trkpt>
      <trkpt lat="43.8208" lon="6.90879">
        <ele>1271.4807129</ele>
        <time>2012-06-28T19:35:10Z</time>
      </trkpt>
      <trkpt lat="43.82096" lon="6.90897">
        <ele>1270.0388184</ele>
        <time>2012-06-28T19:35:24Z</time>
      </trkpt>
      <trkpt lat="43.82102" lon="6.90905">
        <ele>1270.0388184</ele>
        <time>2012-06-28T19:35:29Z</time>
      </trkpt>
      <trkpt lat="43.8211" lon="6.90908">
        <ele>1271.0002441</ele>
        <time>2012-06-28T19:35:35Z</time>
      </trkpt>
      <trkpt lat="43.82119" lon="6.90912">
        <ele>1272.4421387</ele>
        <time>2012-06-28T19:35:41Z</time>
      </trkpt>
      <trkpt lat="43.82129" lon="6.90907">
        <ele>1274.3647461</ele>
        <time>2012-06-28T19:35:49Z</time>
      </trkpt>
      <trkpt lat="43.82138" lon="6.90913">
        <ele>1274.845459</ele>
        <time>2012-06-28T19:35:56Z</time>
      </trkpt>
      <trkpt lat="43.8216" lon="6.90933">
        <ele>1278.2102051</ele>
        <time>2012-06-28T19:36:13Z</time>
      </trkpt>
      <trkpt lat="43.8218" lon="6.90943">
        <ele>1279.1713867</ele>
        <time>2012-06-28T19:36:28Z</time>
      </trkpt>
      <trkpt lat="43.82183" lon="6.90939">
        <ele>1279.1713867</ele>
        <time>2012-06-28T19:36:32Z</time>
      </trkpt>
      <trkpt lat="43.82189" lon="6.90922">
        <ele>1281.0942383</ele>
        <time>2012-06-28T19:36:49Z</time>
      </trkpt>
      <trkpt lat="43.82191" lon="6.90919">
        <ele>1281.574707</ele>
        <time>2012-06-28T19:36:51Z</time>
      </trkpt>
      <trkpt lat="43.8219" lon="6.90904">
        <ele>1283.0166016</ele>
        <time>2012-06-28T19:36:58Z</time>
      </trkpt>
      <trkpt lat="43.82197" lon="6.90882">
        <ele>1284.4587402</ele>
        <time>2012-06-28T19:37:13Z</time>
      </trkpt>
      <trkpt lat="43.82197" lon="6.90878">
        <ele>1284.4587402</ele>
        <time>2012-06-28T19:37:16Z</time>
      </trkpt>
      <trkpt lat="43.82203" lon="6.90861">
        <ele>1284.4587402</ele>
        <time>2012-06-28T19:37:36Z</time>
      </trkpt>
      <trkpt lat="43.82206" lon="6.90849">
        <ele>1286.8618164</ele>
        <time>2012-06-28T19:37:43Z</time>
      </trkpt>
      <trkpt lat="43.82208" lon="6.90844">
        <ele>1288.3039551</ele>
        <time>2012-06-28T19:37:46Z</time>
      </trkpt>
      <trkpt lat="43.82211" lon="6.90834">
        <ele>1290.7070313</ele>
        <time>2012-06-28T19:37:52Z</time>
      </trkpt>
      <trkpt lat="43.82214" lon="6.90824">
        <ele>1293.1105957</ele>
        <time>2012-06-28T19:38:05Z</time>
      </trkpt>
      <trkpt lat="43.82213" lon="6.90823">
        <ele>1293.1105957</ele>
        <time>2012-06-28T19:38:25Z</time>
      </trkpt>
      <trkpt lat="43.8222" lon="6.90802">
        <ele>1290.2265625</ele>
        <time>2012-06-28T19:38:38Z</time>
      </trkpt>
      <trkpt lat="43.82223" lon="6.90795">
        <ele>1290.2265625</ele>
        <time>2012-06-28T19:38:50Z</time>
      </trkpt>
      <trkpt lat="43.82227" lon="6.90788">
        <ele>1295.9946289</ele>
        <time>2012-06-28T19:39:02Z</time>
      </trkpt>
      <trkpt lat="43.82235" lon="6.90771">
        <ele>1299.8398438</ele>
        <time>2012-06-28T19:39:19Z</time>
      </trkpt>
      <trkpt lat="43.82235" lon="6.9077">
        <ele>1300.3205566</ele>
        <time>2012-06-28T19:39:26Z</time>
      </trkpt>
      <trkpt lat="43.82238" lon="6.90767">
        <ele>1302.2429199</ele>
        <time>2012-06-28T19:39:29Z</time>
      </trkpt>
      <trkpt lat="43.82245" lon="6.90761">
        <ele>1304.1657715</ele>
        <time>2012-06-28T19:39:35Z</time>
      </trkpt>
      <trkpt lat="43.82247" lon="6.90759">
        <ele>1305.1269531</ele>
        <time>2012-06-28T19:39:37Z</time>
      </trkpt>
      <trkpt lat="43.82256" lon="6.9074">
        <ele>1309.9335938</ele>
        <time>2012-06-28T19:39:48Z</time>
      </trkpt>
      <trkpt lat="43.82266" lon="6.90713">
        <ele>1308.0112305</ele>
        <time>2012-06-28T19:40:04Z</time>
      </trkpt>
      <trkpt lat="43.82267" lon="6.90712">
        <ele>1308.0112305</ele>
        <time>2012-06-28T19:40:05Z</time>
      </trkpt>
      <trkpt lat="43.82269" lon="6.90702">
        <ele>1308.0112305</ele>
        <time>2012-06-28T19:40:11Z</time>
      </trkpt>
      <trkpt lat="43.82272" lon="6.90699">
        <ele>1308.0112305</ele>
        <time>2012-06-28T19:40:28Z</time>
      </trkpt>
      <trkpt lat="43.82287" lon="6.90691">
        <ele>1308.4916992</ele>
        <time>2012-06-28T19:40:42Z</time>
      </trkpt>
      <trkpt lat="43.82288" lon="6.90691">
        <ele>1308.9724121</ele>
        <time>2012-06-28T19:40:43Z</time>
      </trkpt>
      <trkpt lat="43.82307" lon="6.90691">
        <ele>1308.4916992</ele>
        <time>2012-06-28T19:41:01Z</time>
      </trkpt>
      <trkpt lat="43.82317" lon="6.9069">
        <ele>1309.9335938</ele>
        <time>2012-06-28T19:41:30Z</time>
      </trkpt>
      <trkpt lat="43.82326" lon="6.90688">
        <ele>1311.3757324</ele>
        <time>2012-06-28T19:41:37Z</time>
      </trkpt>
      <trkpt lat="43.8233" lon="6.9069">
        <ele>1311.8564453</ele>
        <time>2012-06-28T19:41:49Z</time>
      </trkpt>
      <trkpt lat="43.82332" lon="6.90688">
        <ele>1310.8950195</ele>
        <time>2012-06-28T19:42:07Z</time>
      </trkpt>
      <trkpt lat="43.82334" lon="6.90687">
        <ele>1311.3757324</ele>
        <time>2012-06-28T19:42:13Z</time>
      </trkpt>
      <trkpt lat="43.82336" lon="6.90688">
        <ele>1311.8564453</ele>
        <time>2012-06-28T19:42:15Z</time>
      </trkpt>
      <trkpt lat="43.82341" lon="6.90686">
        <ele>1312.817627</ele>
        <time>2012-06-28T19:42:33Z</time>
      </trkpt>
      <trkpt lat="43.82343" lon="6.90687">
        <ele>1312.817627</ele>
        <time>2012-06-28T19:42:45Z</time>
      </trkpt>
      <trkpt lat="43.82355" lon="6.90687">
        <ele>1314.7402344</ele>
        <time>2012-06-28T19:42:56Z</time>
      </trkpt>
      <trkpt lat="43.82367" lon="6.90687">
        <ele>1317.6240234</ele>
        <time>2012-06-28T19:43:11Z</time>
      </trkpt>
      <trkpt lat="43.82367" lon="6.90687">
        <ele>1317.6240234</ele>
        <time>2012-06-28T19:43:30Z</time>
      </trkpt>
      <trkpt lat="43.82388" lon="6.907">
        <ele>1320.0273438</ele>
        <time>2012-06-28T19:43:49Z</time>
      </trkpt>
      <trkpt lat="43.82404" lon="6.90704">
        <ele>1321.9499512</ele>
        <time>2012-06-28T19:44:06Z</time>
      </trkpt>
      <trkpt lat="43.82405" lon="6.90703">
        <ele>1321.4692383</ele>
        <time>2012-06-28T19:44:49Z</time>
      </trkpt>
      <trkpt lat="43.82407" lon="6.90703">
        <ele>1321.4692383</ele>
        <time>2012-06-28T19:45:06Z</time>
      </trkpt>
      <trkpt lat="43.82408" lon="6.90703">
        <ele>1321.4692383</ele>
        <time>2012-06-28T19:45:15Z</time>
      </trkpt>
      <trkpt lat="43.82412" lon="6.90706">
        <ele>1322.4306641</ele>
        <time>2012-06-28T19:45:20Z</time>
      </trkpt>
      <trkpt lat="43.82419" lon="6.90707">
        <ele>1325.3146973</ele>
        <time>2012-06-28T19:45:29Z</time>
      </trkpt>
      <trkpt lat="43.8242" lon="6.90708">
        <ele>1324.3535156</ele>
        <time>2012-06-28T19:45:43Z</time>
      </trkpt>
      <trkpt lat="43.82427" lon="6.90713">
        <ele>1325.7954102</ele>
        <time>2012-06-28T19:45:57Z</time>
      </trkpt>
      <trkpt lat="43.82428" lon="6.90714">
        <ele>1325.7954102</ele>
        <time>2012-06-28T19:46:18Z</time>
      </trkpt>
      <trkpt lat="43.82428" lon="6.90714">
        <ele>1325.7954102</ele>
        <time>2012-06-28T19:46:22Z</time>
      </trkpt>
      <trkpt lat="43.82437" lon="6.90714">
        <ele>1331.5632324</ele>
        <time>2012-06-28T19:46:34Z</time>
      </trkpt>
      <trkpt lat="43.82447" lon="6.90718">
        <ele>1330.1213379</ele>
        <time>2012-06-28T19:46:52Z</time>
      </trkpt>
      <trkpt lat="43.82454" lon="6.90723">
        <ele>1331.5632324</ele>
        <time>2012-06-28T19:46:57Z</time>
      </trkpt>
      <trkpt lat="43.82458" lon="6.90729">
        <ele>1333.4858398</ele>
        <time>2012-06-28T19:47:02Z</time>
      </trkpt>
      <trkpt lat="43.82462" lon="6.90731">
        <ele>1333.9665527</ele>
        <time>2012-06-28T19:47:06Z</time>
      </trkpt>
      <trkpt lat="43.82468" lon="6.90736">
        <ele>1334.9279785</ele>
        <time>2012-06-28T19:47:19Z</time>
      </trkpt>
      <trkpt lat="43.82469" lon="6.90735">
        <ele>1334.9279785</ele>
        <time>2012-06-28T19:48:59Z</time>
      </trkpt>
      <trkpt lat="43.8247" lon="6.90735">
        <ele>1335.4084473</ele>
        <time>2012-06-28T19:49:11Z</time>
      </trkpt>
      <trkpt lat="43.82474" lon="6.90738">
        <ele>1336.369873</ele>
        <time>2012-06-28T19:49:14Z</time>
      </trkpt>
      <trkpt lat="43.82479" lon="6.9074">
        <ele>1337.3310547</ele>
        <time>2012-06-28T19:49:18Z</time>
      </trkpt>
      <trkpt lat="43.82481" lon="6.9074">
        <ele>1337.8117676</ele>
        <time>2012-06-28T19:49:20Z</time>
      </trkpt>
      <trkpt lat="43.82488" lon="6.90746">
        <ele>1337.8117676</ele>
        <time>2012-06-28T19:49:25Z</time>
      </trkpt>
      <trkpt lat="43.82497" lon="6.90752">
        <ele>1339.734375</ele>
        <time>2012-06-28T19:49:34Z</time>
      </trkpt>
      <trkpt lat="43.82519" lon="6.90758">
        <ele>1343.579834</ele>
        <time>2012-06-28T19:49:51Z</time>
      </trkpt>
      <trkpt lat="43.82523" lon="6.9076">
        <ele>1344.5410156</ele>
        <time>2012-06-28T19:50:11Z</time>
      </trkpt>
      <trkpt lat="43.82536" lon="6.9077">
        <ele>1347.4250488</ele>
        <time>2012-06-28T19:50:39Z</time>
      </trkpt>
      <trkpt lat="43.82544" lon="6.90774">
        <ele>1348.8669434</ele>
        <time>2012-06-28T19:50:45Z</time>
      </trkpt>
      <trkpt lat="43.82548" lon="6.90781">
        <ele>1349.3476563</ele>
        <time>2012-06-28T19:50:58Z</time>
      </trkpt>
      <trkpt lat="43.82549" lon="6.90787">
        <ele>1350.309082</ele>
        <time>2012-06-28T19:51:21Z</time>
      </trkpt>
      <trkpt lat="43.82547" lon="6.90795">
        <ele>1350.7895508</ele>
        <time>2012-06-28T19:51:25Z</time>
      </trkpt>
      <trkpt lat="43.82544" lon="6.90799">
        <ele>1351.7509766</ele>
        <time>2012-06-28T19:51:28Z</time>
      </trkpt>
      <trkpt lat="43.82544" lon="6.90837">
        <ele>1355.1154785</ele>
        <time>2012-06-28T19:51:46Z</time>
      </trkpt>
      <trkpt lat="43.82565" lon="6.90853">
        <ele>1359.4416504</ele>
        <time>2012-06-28T19:52:04Z</time>
      </trkpt>
      <trkpt lat="43.82586" lon="6.90852">
        <ele>1360.402832</ele>
        <time>2012-06-28T19:52:19Z</time>
      </trkpt>
      <trkpt lat="43.82609" lon="6.90876">
        <ele>1360.402832</ele>
        <time>2012-06-28T19:52:38Z</time>
      </trkpt>
      <trkpt lat="43.82615" lon="6.90882">
        <ele>1360.8835449</ele>
        <time>2012-06-28T19:52:54Z</time>
      </trkpt>
      <trkpt lat="43.82616" lon="6.90885">
        <ele>1360.8835449</ele>
        <time>2012-06-28T19:53:34Z</time>
      </trkpt>
      <trkpt lat="43.82621" lon="6.90933">
        <ele>1361.8449707</ele>
        <time>2012-06-28T19:53:52Z</time>
      </trkpt>
      <trkpt lat="43.82643" lon="6.90986">
        <ele>1361.3642578</ele>
        <time>2012-06-28T19:54:06Z</time>
      </trkpt>
      <trkpt lat="43.82653" lon="6.91">
        <ele>1360.402832</ele>
        <time>2012-06-28T19:54:09Z</time>
      </trkpt>
      <trkpt lat="43.82655" lon="6.91023">
        <ele>1361.3642578</ele>
        <time>2012-06-28T19:54:13Z</time>
      </trkpt>
      <trkpt lat="43.82652" lon="6.91036">
        <ele>1361.3642578</ele>
        <time>2012-06-28T19:54:15Z</time>
      </trkpt>
      <trkpt lat="43.82653" lon="6.91059">
        <ele>1362.8061523</ele>
        <time>2012-06-28T19:54:19Z</time>
      </trkpt>
      <trkpt lat="43.82663" lon="6.91141">
        <ele>1362.3254395</ele>
        <time>2012-06-28T19:54:35Z</time>
      </trkpt>
      <trkpt lat="43.82662" lon="6.91198">
        <ele>1360.402832</ele>
        <time>2012-06-28T19:54:44Z</time>
      </trkpt>
      <trkpt lat="43.82658" lon="6.91218">
        <ele>1359.9221191</ele>
        <time>2012-06-28T19:54:47Z</time>
      </trkpt>
      <trkpt lat="43.82655" lon="6.91277">
        <ele>1360.402832</ele>
        <time>2012-06-28T19:54:56Z</time>
      </trkpt>
      <trkpt lat="43.82654" lon="6.91296">
        <ele>1358.9609375</ele>
        <time>2012-06-28T19:54:59Z</time>
      </trkpt>
      <trkpt lat="43.82663" lon="6.9136">
        <ele>1358.4802246</ele>
        <time>2012-06-28T19:55:11Z</time>
      </trkpt>
      <trkpt lat="43.8267" lon="6.91433">
        <ele>1358.4802246</ele>
        <time>2012-06-28T19:55:25Z</time>
      </trkpt>
      <trkpt lat="43.82676" lon="6.91455">
        <ele>1357.519043</ele>
        <time>2012-06-28T19:55:29Z</time>
      </trkpt>
      <trkpt lat="43.82687" lon="6.91468">
        <ele>1357.0383301</ele>
        <time>2012-06-28T19:55:32Z</time>
      </trkpt>
      <trkpt lat="43.82697" lon="6.91501">
        <ele>1357.0383301</ele>
        <time>2012-06-28T19:55:37Z</time>
      </trkpt>
      <trkpt lat="43.82698" lon="6.91529">
        <ele>1357.519043</ele>
        <time>2012-06-28T19:55:41Z</time>
      </trkpt>
      <trkpt lat="43.8272" lon="6.91592">
        <ele>1361.8449707</ele>
        <time>2012-06-28T19:55:54Z</time>
      </trkpt>
      <trkpt lat="43.8275" lon="6.91657">
        <ele>1363.767334</ele>
        <time>2012-06-28T19:56:10Z</time>
      </trkpt>
      <trkpt lat="43.82751" lon="6.91662">
        <ele>1362.8061523</ele>
        <time>2012-06-28T19:56:11Z</time>
      </trkpt>
      <trkpt lat="43.82772" lon="6.91729">
        <ele>1364.2480469</ele>
        <time>2012-06-28T19:56:25Z</time>
      </trkpt>
      <trkpt lat="43.82789" lon="6.9178">
        <ele>1366.1706543</ele>
        <time>2012-06-28T19:56:38Z</time>
      </trkpt>
      <trkpt lat="43.82793" lon="6.91802">
        <ele>1365.6901855</ele>
        <time>2012-06-28T19:56:42Z</time>
      </trkpt>
      <trkpt lat="43.82793" lon="6.91819">
        <ele>1365.2094727</ele>
        <time>2012-06-28T19:56:45Z</time>
      </trkpt>
      <trkpt lat="43.82807" lon="6.91887">
        <ele>1360.402832</ele>
        <time>2012-06-28T19:56:54Z</time>
      </trkpt>
      <trkpt lat="43.82798" lon="6.91925">
        <ele>1358.4802246</ele>
        <time>2012-06-28T19:57:00Z</time>
      </trkpt>
      <trkpt lat="43.82791" lon="6.91938">
        <ele>1357.9997559</ele>
        <time>2012-06-28T19:57:02Z</time>
      </trkpt>
      <trkpt lat="43.8278" lon="6.91975">
        <ele>1358.4802246</ele>
        <time>2012-06-28T19:57:07Z</time>
      </trkpt>
      <trkpt lat="43.82776" lon="6.92046">
        <ele>1357.9997559</ele>
        <time>2012-06-28T19:57:16Z</time>
      </trkpt>
      <trkpt lat="43.82782" lon="6.9208">
        <ele>1358.4802246</ele>
        <time>2012-06-28T19:57:21Z</time>
      </trkpt>
      <trkpt lat="43.82794" lon="6.92099">
        <ele>1358.9609375</ele>
        <time>2012-06-28T19:57:25Z</time>
      </trkpt>
      <trkpt lat="43.82805" lon="6.92139">
        <ele>1359.4416504</ele>
        <time>2012-06-28T19:57:32Z</time>
      </trkpt>
      <trkpt lat="43.82803" lon="6.92176">
        <ele>1358.4802246</ele>
        <time>2012-06-28T19:57:37Z</time>
      </trkpt>
      <trkpt lat="43.82807" lon="6.92223">
        <ele>1358.4802246</ele>
        <time>2012-06-28T19:57:43Z</time>
      </trkpt>
      <trkpt lat="43.82813" lon="6.92253">
        <ele>1358.4802246</ele>
        <time>2012-06-28T19:57:47Z</time>
      </trkpt>
      <trkpt lat="43.82816" lon="6.92282">
        <ele>1357.0383301</ele>
        <time>2012-06-28T19:57:51Z</time>
      </trkpt>
      <trkpt lat="43.82817" lon="6.92294">
        <ele>1356.5576172</ele>
        <time>2012-06-28T19:57:53Z</time>
      </trkpt>
      <trkpt lat="43.82823" lon="6.92362">
        <ele>1358.9609375</ele>
        <time>2012-06-28T19:58:07Z</time>
      </trkpt>
      <trkpt lat="43.8281" lon="6.92418">
        <ele>1357.9997559</ele>
        <time>2012-06-28T19:58:19Z</time>
      </trkpt>
      <trkpt lat="43.82803" lon="6.92485">
        <ele>1358.9609375</ele>
        <time>2012-06-28T19:58:32Z</time>
      </trkpt>
      <trkpt lat="43.82795" lon="6.9254">
        <ele>1358.4802246</ele>
        <time>2012-06-28T19:58:41Z</time>
      </trkpt>
      <trkpt lat="43.82793" lon="6.92555">
        <ele>1358.4802246</ele>
        <time>2012-06-28T19:58:43Z</time>
      </trkpt>
      <trkpt lat="43.82793" lon="6.92584">
        <ele>1358.4802246</ele>
        <time>2012-06-28T19:58:47Z</time>
      </trkpt>
      <trkpt lat="43.82788" lon="6.92608">
        <ele>1358.4802246</ele>
        <time>2012-06-28T19:58:51Z</time>
      </trkpt>
      <trkpt lat="43.82794" lon="6.92649">
        <ele>1360.402832</ele>
        <time>2012-06-28T19:58:58Z</time>
      </trkpt>
      <trkpt lat="43.82798" lon="6.92683">
        <ele>1359.4416504</ele>
        <time>2012-06-28T19:59:04Z</time>
      </trkpt>
      <trkpt lat="43.82797" lon="6.92701">
        <ele>1358.4802246</ele>
        <time>2012-06-28T19:59:07Z</time>
      </trkpt>
      <trkpt lat="43.828" lon="6.92718">
        <ele>1357.9997559</ele>
        <time>2012-06-28T19:59:10Z</time>
      </trkpt>
      <trkpt lat="43.82798" lon="6.92775">
        <ele>1357.9997559</ele>
        <time>2012-06-28T19:59:19Z</time>
      </trkpt>
      <trkpt lat="43.82787" lon="6.92809">
        <ele>1356.0769043</ele>
        <time>2012-06-28T19:59:25Z</time>
      </trkpt>
      <trkpt lat="43.82784" lon="6.92837">
        <ele>1355.5961914</ele>
        <time>2012-06-28T19:59:29Z</time>
      </trkpt>
      <trkpt lat="43.82785" lon="6.9285">
        <ele>1355.5961914</ele>
        <time>2012-06-28T19:59:31Z</time>
      </trkpt>
      <trkpt lat="43.82783" lon="6.92874">
        <ele>1355.1154785</ele>
        <time>2012-06-28T19:59:35Z</time>
      </trkpt>
      <trkpt lat="43.82765" lon="6.92894">
        <ele>1355.1154785</ele>
        <time>2012-06-28T19:59:40Z</time>
      </trkpt>
      <trkpt lat="43.82757" lon="6.929">
        <ele>1354.6347656</ele>
        <time>2012-06-28T19:59:42Z</time>
      </trkpt>
      <trkpt lat="43.82714" lon="6.92935">
        <ele>1354.6347656</ele>
        <time>2012-06-28T19:59:53Z</time>
      </trkpt>
      <trkpt lat="43.82706" lon="6.92962">
        <ele>1354.6347656</ele>
        <time>2012-06-28T19:59:58Z</time>
      </trkpt>
      <trkpt lat="43.827" lon="6.92993">
        <ele>1356.0769043</ele>
        <time>2012-06-28T20:00:04Z</time>
      </trkpt>
      <trkpt lat="43.8267" lon="6.93048">
        <ele>1358.4802246</ele>
        <time>2012-06-28T20:00:20Z</time>
      </trkpt>
      <trkpt lat="43.82656" lon="6.93107">
        <ele>1357.519043</ele>
        <time>2012-06-28T20:00:32Z</time>
      </trkpt>
      <trkpt lat="43.82653" lon="6.93111">
        <ele>1357.519043</ele>
        <time>2012-06-28T20:00:33Z</time>
      </trkpt>
      <trkpt lat="43.82663" lon="6.93131">
        <ele>1356.0769043</ele>
        <time>2012-06-28T20:00:38Z</time>
      </trkpt>
      <trkpt lat="43.82671" lon="6.93137">
        <ele>1356.0769043</ele>
        <time>2012-06-28T20:00:40Z</time>
      </trkpt>
      <trkpt lat="43.82688" lon="6.93198">
        <ele>1357.519043</ele>
        <time>2012-06-28T20:00:53Z</time>
      </trkpt>
      <trkpt lat="43.82662" lon="6.93218">
        <ele>1358.4802246</ele>
        <time>2012-06-28T20:01:02Z</time>
      </trkpt>
      <trkpt lat="43.82634" lon="6.9326">
        <ele>1361.3642578</ele>
        <time>2012-06-28T20:01:16Z</time>
      </trkpt>
      <trkpt lat="43.82611" lon="6.93292">
        <ele>1363.2868652</ele>
        <time>2012-06-28T20:01:30Z</time>
      </trkpt>
      <trkpt lat="43.82612" lon="6.93296">
        <ele>1362.3254395</ele>
        <time>2012-06-28T20:01:32Z</time>
      </trkpt>
      <trkpt lat="43.82607" lon="6.93311">
        <ele>1363.767334</ele>
        <time>2012-06-28T20:01:38Z</time>
      </trkpt>
      <trkpt lat="43.82604" lon="6.9333">
        <ele>1365.2094727</ele>
        <time>2012-06-28T20:01:51Z</time>
      </trkpt>
      <trkpt lat="43.82596" lon="6.93336">
        <ele>1365.6901855</ele>
        <time>2012-06-28T20:02:10Z</time>
      </trkpt>
      <trkpt lat="43.82597" lon="6.93336">
        <ele>1365.6901855</ele>
        <time>2012-06-28T20:03:04Z</time>
      </trkpt>
      <trkpt lat="43.82597" lon="6.93336">
        <ele>1365.6901855</ele>
        <time>2012-06-28T20:04:07Z</time>
      </trkpt>
      <trkpt lat="43.82596" lon="6.9333">
        <ele>1365.6901855</ele>
        <time>2012-06-28T20:04:18Z</time>
      </trkpt>
      <trkpt lat="43.82593" lon="6.93331">
        <ele>1367.1320801</ele>
        <time>2012-06-28T20:04:44Z</time>
      </trkpt>
      <trkpt lat="43.82594" lon="6.93332">
        <ele>1369.0546875</ele>
        <time>2012-06-28T20:05:16Z</time>
      </trkpt>
      <trkpt lat="43.82594" lon="6.9333">
        <ele>1369.0546875</ele>
        <time>2012-06-28T20:05:30Z</time>
      </trkpt>
      <trkpt lat="43.82595" lon="6.93332">
        <ele>1370.0158691</ele>
        <time>2012-06-28T20:05:55Z</time>
      </trkpt>
      <trkpt lat="43.82597" lon="6.93333">
        <ele>1369.5354004</ele>
        <time>2012-06-28T20:06:12Z</time>
      </trkpt>
      <trkpt lat="43.82596" lon="6.93335">
        <ele>1369.0546875</ele>
        <time>2012-06-28T20:06:38Z</time>
      </trkpt>
      <trkpt lat="43.82596" lon="6.93337">
        <ele>1369.0546875</ele>
        <time>2012-06-28T20:07:43Z</time>
      </trkpt>
      <trkpt lat="43.82596" lon="6.93342">
        <ele>1369.0546875</ele>
        <time>2012-06-28T20:07:46Z</time>
      </trkpt>
      <trkpt lat="43.82579" lon="6.93397">
        <ele>1372.4194336</ele>
        <time>2012-06-28T20:08:07Z</time>
      </trkpt>
      <trkpt lat="43.82575" lon="6.93438">
        <ele>1377.2260742</ele>
        <time>2012-06-28T20:08:26Z</time>
      </trkpt>
      <trkpt lat="43.82581" lon="6.93478">
        <ele>1382.5131836</ele>
        <time>2012-06-28T20:08:46Z</time>
      </trkpt>
      <trkpt lat="43.82594" lon="6.93517">
        <ele>1386.3583984</ele>
        <time>2012-06-28T20:09:09Z</time>
      </trkpt>
      <trkpt lat="43.82598" lon="6.93539">
        <ele>1388.28125</ele>
        <time>2012-06-28T20:09:22Z</time>
      </trkpt>
      <trkpt lat="43.826" lon="6.93544">
        <ele>1388.28125</ele>
        <time>2012-06-28T20:09:25Z</time>
      </trkpt>
      <trkpt lat="43.82606" lon="6.93589">
        <ele>1393.5683594</ele>
        <time>2012-06-28T20:09:50Z</time>
      </trkpt>
      <trkpt lat="43.82613" lon="6.93634">
        <ele>1398.3747559</ele>
        <time>2012-06-28T20:10:16Z</time>
      </trkpt>
      <trkpt lat="43.82616" lon="6.93675">
        <ele>1402.2199707</ele>
        <time>2012-06-28T20:10:39Z</time>
      </trkpt>
      <trkpt lat="43.82617" lon="6.93723">
        <ele>1406.0654297</ele>
        <time>2012-06-28T20:11:05Z</time>
      </trkpt>
      <trkpt lat="43.82617" lon="6.93769">
        <ele>1410.8720703</ele>
        <time>2012-06-28T20:11:30Z</time>
      </trkpt>
      <trkpt lat="43.82615" lon="6.93812">
        <ele>1413.2753906</ele>
        <time>2012-06-28T20:11:52Z</time>
      </trkpt>
      <trkpt lat="43.82618" lon="6.93852">
        <ele>1417.6010742</ele>
        <time>2012-06-28T20:12:15Z</time>
      </trkpt>
      <trkpt lat="43.82615" lon="6.93902">
        <ele>1422.407959</ele>
        <time>2012-06-28T20:12:42Z</time>
      </trkpt>
      <trkpt lat="43.82619" lon="6.93942">
        <ele>1424.3305664</ele>
        <time>2012-06-28T20:12:59Z</time>
      </trkpt>
      <trkpt lat="43.82632" lon="6.93989">
        <ele>1425.7724609</ele>
        <time>2012-06-28T20:13:18Z</time>
      </trkpt>
      <trkpt lat="43.82623" lon="6.94034">
        <ele>1425.7724609</ele>
        <time>2012-06-28T20:13:33Z</time>
      </trkpt>
      <trkpt lat="43.8262" lon="6.94039">
        <ele>1425.7724609</ele>
        <time>2012-06-28T20:13:34Z</time>
      </trkpt>
      <trkpt lat="43.82625" lon="6.94086">
        <ele>1425.291748</ele>
        <time>2012-06-28T20:13:44Z</time>
      </trkpt>
      <trkpt lat="43.82628" lon="6.94089">
        <ele>1424.8112793</ele>
        <time>2012-06-28T20:13:45Z</time>
      </trkpt>
      <trkpt lat="43.82636" lon="6.94097">
        <ele>1424.3305664</ele>
        <time>2012-06-28T20:13:47Z</time>
      </trkpt>
      <trkpt lat="43.82663" lon="6.94114">
        <ele>1424.8112793</ele>
        <time>2012-06-28T20:13:53Z</time>
      </trkpt>
      <trkpt lat="43.82694" lon="6.94117">
        <ele>1422.8886719</ele>
        <time>2012-06-28T20:13:59Z</time>
      </trkpt>
      <trkpt lat="43.82787" lon="6.94117">
        <ele>1416.6398926</ele>
        <time>2012-06-28T20:14:11Z</time>
      </trkpt>
      <trkpt lat="43.82802" lon="6.94117">
        <ele>1416.6398926</ele>
        <time>2012-06-28T20:14:13Z</time>
      </trkpt>
      <trkpt lat="43.82877" lon="6.94154">
        <ele>1412.7946777</ele>
        <time>2012-06-28T20:14:24Z</time>
      </trkpt>
      <trkpt lat="43.82897" lon="6.94162">
        <ele>1412.7946777</ele>
        <time>2012-06-28T20:14:27Z</time>
      </trkpt>
      <trkpt lat="43.82913" lon="6.94196">
        <ele>1414.2365723</ele>
        <time>2012-06-28T20:14:33Z</time>
      </trkpt>
      <trkpt lat="43.8291" lon="6.94265">
        <ele>1418.0817871</ele>
        <time>2012-06-28T20:14:49Z</time>
      </trkpt>
      <trkpt lat="43.82927" lon="6.94306">
        <ele>1419.5239258</ele>
        <time>2012-06-28T20:15:04Z</time>
      </trkpt>
      <trkpt lat="43.82959" lon="6.94332">
        <ele>1418.0817871</ele>
        <time>2012-06-28T20:15:19Z</time>
      </trkpt>
      <trkpt lat="43.82972" lon="6.94364">
        <ele>1420.4853516</ele>
        <time>2012-06-28T20:15:31Z</time>
      </trkpt>
      <trkpt lat="43.82976" lon="6.94375">
        <ele>1421.9272461</ele>
        <time>2012-06-28T20:15:35Z</time>
      </trkpt>
      <trkpt lat="43.82982" lon="6.94402">
        <ele>1424.3305664</ele>
        <time>2012-06-28T20:15:47Z</time>
      </trkpt>
      <trkpt lat="43.82997" lon="6.94445">
        <ele>1429.1369629</ele>
        <time>2012-06-28T20:16:08Z</time>
      </trkpt>
      <trkpt lat="43.82987" lon="6.94485">
        <ele>1428.6564941</ele>
        <time>2012-06-28T20:16:24Z</time>
      </trkpt>
      <trkpt lat="43.82996" lon="6.94508">
        <ele>1430.0983887</ele>
        <time>2012-06-28T20:16:35Z</time>
      </trkpt>
      <trkpt lat="43.82997" lon="6.9451">
        <ele>1430.5791016</ele>
        <time>2012-06-28T20:16:36Z</time>
      </trkpt>
      <trkpt lat="43.82999" lon="6.94539">
        <ele>1429.6176758</ele>
        <time>2012-06-28T20:16:54Z</time>
      </trkpt>
      <trkpt lat="43.83009" lon="6.94574">
        <ele>1427.6950684</ele>
        <time>2012-06-28T20:17:05Z</time>
      </trkpt>
      <trkpt lat="43.83023" lon="6.94601">
        <ele>1422.8886719</ele>
        <time>2012-06-28T20:17:10Z</time>
      </trkpt>
      <trkpt lat="43.8303" lon="6.94612">
        <ele>1420.9660645</ele>
        <time>2012-06-28T20:17:12Z</time>
      </trkpt>
      <trkpt lat="43.83046" lon="6.94639">
        <ele>1419.5239258</ele>
        <time>2012-06-28T20:17:16Z</time>
      </trkpt>
      <trkpt lat="43.83055" lon="6.947">
        <ele>1416.6398926</ele>
        <time>2012-06-28T20:17:22Z</time>
      </trkpt>
      <trkpt lat="43.83094" lon="6.94782">
        <ele>1413.2753906</ele>
        <time>2012-06-28T20:17:32Z</time>
      </trkpt>
      <trkpt lat="43.83161" lon="6.94897">
        <ele>1407.9882813</ele>
        <time>2012-06-28T20:17:47Z</time>
      </trkpt>
      <trkpt lat="43.83194" lon="6.9497">
        <ele>1408.9494629</ele>
        <time>2012-06-28T20:17:57Z</time>
      </trkpt>
      <trkpt lat="43.83213" lon="6.95047">
        <ele>1411.3527832</ele>
        <time>2012-06-28T20:18:12Z</time>
      </trkpt>
      <trkpt lat="43.83233" lon="6.95121">
        <ele>1415.197998</ele>
        <time>2012-06-28T20:18:32Z</time>
      </trkpt>
      <trkpt lat="43.83245" lon="6.95192">
        <ele>1416.1591797</ele>
        <time>2012-06-28T20:18:52Z</time>
      </trkpt>
      <trkpt lat="43.83253" lon="6.9524">
        <ele>1419.0432129</ele>
        <time>2012-06-28T20:19:12Z</time>
      </trkpt>
      <trkpt lat="43.83265" lon="6.95296">
        <ele>1422.407959</ele>
        <time>2012-06-28T20:19:37Z</time>
      </trkpt>
      <trkpt lat="43.83276" lon="6.95351">
        <ele>1425.291748</ele>
        <time>2012-06-28T20:19:59Z</time>
      </trkpt>
      <trkpt lat="43.83287" lon="6.95404">
        <ele>1427.2145996</ele>
        <time>2012-06-28T20:20:22Z</time>
      </trkpt>
      <trkpt lat="43.83302" lon="6.95434">
        <ele>1430.5791016</ele>
        <time>2012-06-28T20:20:41Z</time>
      </trkpt>
      <trkpt lat="43.83322" lon="6.95476">
        <ele>1435.385498</ele>
        <time>2012-06-28T20:21:07Z</time>
      </trkpt>
      <trkpt lat="43.83331" lon="6.95491">
        <ele>1438.2697754</ele>
        <time>2012-06-28T20:21:23Z</time>
      </trkpt>
      <trkpt lat="43.83343" lon="6.95528">
        <ele>1440.6728516</ele>
        <time>2012-06-28T20:21:45Z</time>
      </trkpt>
      <trkpt lat="43.83344" lon="6.95535">
        <ele>1441.6342773</ele>
        <time>2012-06-28T20:21:48Z</time>
      </trkpt>
      <trkpt lat="43.83349" lon="6.95566">
        <ele>1446.9213867</ele>
        <time>2012-06-28T20:22:08Z</time>
      </trkpt>
      <trkpt lat="43.83349" lon="6.95591">
        <ele>1447.8828125</ele>
        <time>2012-06-28T20:22:18Z</time>
      </trkpt>
      <trkpt lat="43.83342" lon="6.95608">
        <ele>1449.324707</ele>
        <time>2012-06-28T20:22:26Z</time>
      </trkpt>
      <trkpt lat="43.83341" lon="6.95616">
        <ele>1450.7666016</ele>
        <time>2012-06-28T20:22:30Z</time>
      </trkpt>
      <trkpt lat="43.83337" lon="6.95623">
        <ele>1450.2861328</ele>
        <time>2012-06-28T20:22:34Z</time>
      </trkpt>
      <trkpt lat="43.83319" lon="6.95631">
        <ele>1450.2861328</ele>
        <time>2012-06-28T20:22:51Z</time>
      </trkpt>
      <trkpt lat="43.83318" lon="6.95633">
        <ele>1450.7666016</ele>
        <time>2012-06-28T20:23:25Z</time>
      </trkpt>
      <trkpt lat="43.83319" lon="6.95632">
        <ele>1451.2473145</ele>
        <time>2012-06-28T20:23:29Z</time>
      </trkpt>
      <trkpt lat="43.83346" lon="6.95624">
        <ele>1453.170166</ele>
        <time>2012-06-28T20:23:44Z</time>
      </trkpt>
      <trkpt lat="43.83352" lon="6.9562">
        <ele>1454.1315918</ele>
        <time>2012-06-28T20:24:03Z</time>
      </trkpt>
      <trkpt lat="43.83354" lon="6.9562">
        <ele>1453.170166</ele>
        <time>2012-06-28T20:25:06Z</time>
      </trkpt>
      <trkpt lat="43.83354" lon="6.95621">
        <ele>1452.2087402</ele>
        <time>2012-06-28T20:25:40Z</time>
      </trkpt>
      <trkpt lat="43.83354" lon="6.95621">
        <ele>1452.2087402</ele>
        <time>2012-06-28T20:26:54Z</time>
      </trkpt>
      <trkpt lat="43.83354" lon="6.9562">
        <ele>1451.2473145</ele>
        <time>2012-06-28T20:28:00Z</time>
      </trkpt>
      <trkpt lat="43.83354" lon="6.95619">
        <ele>1451.2473145</ele>
        <time>2012-06-28T20:28:30Z</time>
      </trkpt>
      <trkpt lat="43.83354" lon="6.95619">
        <ele>1451.2473145</ele>
        <time>2012-06-28T20:28:51Z</time>
      </trkpt>
      <trkpt lat="43.83354" lon="6.95619">
        <ele>1451.7280273</ele>
        <time>2012-06-28T20:29:47Z</time>
      </trkpt>
      <trkpt lat="43.83365" lon="6.95623">
        <ele>1454.6120605</ele>
        <time>2012-06-28T20:30:00Z</time>
      </trkpt>
      <trkpt lat="43.8337" lon="6.95623">
        <ele>1455.5734863</ele>
        <time>2012-06-28T20:30:04Z</time>
      </trkpt>
      <trkpt lat="43.83398" lon="6.95636">
        <ele>1461.3413086</ele>
        <time>2012-06-28T20:30:24Z</time>
      </trkpt>
      <trkpt lat="43.83431" lon="6.95669">
        <ele>1463.263916</ele>
        <time>2012-06-28T20:30:44Z</time>
      </trkpt>
      <trkpt lat="43.83467" lon="6.95722">
        <ele>1462.7832031</ele>
        <time>2012-06-28T20:31:00Z</time>
      </trkpt>
      <trkpt lat="43.83509" lon="6.95828">
        <ele>1460.8605957</ele>
        <time>2012-06-28T20:31:20Z</time>
      </trkpt>
      <trkpt lat="43.83537" lon="6.95948">
        <ele>1458.9379883</ele>
        <time>2012-06-28T20:31:39Z</time>
      </trkpt>
      <trkpt lat="43.83538" lon="6.95963">
        <ele>1458.4572754</ele>
        <time>2012-06-28T20:31:41Z</time>
      </trkpt>
      <trkpt lat="43.83546" lon="6.96076">
        <ele>1458.4572754</ele>
        <time>2012-06-28T20:31:58Z</time>
      </trkpt>
      <trkpt lat="43.83559" lon="6.96158">
        <ele>1457.0153809</ele>
        <time>2012-06-28T20:32:11Z</time>
      </trkpt>
      <trkpt lat="43.83558" lon="6.96242">
        <ele>1457.0153809</ele>
        <time>2012-06-28T20:32:25Z</time>
      </trkpt>
      <trkpt lat="43.83568" lon="6.96338">
        <ele>1457.0153809</ele>
        <time>2012-06-28T20:32:41Z</time>
      </trkpt>
      <trkpt lat="43.83571" lon="6.96368">
        <ele>1456.534668</ele>
        <time>2012-06-28T20:32:46Z</time>
      </trkpt>
      <trkpt lat="43.8357" lon="6.96385">
        <ele>1456.534668</ele>
        <time>2012-06-28T20:32:49Z</time>
      </trkpt>
      <trkpt lat="43.83539" lon="6.96475">
        <ele>1455.5734863</ele>
        <time>2012-06-28T20:33:05Z</time>
      </trkpt>
      <trkpt lat="43.83524" lon="6.96499">
        <ele>1456.0539551</ele>
        <time>2012-06-28T20:33:10Z</time>
      </trkpt>
      <trkpt lat="43.83515" lon="6.96515">
        <ele>1456.534668</ele>
        <time>2012-06-28T20:33:13Z</time>
      </trkpt>
      <trkpt lat="43.83495" lon="6.96548">
        <ele>1456.534668</ele>
        <time>2012-06-28T20:33:20Z</time>
      </trkpt>
      <trkpt lat="43.83489" lon="6.96557">
        <ele>1456.534668</ele>
        <time>2012-06-28T20:33:22Z</time>
      </trkpt>
      <trkpt lat="43.83449" lon="6.96649">
        <ele>1456.534668</ele>
        <time>2012-06-28T20:33:38Z</time>
      </trkpt>
      <trkpt lat="43.83447" lon="6.96655">
        <ele>1456.534668</ele>
        <time>2012-06-28T20:33:39Z</time>
      </trkpt>
      <trkpt lat="43.83437" lon="6.96686">
        <ele>1456.534668</ele>
        <time>2012-06-28T20:33:44Z</time>
      </trkpt>
      <trkpt lat="43.834" lon="6.96753">
        <ele>1456.0539551</ele>
        <time>2012-06-28T20:33:56Z</time>
      </trkpt>
      <trkpt lat="43.83327" lon="6.96819">
        <ele>1455.5734863</ele>
        <time>2012-06-28T20:34:13Z</time>
      </trkpt>
      <trkpt lat="43.83305" lon="6.96847">
        <ele>1455.5734863</ele>
        <time>2012-06-28T20:34:19Z</time>
      </trkpt>
      <trkpt lat="43.83254" lon="6.96987">
        <ele>1453.170166</ele>
        <time>2012-06-28T20:34:40Z</time>
      </trkpt>
      <trkpt lat="43.83217" lon="6.97104">
        <ele>1446.440918</ele>
        <time>2012-06-28T20:34:53Z</time>
      </trkpt>
      <trkpt lat="43.83208" lon="6.97133">
        <ele>1444.5180664</ele>
        <time>2012-06-28T20:34:56Z</time>
      </trkpt>
      <trkpt lat="43.83201" lon="6.9715">
        <ele>1443.0761719</ele>
        <time>2012-06-28T20:34:59Z</time>
      </trkpt>
      <trkpt lat="43.83183" lon="6.97234">
        <ele>1438.2697754</ele>
        <time>2012-06-28T20:35:10Z</time>
      </trkpt>
      <trkpt lat="43.8318" lon="6.97249">
        <ele>1437.3083496</ele>
        <time>2012-06-28T20:35:12Z</time>
      </trkpt>
      <trkpt lat="43.83171" lon="6.97282">
        <ele>1435.385498</ele>
        <time>2012-06-28T20:35:17Z</time>
      </trkpt>
      <trkpt lat="43.83154" lon="6.97308">
        <ele>1433.4628906</ele>
        <time>2012-06-28T20:35:26Z</time>
      </trkpt>
      <trkpt lat="43.83153" lon="6.97309">
        <ele>1433.4628906</ele>
        <time>2012-06-28T20:35:27Z</time>
      </trkpt>
      <trkpt lat="43.8315" lon="6.97314">
        <ele>1432.9821777</ele>
        <time>2012-06-28T20:35:39Z</time>
      </trkpt>
      <trkpt lat="43.83151" lon="6.97315">
        <ele>1432.9821777</ele>
        <time>2012-06-28T20:35:40Z</time>
      </trkpt>
      <trkpt lat="43.83161" lon="6.97316">
        <ele>1435.8662109</ele>
        <time>2012-06-28T20:35:47Z</time>
      </trkpt>
      <trkpt lat="43.83167" lon="6.97315">
        <ele>1437.3083496</ele>
        <time>2012-06-28T20:35:51Z</time>
      </trkpt>
      <trkpt lat="43.83172" lon="6.97319">
        <ele>1438.7504883</ele>
        <time>2012-06-28T20:35:55Z</time>
      </trkpt>
      <trkpt lat="43.83176" lon="6.97327">
        <ele>1440.1923828</ele>
        <time>2012-06-28T20:36:02Z</time>
      </trkpt>
      <trkpt lat="43.83177" lon="6.97331">
        <ele>1441.1535645</ele>
        <time>2012-06-28T20:36:05Z</time>
      </trkpt>
      <trkpt lat="43.83179" lon="6.97339">
        <ele>1440.6728516</ele>
        <time>2012-06-28T20:36:09Z</time>
      </trkpt>
      <trkpt lat="43.83185" lon="6.9734">
        <ele>1443.0761719</ele>
        <time>2012-06-28T20:36:21Z</time>
      </trkpt>
      <trkpt lat="43.83186" lon="6.97342">
        <ele>1443.5568848</ele>
        <time>2012-06-28T20:36:42Z</time>
      </trkpt>
      <trkpt lat="43.83195" lon="6.97355">
        <ele>1448.3632813</ele>
        <time>2012-06-28T20:36:57Z</time>
      </trkpt>
      <trkpt lat="43.83199" lon="6.97362">
        <ele>1452.2087402</ele>
        <time>2012-06-28T20:37:02Z</time>
      </trkpt>
      <trkpt lat="43.83203" lon="6.97378">
        <ele>1454.6120605</ele>
        <time>2012-06-28T20:37:10Z</time>
      </trkpt>
      <trkpt lat="43.83214" lon="6.97413">
        <ele>1457.0153809</ele>
        <time>2012-06-28T20:37:26Z</time>
      </trkpt>
      <trkpt lat="43.83232" lon="6.97437">
        <ele>1459.4187012</ele>
        <time>2012-06-28T20:37:36Z</time>
      </trkpt>
      <trkpt lat="43.83247" lon="6.97478">
        <ele>1460.8605957</ele>
        <time>2012-06-28T20:37:51Z</time>
      </trkpt>
      <trkpt lat="43.83249" lon="6.97489">
        <ele>1461.3413086</ele>
        <time>2012-06-28T20:38:07Z</time>
      </trkpt>
      <trkpt lat="43.83249" lon="6.97493">
        <ele>1460.3798828</ele>
        <time>2012-06-28T20:38:45Z</time>
      </trkpt>
      <trkpt lat="43.8325" lon="6.97494">
        <ele>1460.3798828</ele>
        <time>2012-06-28T20:39:08Z</time>
      </trkpt>
      <trkpt lat="43.8325" lon="6.97493">
        <ele>1459.8991699</ele>
        <time>2012-06-28T20:40:26Z</time>
      </trkpt>
      <trkpt lat="43.83257" lon="6.97512">
        <ele>1457.4960938</ele>
        <time>2012-06-28T20:41:27Z</time>
      </trkpt>
      <trkpt lat="43.83269" lon="6.97525">
        <ele>1453.6508789</ele>
        <time>2012-06-28T20:41:30Z</time>
      </trkpt>
      <trkpt lat="43.83302" lon="6.97596">
        <ele>1444.9987793</ele>
        <time>2012-06-28T20:41:38Z</time>
      </trkpt>
      <trkpt lat="43.83321" lon="6.97637">
        <ele>1442.1149902</ele>
        <time>2012-06-28T20:41:43Z</time>
      </trkpt>
      <trkpt lat="43.83325" lon="6.97653">
        <ele>1441.1535645</ele>
        <time>2012-06-28T20:41:45Z</time>
      </trkpt>
      <trkpt lat="43.83327" lon="6.97679">
        <ele>1438.7504883</ele>
        <time>2012-06-28T20:41:48Z</time>
      </trkpt>
      <trkpt lat="43.83336" lon="6.97712">
        <ele>1435.8662109</ele>
        <time>2012-06-28T20:41:52Z</time>
      </trkpt>
      <trkpt lat="43.83348" lon="6.97737">
        <ele>1434.4243164</ele>
        <time>2012-06-28T20:41:55Z</time>
      </trkpt>
      <trkpt lat="43.83357" lon="6.97763">
        <ele>1431.5402832</ele>
        <time>2012-06-28T20:41:58Z</time>
      </trkpt>
      <trkpt lat="43.83367" lon="6.97788">
        <ele>1426.7338867</ele>
        <time>2012-06-28T20:42:01Z</time>
      </trkpt>
      <trkpt lat="43.83368" lon="6.97812">
        <ele>1423.8498535</ele>
        <time>2012-06-28T20:42:05Z</time>
      </trkpt>
      <trkpt lat="43.83374" lon="6.97841">
        <ele>1419.5239258</ele>
        <time>2012-06-28T20:42:09Z</time>
      </trkpt>
      <trkpt lat="43.83372" lon="6.97863">
        <ele>1417.6010742</ele>
        <time>2012-06-28T20:42:12Z</time>
      </trkpt>
      <trkpt lat="43.83381" lon="6.97891">
        <ele>1414.7172852</ele>
        <time>2012-06-28T20:42:16Z</time>
      </trkpt>
      <trkpt lat="43.83403" lon="6.97929">
        <ele>1410.8720703</ele>
        <time>2012-06-28T20:42:21Z</time>
      </trkpt>
      <trkpt lat="43.83421" lon="6.97956">
        <ele>1407.0268555</ele>
        <time>2012-06-28T20:42:27Z</time>
      </trkpt>
      <trkpt lat="43.83428" lon="6.97955">
        <ele>1398.3747559</ele>
        <time>2012-06-28T20:42:34Z</time>
      </trkpt>
      <trkpt lat="43.8343" lon="6.97957">
        <ele>1397.4135742</ele>
        <time>2012-06-28T20:43:17Z</time>
      </trkpt>
      <trkpt lat="43.83431" lon="6.97957">
        <ele>1397.4135742</ele>
        <time>2012-06-28T20:44:19Z</time>
      </trkpt>
      <trkpt lat="43.83431" lon="6.97955">
        <ele>1396.4523926</ele>
        <time>2012-06-28T20:44:55Z</time>
      </trkpt>
      <trkpt lat="43.83431" lon="6.97943">
        <ele>1393.5683594</ele>
        <time>2012-06-28T20:44:59Z</time>
      </trkpt>
      <trkpt lat="43.8343" lon="6.97936">
        <ele>1393.5683594</ele>
        <time>2012-06-28T20:45:13Z</time>
      </trkpt>
      <trkpt lat="43.83429" lon="6.97934">
        <ele>1393.5683594</ele>
        <time>2012-06-28T20:45:15Z</time>
      </trkpt>
      <trkpt lat="43.83416" lon="6.97908">
        <ele>1396.4523926</ele>
        <time>2012-06-28T20:45:29Z</time>
      </trkpt>
      <trkpt lat="43.83415" lon="6.97905">
        <ele>1397.8942871</ele>
        <time>2012-06-28T20:45:31Z</time>
      </trkpt>
      <trkpt lat="43.83416" lon="6.97902">
        <ele>1398.3747559</ele>
        <time>2012-06-28T20:45:34Z</time>
      </trkpt>
      <trkpt lat="43.8342" lon="6.97898">
        <ele>1398.3747559</ele>
        <time>2012-06-28T20:45:39Z</time>
      </trkpt>
      <trkpt lat="43.83423" lon="6.97895">
        <ele>1397.8942871</ele>
        <time>2012-06-28T20:45:42Z</time>
      </trkpt>
      <trkpt lat="43.83428" lon="6.97895">
        <ele>1396.4523926</ele>
        <time>2012-06-28T20:45:47Z</time>
      </trkpt>
      <trkpt lat="43.83433" lon="6.97901">
        <ele>1397.4135742</ele>
        <time>2012-06-28T20:45:51Z</time>
      </trkpt>
      <trkpt lat="43.83438" lon="6.97902">
        <ele>1397.4135742</ele>
        <time>2012-06-28T20:45:54Z</time>
      </trkpt>
      <trkpt lat="43.83459" lon="6.97916">
        <ele>1398.8554688</ele>
        <time>2012-06-28T20:46:02Z</time>
      </trkpt>
      <trkpt lat="43.83474" lon="6.97926">
        <ele>1398.3747559</ele>
        <time>2012-06-28T20:46:06Z</time>
      </trkpt>
      <trkpt lat="43.83492" lon="6.97926">
        <ele>1389.7231445</ele>
        <time>2012-06-28T20:46:10Z</time>
      </trkpt>
      <trkpt lat="43.83505" lon="6.97921">
        <ele>1385.8776855</ele>
        <time>2012-06-28T20:46:13Z</time>
      </trkpt>
      <trkpt lat="43.83515" lon="6.9792">
        <ele>1383.4743652</ele>
        <time>2012-06-28T20:46:15Z</time>
      </trkpt>
      <trkpt lat="43.83524" lon="6.9792">
        <ele>1382.0324707</ele>
        <time>2012-06-28T20:46:17Z</time>
      </trkpt>
      <trkpt lat="43.83531" lon="6.97915">
        <ele>1380.1098633</ele>
        <time>2012-06-28T20:46:19Z</time>
      </trkpt>
      <trkpt lat="43.83552" lon="6.97915">
        <ele>1378.6679688</ele>
        <time>2012-06-28T20:46:24Z</time>
      </trkpt>
      <trkpt lat="43.83563" lon="6.97925">
        <ele>1376.7453613</ele>
        <time>2012-06-28T20:46:29Z</time>
      </trkpt>
      <trkpt lat="43.83568" lon="6.97926">
        <ele>1375.7839355</ele>
        <time>2012-06-28T20:46:31Z</time>
      </trkpt>
      <trkpt lat="43.83576" lon="6.97923">
        <ele>1374.342041</ele>
        <time>2012-06-28T20:46:34Z</time>
      </trkpt>
      <trkpt lat="43.83604" lon="6.97928">
        <ele>1370.496582</ele>
        <time>2012-06-28T20:46:41Z</time>
      </trkpt>
      <trkpt lat="43.83622" lon="6.97928">
        <ele>1369.0546875</ele>
        <time>2012-06-28T20:46:45Z</time>
      </trkpt>
      <trkpt lat="43.83641" lon="6.97928">
        <ele>1370.0158691</ele>
        <time>2012-06-28T20:46:50Z</time>
      </trkpt>
      <trkpt lat="43.83664" lon="6.97925">
        <ele>1368.0932617</ele>
        <time>2012-06-28T20:46:56Z</time>
      </trkpt>
      <trkpt lat="43.83668" lon="6.9793">
        <ele>1367.6125488</ele>
        <time>2012-06-28T20:46:58Z</time>
      </trkpt>
      <trkpt lat="43.83675" lon="6.97944">
        <ele>1368.0932617</ele>
        <time>2012-06-28T20:47:01Z</time>
      </trkpt>
      <trkpt lat="43.83683" lon="6.97947">
        <ele>1367.6125488</ele>
        <time>2012-06-28T20:47:04Z</time>
      </trkpt>
      <trkpt lat="43.83685" lon="6.97948">
        <ele>1366.6513672</ele>
        <time>2012-06-28T20:47:06Z</time>
      </trkpt>
      <trkpt lat="43.83689" lon="6.97948">
        <ele>1366.6513672</ele>
        <time>2012-06-28T20:47:10Z</time>
      </trkpt>
      <trkpt lat="43.83706" lon="6.97956">
        <ele>1362.8061523</ele>
        <time>2012-06-28T20:47:19Z</time>
      </trkpt>
      <trkpt lat="43.83707" lon="6.97956">
        <ele>1362.8061523</ele>
        <time>2012-06-28T20:47:31Z</time>
      </trkpt>
      <trkpt lat="43.83709" lon="6.97954">
        <ele>1362.3254395</ele>
        <time>2012-06-28T20:47:35Z</time>
      </trkpt>
      <trkpt lat="43.83716" lon="6.97963">
        <ele>1361.3642578</ele>
        <time>2012-06-28T20:47:41Z</time>
      </trkpt>
      <trkpt lat="43.83718" lon="6.97973">
        <ele>1361.3642578</ele>
        <time>2012-06-28T20:47:44Z</time>
      </trkpt>
      <trkpt lat="43.83721" lon="6.98">
        <ele>1358.4802246</ele>
        <time>2012-06-28T20:47:52Z</time>
      </trkpt>
      <trkpt lat="43.83736" lon="6.97973">
        <ele>1353.673584</ele>
        <time>2012-06-28T20:48:02Z</time>
      </trkpt>
      <trkpt lat="43.83738" lon="6.97972">
        <ele>1353.673584</ele>
        <time>2012-06-28T20:48:04Z</time>
      </trkpt>
      <trkpt lat="43.83743" lon="6.97984">
        <ele>1352.2314453</ele>
        <time>2012-06-28T20:48:09Z</time>
      </trkpt>
      <trkpt lat="43.8374" lon="6.9803">
        <ele>1347.4250488</ele>
        <time>2012-06-28T20:48:18Z</time>
      </trkpt>
      <trkpt lat="43.83732" lon="6.98051">
        <ele>1344.5410156</ele>
        <time>2012-06-28T20:48:22Z</time>
      </trkpt>
      <trkpt lat="43.83746" lon="6.98054">
        <ele>1342.1379395</ele>
        <time>2012-06-28T20:48:27Z</time>
      </trkpt>
      <trkpt lat="43.83738" lon="6.98086">
        <ele>1335.4084473</ele>
        <time>2012-06-28T20:48:34Z</time>
      </trkpt>
      <trkpt lat="43.8373" lon="6.98101">
        <ele>1334.4472656</ele>
        <time>2012-06-28T20:48:37Z</time>
      </trkpt>
      <trkpt lat="43.83721" lon="6.98109">
        <ele>1333.4858398</ele>
        <time>2012-06-28T20:48:40Z</time>
      </trkpt>
      <trkpt lat="43.83732" lon="6.98123">
        <ele>1329.1599121</ele>
        <time>2012-06-28T20:48:47Z</time>
      </trkpt>
      <trkpt lat="43.83752" lon="6.98125">
        <ele>1325.7954102</ele>
        <time>2012-06-28T20:48:52Z</time>
      </trkpt>
      <trkpt lat="43.83749" lon="6.98145">
        <ele>1322.4306641</ele>
        <time>2012-06-28T20:48:57Z</time>
      </trkpt>
      <trkpt lat="43.83725" lon="6.98163">
        <ele>1316.6628418</ele>
        <time>2012-06-28T20:49:04Z</time>
      </trkpt>
      <trkpt lat="43.83709" lon="6.98162">
        <ele>1312.817627</ele>
        <time>2012-06-28T20:49:09Z</time>
      </trkpt>
      <trkpt lat="43.83706" lon="6.98163">
        <ele>1310.4143066</ele>
        <time>2012-06-28T20:49:13Z</time>
      </trkpt>
      <trkpt lat="43.83707" lon="6.98165">
        <ele>1310.4143066</ele>
        <time>2012-06-28T20:49:28Z</time>
      </trkpt>
      <trkpt lat="43.83708" lon="6.98165">
        <ele>1310.4143066</ele>
        <time>2012-06-28T20:49:43Z</time>
      </trkpt>
      <trkpt lat="43.83706" lon="6.98164">
        <ele>1310.4143066</ele>
        <time>2012-06-28T20:50:03Z</time>
      </trkpt>
      <trkpt lat="43.83704" lon="6.98166">
        <ele>1309.453125</ele>
        <time>2012-06-28T20:50:09Z</time>
      </trkpt>
      <trkpt lat="43.8372" lon="6.98184">
        <ele>1306.5688477</ele>
        <time>2012-06-28T20:50:19Z</time>
      </trkpt>
      <trkpt lat="43.8373" lon="6.98194">
        <ele>1304.6462402</ele>
        <time>2012-06-28T20:50:24Z</time>
      </trkpt>
      <trkpt lat="43.83732" lon="6.982">
        <ele>1303.6850586</ele>
        <time>2012-06-28T20:50:28Z</time>
      </trkpt>
      <trkpt lat="43.83713" lon="6.98202">
        <ele>1301.7624512</ele>
        <time>2012-06-28T20:50:39Z</time>
      </trkpt>
      <trkpt lat="43.83711" lon="6.98205">
        <ele>1299.3591309</ele>
        <time>2012-06-28T20:50:45Z</time>
      </trkpt>
      <trkpt lat="43.83716" lon="6.9821">
        <ele>1299.3591309</ele>
        <time>2012-06-28T20:50:49Z</time>
      </trkpt>
      <trkpt lat="43.83726" lon="6.98219">
        <ele>1297.4365234</ele>
        <time>2012-06-28T20:50:54Z</time>
      </trkpt>
      <trkpt lat="43.83728" lon="6.98222">
        <ele>1297.4365234</ele>
        <time>2012-06-28T20:50:58Z</time>
      </trkpt>
      <trkpt lat="43.83714" lon="6.9823">
        <ele>1294.5524902</ele>
        <time>2012-06-28T20:51:05Z</time>
      </trkpt>
      <trkpt lat="43.83711" lon="6.98232">
        <ele>1293.5913086</ele>
        <time>2012-06-28T20:51:07Z</time>
      </trkpt>
      <trkpt lat="43.83714" lon="6.98241">
        <ele>1292.1494141</ele>
        <time>2012-06-28T20:51:12Z</time>
      </trkpt>
      <trkpt lat="43.83725" lon="6.98249">
        <ele>1289.2651367</ele>
        <time>2012-06-28T20:51:22Z</time>
      </trkpt>
      <trkpt lat="43.83727" lon="6.9825">
        <ele>1289.2651367</ele>
        <time>2012-06-28T20:51:37Z</time>
      </trkpt>
      <trkpt lat="43.83728" lon="6.9825">
        <ele>1289.2651367</ele>
        <time>2012-06-28T20:51:54Z</time>
      </trkpt>
      <trkpt lat="43.83729" lon="6.98252">
        <ele>1288.3039551</ele>
        <time>2012-06-28T20:52:21Z</time>
      </trkpt>
      <trkpt lat="43.83729" lon="6.98254">
        <ele>1287.8232422</ele>
        <time>2012-06-28T20:52:23Z</time>
      </trkpt>
      <trkpt lat="43.83716" lon="6.98261">
        <ele>1285.4199219</ele>
        <time>2012-06-28T20:52:30Z</time>
      </trkpt>
      <trkpt lat="43.83714" lon="6.98272">
        <ele>1282.0554199</ele>
        <time>2012-06-28T20:52:35Z</time>
      </trkpt>
      <trkpt lat="43.83735" lon="6.98293">
        <ele>1278.690918</ele>
        <time>2012-06-28T20:52:45Z</time>
      </trkpt>
      <trkpt lat="43.83744" lon="6.98294">
        <ele>1278.2102051</ele>
        <time>2012-06-28T20:52:48Z</time>
      </trkpt>
      <trkpt lat="43.83742" lon="6.98314">
        <ele>1273.8840332</ele>
        <time>2012-06-28T20:52:56Z</time>
      </trkpt>
      <trkpt lat="43.83742" lon="6.98315">
        <ele>1273.4035645</ele>
        <time>2012-06-28T20:52:58Z</time>
      </trkpt>
      <trkpt lat="43.83755" lon="6.98315">
        <ele>1271.9614258</ele>
        <time>2012-06-28T20:53:06Z</time>
      </trkpt>
      <trkpt lat="43.83754" lon="6.98328">
        <ele>1270.0388184</ele>
        <time>2012-06-28T20:53:11Z</time>
      </trkpt>
      <trkpt lat="43.83747" lon="6.98344">
        <ele>1269.5583496</ele>
        <time>2012-06-28T20:53:15Z</time>
      </trkpt>
      <trkpt lat="43.83738" lon="6.98366">
        <ele>1267.1550293</ele>
        <time>2012-06-28T20:53:21Z</time>
      </trkpt>
      <trkpt lat="43.83736" lon="6.98373">
        <ele>1264.751709</ele>
        <time>2012-06-28T20:53:26Z</time>
      </trkpt>
      <trkpt lat="43.83757" lon="6.98371">
        <ele>1260.9064941</ele>
        <time>2012-06-28T20:53:35Z</time>
      </trkpt>
      <trkpt lat="43.83749" lon="6.98397">
        <ele>1258.9836426</ele>
        <time>2012-06-28T20:53:43Z</time>
      </trkpt>
      <trkpt lat="43.83742" lon="6.9841">
        <ele>1256.5803223</ele>
        <time>2012-06-28T20:53:46Z</time>
      </trkpt>
      <trkpt lat="43.83748" lon="6.98418">
        <ele>1253.2158203</ele>
        <time>2012-06-28T20:53:51Z</time>
      </trkpt>
      <trkpt lat="43.83767" lon="6.9841">
        <ele>1249.3706055</ele>
        <time>2012-06-28T20:53:57Z</time>
      </trkpt>
      <trkpt lat="43.8378" lon="6.98408">
        <ele>1246.4868164</ele>
        <time>2012-06-28T20:54:04Z</time>
      </trkpt>
      <trkpt lat="43.83755" lon="6.9845">
        <ele>1245.0446777</ele>
        <time>2012-06-28T20:54:15Z</time>
      </trkpt>
      <trkpt lat="43.83753" lon="6.98453">
        <ele>1244.0834961</ele>
        <time>2012-06-28T20:54:16Z</time>
      </trkpt>
      <trkpt lat="43.83758" lon="6.98459">
        <ele>1243.1218262</ele>
        <time>2012-06-28T20:54:20Z</time>
      </trkpt>
      <trkpt lat="43.83775" lon="6.98452">
        <ele>1239.7573242</ele>
        <time>2012-06-28T20:54:25Z</time>
      </trkpt>
      <trkpt lat="43.83799" lon="6.98444">
        <ele>1234.9509277</ele>
        <time>2012-06-28T20:54:33Z</time>
      </trkpt>
      <trkpt lat="43.83804" lon="6.98452">
        <ele>1233.5087891</ele>
        <time>2012-06-28T20:54:38Z</time>
      </trkpt>
      <trkpt lat="43.83802" lon="6.98458">
        <ele>1232.5476074</ele>
        <time>2012-06-28T20:54:57Z</time>
      </trkpt>
      <trkpt lat="43.83798" lon="6.98479">
        <ele>1230.625</ele>
        <time>2012-06-28T20:55:02Z</time>
      </trkpt>
      <trkpt lat="43.83789" lon="6.98503">
        <ele>1228.7023926</ele>
        <time>2012-06-28T20:55:06Z</time>
      </trkpt>
      <trkpt lat="43.83781" lon="6.98517">
        <ele>1227.7407227</ele>
        <time>2012-06-28T20:55:09Z</time>
      </trkpt>
      <trkpt lat="43.83783" lon="6.9853">
        <ele>1222.9343262</ele>
        <time>2012-06-28T20:55:14Z</time>
      </trkpt>
      <trkpt lat="43.8379" lon="6.98531">
        <ele>1221.4921875</ele>
        <time>2012-06-28T20:55:16Z</time>
      </trkpt>
      <trkpt lat="43.83803" lon="6.98526">
        <ele>1220.050293</ele>
        <time>2012-06-28T20:55:19Z</time>
      </trkpt>
      <trkpt lat="43.83843" lon="6.98519">
        <ele>1215.7246094</ele>
        <time>2012-06-28T20:55:27Z</time>
      </trkpt>
      <trkpt lat="43.8384" lon="6.98525">
        <ele>1215.2438965</ele>
        <time>2012-06-28T20:55:31Z</time>
      </trkpt>
      <trkpt lat="43.83837" lon="6.98532">
        <ele>1214.2824707</ele>
        <time>2012-06-28T20:55:33Z</time>
      </trkpt>
      <trkpt lat="43.83855" lon="6.98562">
        <ele>1214.7631836</ele>
        <time>2012-06-28T20:55:42Z</time>
      </trkpt>
      <trkpt lat="43.83866" lon="6.98558">
        <ele>1212.8405762</ele>
        <time>2012-06-28T20:55:46Z</time>
      </trkpt>
      <trkpt lat="43.83879" lon="6.98564">
        <ele>1210.9177246</ele>
        <time>2012-06-28T20:55:51Z</time>
      </trkpt>
      <trkpt lat="43.83887" lon="6.98576">
        <ele>1209.9562988</ele>
        <time>2012-06-28T20:55:55Z</time>
      </trkpt>
      <trkpt lat="43.83892" lon="6.98587">
        <ele>1212.3598633</ele>
        <time>2012-06-28T20:56:03Z</time>
      </trkpt>
      <trkpt lat="43.83891" lon="6.98589">
        <ele>1212.3598633</ele>
        <time>2012-06-28T20:59:08Z</time>
      </trkpt>
      <trkpt lat="43.83891" lon="6.98589">
        <ele>1212.3598633</ele>
        <time>2012-06-28T20:59:09Z</time>
      </trkpt>
      <trkpt lat="43.83891" lon="6.98596">
        <ele>1209.4758301</ele>
        <time>2012-06-28T20:59:13Z</time>
      </trkpt>
      <trkpt lat="43.83893" lon="6.98601">
        <ele>1205.1499023</ele>
        <time>2012-06-28T20:59:35Z</time>
      </trkpt>
      <trkpt lat="43.83894" lon="6.98603">
        <ele>1203.7080078</ele>
        <time>2012-06-28T21:01:08Z</time>
      </trkpt>
      <trkpt lat="43.83894" lon="6.98603">
        <ele>1203.2272949</ele>
        <time>2012-06-28T21:01:51Z</time>
      </trkpt>
      <trkpt lat="43.83894" lon="6.98603">
        <ele>1203.2272949</ele>
        <time>2012-06-28T21:02:32Z</time>
      </trkpt>
      <trkpt lat="43.83889" lon="6.98603">
        <ele>1202.746582</ele>
        <time>2012-06-28T21:02:35Z</time>
      </trkpt>
      <trkpt lat="43.8388" lon="6.98627">
        <ele>1200.8239746</ele>
        <time>2012-06-28T21:02:42Z</time>
      </trkpt>
      <trkpt lat="43.83869" lon="6.98635">
        <ele>1200.3435059</ele>
        <time>2012-06-28T21:02:45Z</time>
      </trkpt>
      <trkpt lat="43.83847" lon="6.98668">
        <ele>1196.9787598</ele>
        <time>2012-06-28T21:02:55Z</time>
      </trkpt>
      <trkpt lat="43.83814" lon="6.98671">
        <ele>1193.6140137</ele>
        <time>2012-06-28T21:03:05Z</time>
      </trkpt>
      <trkpt lat="43.83813" lon="6.98671">
        <ele>1193.1333008</ele>
        <time>2012-06-28T21:03:06Z</time>
      </trkpt>
      <trkpt lat="43.83794" lon="6.98668">
        <ele>1191.2106934</ele>
        <time>2012-06-28T21:03:12Z</time>
      </trkpt>
      <trkpt lat="43.8379" lon="6.98675">
        <ele>1191.6914063</ele>
        <time>2012-06-28T21:03:16Z</time>
      </trkpt>
      <trkpt lat="43.83801" lon="6.98689">
        <ele>1193.1333008</ele>
        <time>2012-06-28T21:03:28Z</time>
      </trkpt>
      <trkpt lat="43.83806" lon="6.98696">
        <ele>1192.652832</ele>
        <time>2012-06-28T21:03:30Z</time>
      </trkpt>
      <trkpt lat="43.83813" lon="6.98707">
        <ele>1194.5751953</ele>
        <time>2012-06-28T21:03:38Z</time>
      </trkpt>
      <trkpt lat="43.83824" lon="6.98726">
        <ele>1194.0947266</ele>
        <time>2012-06-28T21:03:48Z</time>
      </trkpt>
      <trkpt lat="43.83824" lon="6.98723">
        <ele>1193.6140137</ele>
        <time>2012-06-28T21:04:35Z</time>
      </trkpt>
      <trkpt lat="43.83822" lon="6.98718">
        <ele>1192.652832</ele>
        <time>2012-06-28T21:04:39Z</time>
      </trkpt>
      <trkpt lat="43.83818" lon="6.9871">
        <ele>1194.0947266</ele>
        <time>2012-06-28T21:04:48Z</time>
      </trkpt>
      <trkpt lat="43.83809" lon="6.987">
        <ele>1195.5366211</ele>
        <time>2012-06-28T21:04:53Z</time>
      </trkpt>
      <trkpt lat="43.83794" lon="6.98681">
        <ele>1196.9787598</ele>
        <time>2012-06-28T21:05:03Z</time>
      </trkpt>
      <trkpt lat="43.83795" lon="6.98671">
        <ele>1196.0175781</ele>
        <time>2012-06-28T21:05:07Z</time>
      </trkpt>
      <trkpt lat="43.83801" lon="6.98674">
        <ele>1199.3820801</ele>
        <time>2012-06-28T21:05:23Z</time>
      </trkpt>
      <trkpt lat="43.83812" lon="6.98672">
        <ele>1196.9787598</ele>
        <time>2012-06-28T21:05:38Z</time>
      </trkpt>
      <trkpt lat="43.83815" lon="6.98673">
        <ele>1196.498291</ele>
        <time>2012-06-28T21:05:41Z</time>
      </trkpt>
      <trkpt lat="43.83822" lon="6.98675">
        <ele>1196.498291</ele>
        <time>2012-06-28T21:05:45Z</time>
      </trkpt>
      <trkpt lat="43.83829" lon="6.98675">
        <ele>1196.9787598</ele>
        <time>2012-06-28T21:05:49Z</time>
      </trkpt>
      <trkpt lat="43.83838" lon="6.98677">
        <ele>1197.4594727</ele>
        <time>2012-06-28T21:05:54Z</time>
      </trkpt>
      <trkpt lat="43.83851" lon="6.98674">
        <ele>1193.6140137</ele>
        <time>2012-06-28T21:06:02Z</time>
      </trkpt>
      <trkpt lat="43.83864" lon="6.98675">
        <ele>1191.6914063</ele>
        <time>2012-06-28T21:06:12Z</time>
      </trkpt>
      <trkpt lat="43.8388" lon="6.98673">
        <ele>1190.2495117</ele>
        <time>2012-06-28T21:06:19Z</time>
      </trkpt>
      <trkpt lat="43.83901" lon="6.98671">
        <ele>1189.7687988</ele>
        <time>2012-06-28T21:06:25Z</time>
      </trkpt>
      <trkpt lat="43.83915" lon="6.98671">
        <ele>1189.7687988</ele>
        <time>2012-06-28T21:06:30Z</time>
      </trkpt>
      <trkpt lat="43.83924" lon="6.98667">
        <ele>1188.3269043</ele>
        <time>2012-06-28T21:06:39Z</time>
      </trkpt>
      <trkpt lat="43.83927" lon="6.98664">
        <ele>1187.3654785</ele>
        <time>2012-06-28T21:06:43Z</time>
      </trkpt>
      <trkpt lat="43.83935" lon="6.98662">
        <ele>1187.3654785</ele>
        <time>2012-06-28T21:06:48Z</time>
      </trkpt>
      <trkpt lat="43.83953" lon="6.98644">
        <ele>1183.0395508</ele>
        <time>2012-06-28T21:06:57Z</time>
      </trkpt>
      <trkpt lat="43.83969" lon="6.98623">
        <ele>1182.0783691</ele>
        <time>2012-06-28T21:07:05Z</time>
      </trkpt>
      <trkpt lat="43.83979" lon="6.98587">
        <ele>1179.1940918</ele>
        <time>2012-06-28T21:07:15Z</time>
      </trkpt>
      <trkpt lat="43.8398" lon="6.98582">
        <ele>1178.713623</ele>
        <time>2012-06-28T21:07:17Z</time>
      </trkpt>
      <trkpt lat="43.83982" lon="6.98577">
        <ele>1176.7910156</ele>
        <time>2012-06-28T21:07:19Z</time>
      </trkpt>
      <trkpt lat="43.83991" lon="6.98573">
        <ele>1173.9069824</ele>
        <time>2012-06-28T21:07:24Z</time>
      </trkpt>
      <trkpt lat="43.83995" lon="6.98573">
        <ele>1171.984375</ele>
        <time>2012-06-28T21:07:26Z</time>
      </trkpt>
      <trkpt lat="43.84004" lon="6.98562">
        <ele>1168.619873</ele>
        <time>2012-06-28T21:07:33Z</time>
      </trkpt>
      <trkpt lat="43.84007" lon="6.98565">
        <ele>1167.6584473</ele>
        <time>2012-06-28T21:07:35Z</time>
      </trkpt>
      <trkpt lat="43.84012" lon="6.98557">
        <ele>1163.8129883</ele>
        <time>2012-06-28T21:07:42Z</time>
      </trkpt>
      <trkpt lat="43.8401" lon="6.98544">
        <ele>1159.4873047</ele>
        <time>2012-06-28T21:07:46Z</time>
      </trkpt>
      <trkpt lat="43.84016" lon="6.98541">
        <ele>1154.2001953</ele>
        <time>2012-06-28T21:07:55Z</time>
      </trkpt>
      <trkpt lat="43.84017" lon="6.98539">
        <ele>1153.7194824</ele>
        <time>2012-06-28T21:08:05Z</time>
      </trkpt>
      <trkpt lat="43.84018" lon="6.9853">
        <ele>1150.3549805</ele>
        <time>2012-06-28T21:08:20Z</time>
      </trkpt>
      <trkpt lat="43.84018" lon="6.9853">
        <ele>1149.3935547</ele>
        <time>2012-06-28T21:08:25Z</time>
      </trkpt>
      <trkpt lat="43.84023" lon="6.98524">
        <ele>1148.9128418</ele>
        <time>2012-06-28T21:08:33Z</time>
      </trkpt>
      <trkpt lat="43.84028" lon="6.98531">
        <ele>1145.0673828</ele>
        <time>2012-06-28T21:08:44Z</time>
      </trkpt>
      <trkpt lat="43.8403" lon="6.98533">
        <ele>1143.6254883</ele>
        <time>2012-06-28T21:08:52Z</time>
      </trkpt>
      <trkpt lat="43.84031" lon="6.98531">
        <ele>1143.1447754</ele>
        <time>2012-06-28T21:08:54Z</time>
      </trkpt>
      <trkpt lat="43.84034" lon="6.98521">
        <ele>1140.2609863</ele>
        <time>2012-06-28T21:09:05Z</time>
      </trkpt>
      <trkpt lat="43.84039" lon="6.98516">
        <ele>1136.8962402</ele>
        <time>2012-06-28T21:09:15Z</time>
      </trkpt>
      <trkpt lat="43.8404" lon="6.98503">
        <ele>1135.9350586</ele>
        <time>2012-06-28T21:09:19Z</time>
      </trkpt>
      <trkpt lat="43.84045" lon="6.98488">
        <ele>1133.0510254</ele>
        <time>2012-06-28T21:09:23Z</time>
      </trkpt>
      <trkpt lat="43.84051" lon="6.98477">
        <ele>1129.2055664</ele>
        <time>2012-06-28T21:09:34Z</time>
      </trkpt>
      <trkpt lat="43.84052" lon="6.98481">
        <ele>1125.3603516</ele>
        <time>2012-06-28T21:09:47Z</time>
      </trkpt>
      <trkpt lat="43.84054" lon="6.98482">
        <ele>1124.3991699</ele>
        <time>2012-06-28T21:09:59Z</time>
      </trkpt>
      <trkpt lat="43.84055" lon="6.9848">
        <ele>1123.4379883</ele>
        <time>2012-06-28T21:10:00Z</time>
      </trkpt>
      <trkpt lat="43.84057" lon="6.98478">
        <ele>1123.4379883</ele>
        <time>2012-06-28T21:10:03Z</time>
      </trkpt>
      <trkpt lat="43.84058" lon="6.98472">
        <ele>1121.5151367</ele>
        <time>2012-06-28T21:10:06Z</time>
      </trkpt>
      <trkpt lat="43.84066" lon="6.98437">
        <ele>1119.5927734</ele>
        <time>2012-06-28T21:10:15Z</time>
      </trkpt>
      <trkpt lat="43.84072" lon="6.98429">
        <ele>1119.1120605</ele>
        <time>2012-06-28T21:10:19Z</time>
      </trkpt>
      <trkpt lat="43.84078" lon="6.98425">
        <ele>1118.6313477</ele>
        <time>2012-06-28T21:10:27Z</time>
      </trkpt>
      <trkpt lat="43.84079" lon="6.98427">
        <ele>1118.6313477</ele>
        <time>2012-06-28T21:10:35Z</time>
      </trkpt>
      <trkpt lat="43.84088" lon="6.98417">
        <ele>1115.2666016</ele>
        <time>2012-06-28T21:10:48Z</time>
      </trkpt>
      <trkpt lat="43.84093" lon="6.98409">
        <ele>1110.4599609</ele>
        <time>2012-06-28T21:10:59Z</time>
      </trkpt>
      <trkpt lat="43.84093" lon="6.98403">
        <ele>1108.5373535</ele>
        <time>2012-06-28T21:11:13Z</time>
      </trkpt>
      <trkpt lat="43.84094" lon="6.98397">
        <ele>1106.6147461</ele>
        <time>2012-06-28T21:11:25Z</time>
      </trkpt>
      <trkpt lat="43.84094" lon="6.98397">
        <ele>1106.6147461</ele>
        <time>2012-06-28T21:11:26Z</time>
      </trkpt>
      <trkpt lat="43.84097" lon="6.98399">
        <ele>1100.8469238</ele>
        <time>2012-06-28T21:11:34Z</time>
      </trkpt>
      <trkpt lat="43.84101" lon="6.98388">
        <ele>1098.9240723</ele>
        <time>2012-06-28T21:11:39Z</time>
      </trkpt>
      <trkpt lat="43.84111" lon="6.98359">
        <ele>1091.2336426</ele>
        <time>2012-06-28T21:11:51Z</time>
      </trkpt>
      <trkpt lat="43.84125" lon="6.9834">
        <ele>1087.3884277</ele>
        <time>2012-06-28T21:12:00Z</time>
      </trkpt>
      <trkpt lat="43.84131" lon="6.98326">
        <ele>1086.4272461</ele>
        <time>2012-06-28T21:12:04Z</time>
      </trkpt>
      <trkpt lat="43.84137" lon="6.98306">
        <ele>1083.5429688</ele>
        <time>2012-06-28T21:12:13Z</time>
      </trkpt>
      <trkpt lat="43.84137" lon="6.98307">
        <ele>1083.0622559</ele>
        <time>2012-06-28T21:12:15Z</time>
      </trkpt>
      <trkpt lat="43.8414" lon="6.98306">
        <ele>1082.1010742</ele>
        <time>2012-06-28T21:12:19Z</time>
      </trkpt>
      <trkpt lat="43.84146" lon="6.98287">
        <ele>1078.7365723</ele>
        <time>2012-06-28T21:12:25Z</time>
      </trkpt>
      <trkpt lat="43.84155" lon="6.98252">
        <ele>1071.5266113</ele>
        <time>2012-06-28T21:12:34Z</time>
      </trkpt>
      <trkpt lat="43.84159" lon="6.98234">
        <ele>1069.1235352</ele>
        <time>2012-06-28T21:12:43Z</time>
      </trkpt>
      <trkpt lat="43.84162" lon="6.9823">
        <ele>1069.604248</ele>
        <time>2012-06-28T21:12:58Z</time>
      </trkpt>
      <trkpt lat="43.84163" lon="6.98228">
        <ele>1070.5654297</ele>
        <time>2012-06-28T21:13:02Z</time>
      </trkpt>
      <trkpt lat="43.84166" lon="6.98224">
        <ele>1069.1235352</ele>
        <time>2012-06-28T21:13:05Z</time>
      </trkpt>
      <trkpt lat="43.8417" lon="6.98224">
        <ele>1068.6428223</ele>
        <time>2012-06-28T21:13:08Z</time>
      </trkpt>
      <trkpt lat="43.84174" lon="6.98217">
        <ele>1062.394043</ele>
        <time>2012-06-28T21:13:19Z</time>
      </trkpt>
      <trkpt lat="43.84172" lon="6.98212">
        <ele>1058.0683594</ele>
        <time>2012-06-28T21:13:59Z</time>
      </trkpt>
      <trkpt lat="43.84171" lon="6.98213">
        <ele>1055.6650391</ele>
        <time>2012-06-28T21:14:35Z</time>
      </trkpt>
      <trkpt lat="43.84171" lon="6.98212">
        <ele>1054.2231445</ele>
        <time>2012-06-28T21:15:27Z</time>
      </trkpt>
      <trkpt lat="43.84179" lon="6.98188">
        <ele>1049.4162598</ele>
        <time>2012-06-28T21:15:36Z</time>
      </trkpt>
      <trkpt lat="43.84184" lon="6.98195">
        <ele>1044.1291504</ele>
        <time>2012-06-28T21:15:41Z</time>
      </trkpt>
      <trkpt lat="43.84191" lon="6.98233">
        <ele>1032.5932617</ele>
        <time>2012-06-28T21:15:53Z</time>
      </trkpt>
      <trkpt lat="43.8419" lon="6.98251">
        <ele>1030.1899414</ele>
        <time>2012-06-28T21:15:57Z</time>
      </trkpt>
      <trkpt lat="43.84198" lon="6.98275">
        <ele>1030.6706543</ele>
        <time>2012-06-28T21:16:02Z</time>
      </trkpt>
      <trkpt lat="43.84208" lon="6.98275">
        <ele>1031.1513672</ele>
        <time>2012-06-28T21:16:06Z</time>
      </trkpt>
      <trkpt lat="43.84214" lon="6.98268">
        <ele>1031.6318359</ele>
        <time>2012-06-28T21:16:08Z</time>
      </trkpt>
      <trkpt lat="43.84222" lon="6.98258">
        <ele>1030.6706543</ele>
        <time>2012-06-28T21:16:12Z</time>
      </trkpt>
      <trkpt lat="43.84223" lon="6.98246">
        <ele>1030.1899414</ele>
        <time>2012-06-28T21:16:15Z</time>
      </trkpt>
      <trkpt lat="43.84228" lon="6.98235">
        <ele>1030.6706543</ele>
        <time>2012-06-28T21:16:18Z</time>
      </trkpt>
      <trkpt lat="43.8423" lon="6.98223">
        <ele>1030.6706543</ele>
        <time>2012-06-28T21:16:22Z</time>
      </trkpt>
      <trkpt lat="43.84238" lon="6.98232">
        <ele>1026.8254395</ele>
        <time>2012-06-28T21:16:30Z</time>
      </trkpt>
      <trkpt lat="43.8424" lon="6.98234">
        <ele>1027.7866211</ele>
        <time>2012-06-28T21:16:42Z</time>
      </trkpt>
      <trkpt lat="43.84241" lon="6.98234">
        <ele>1028.267334</ele>
        <time>2012-06-28T21:16:50Z</time>
      </trkpt>
      <trkpt lat="43.84245" lon="6.98228">
        <ele>1026.8254395</ele>
        <time>2012-06-28T21:16:54Z</time>
      </trkpt>
      <trkpt lat="43.84247" lon="6.98224">
        <ele>1024.902832</ele>
        <time>2012-06-28T21:16:59Z</time>
      </trkpt>
      <trkpt lat="43.84255" lon="6.98221">
        <ele>1019.6154785</ele>
        <time>2012-06-28T21:17:04Z</time>
      </trkpt>
      <trkpt lat="43.84262" lon="6.98227">
        <ele>1014.328125</ele>
        <time>2012-06-28T21:17:12Z</time>
      </trkpt>
      <trkpt lat="43.84261" lon="6.98262">
        <ele>1004.2346191</ele>
        <time>2012-06-28T21:17:20Z</time>
      </trkpt>
      <trkpt lat="43.84262" lon="6.9828">
        <ele>1000.8696289</ele>
        <time>2012-06-28T21:17:24Z</time>
      </trkpt>
      <trkpt lat="43.8426" lon="6.98286">
        <ele>999.9084473</ele>
        <time>2012-06-28T21:17:26Z</time>
      </trkpt>
      <trkpt lat="43.8427" lon="6.98308">
        <ele>995.1018066</ele>
        <time>2012-06-28T21:17:33Z</time>
      </trkpt>
      <trkpt lat="43.84268" lon="6.98324">
        <ele>990.2954102</ele>
        <time>2012-06-28T21:17:37Z</time>
      </trkpt>
      <trkpt lat="43.84272" lon="6.98346">
        <ele>985.9692383</ele>
        <time>2012-06-28T21:17:42Z</time>
      </trkpt>
      <trkpt lat="43.8429" lon="6.98399">
        <ele>972.9916992</ele>
        <time>2012-06-28T21:17:52Z</time>
      </trkpt>
      <trkpt lat="43.84311" lon="6.98444">
        <ele>965.3010254</ele>
        <time>2012-06-28T21:18:02Z</time>
      </trkpt>
      <trkpt lat="43.84312" lon="6.98448">
        <ele>967.2236328</ele>
        <time>2012-06-28T21:18:19Z</time>
      </trkpt>
      <trkpt lat="43.84313" lon="6.98461">
        <ele>965.7817383</ele>
        <time>2012-06-28T21:19:01Z</time>
      </trkpt>
      <trkpt lat="43.84315" lon="6.9848">
        <ele>961.4558105</ele>
        <time>2012-06-28T21:19:05Z</time>
      </trkpt>
      <trkpt lat="43.84309" lon="6.98504">
        <ele>955.2070313</ele>
        <time>2012-06-28T21:19:12Z</time>
      </trkpt>
      <trkpt lat="43.84305" lon="6.98555">
        <ele>948.4777832</ele>
        <time>2012-06-28T21:19:23Z</time>
      </trkpt>
      <trkpt lat="43.84306" lon="6.9858">
        <ele>947.5166016</ele>
        <time>2012-06-28T21:19:27Z</time>
      </trkpt>
      <trkpt lat="43.84307" lon="6.98615">
        <ele>943.6713867</ele>
        <time>2012-06-28T21:19:34Z</time>
      </trkpt>
      <trkpt lat="43.84307" lon="6.98618">
        <ele>943.1906738</ele>
        <time>2012-06-28T21:19:35Z</time>
      </trkpt>
      <trkpt lat="43.84308" lon="6.98626">
        <ele>941.7487793</ele>
        <time>2012-06-28T21:19:39Z</time>
      </trkpt>
      <trkpt lat="43.84306" lon="6.98639">
        <ele>940.3068848</ele>
        <time>2012-06-28T21:19:42Z</time>
      </trkpt>
      <trkpt lat="43.84314" lon="6.9867">
        <ele>936.9418945</ele>
        <time>2012-06-28T21:19:49Z</time>
      </trkpt>
      <trkpt lat="43.84318" lon="6.98684">
        <ele>935.5</ele>
        <time>2012-06-28T21:19:52Z</time>
      </trkpt>
      <trkpt lat="43.84342" lon="6.98738">
        <ele>921.0803223</ele>
        <time>2012-06-28T21:20:03Z</time>
      </trkpt>
      <trkpt lat="43.84349" lon="6.98759">
        <ele>915.3125</ele>
        <time>2012-06-28T21:20:07Z</time>
      </trkpt>
      <trkpt lat="43.84347" lon="6.98784">
        <ele>910.5058594</ele>
        <time>2012-06-28T21:20:11Z</time>
      </trkpt>
      <trkpt lat="43.8434" lon="6.98797">
        <ele>909.5446777</ele>
        <time>2012-06-28T21:20:14Z</time>
      </trkpt>
      <trkpt lat="43.84318" lon="6.98845">
        <ele>893.6828613</ele>
        <time>2012-06-28T21:20:25Z</time>
      </trkpt>
      <trkpt lat="43.84312" lon="6.98864">
        <ele>890.798584</ele>
        <time>2012-06-28T21:20:34Z</time>
      </trkpt>
      <trkpt lat="43.84313" lon="6.98864">
        <ele>890.798584</ele>
        <time>2012-06-28T21:21:02Z</time>
      </trkpt>
      <trkpt lat="43.84315" lon="6.98867">
        <ele>888.8762207</ele>
        <time>2012-06-28T21:21:05Z</time>
      </trkpt>
      <trkpt lat="43.84316" lon="6.98874">
        <ele>888.3955078</ele>
        <time>2012-06-28T21:21:08Z</time>
      </trkpt>
      <trkpt lat="43.84315" lon="6.98881">
        <ele>886.9533691</ele>
        <time>2012-06-28T21:21:12Z</time>
      </trkpt>
      <trkpt lat="43.84305" lon="6.9891">
        <ele>881.185791</ele>
        <time>2012-06-28T21:21:18Z</time>
      </trkpt>
      <trkpt lat="43.84308" lon="6.98919">
        <ele>878.7824707</ele>
        <time>2012-06-28T21:21:21Z</time>
      </trkpt>
      <trkpt lat="43.84312" lon="6.98929">
        <ele>876.8598633</ele>
        <time>2012-06-28T21:21:28Z</time>
      </trkpt>
      <trkpt lat="43.84317" lon="6.9893">
        <ele>876.8598633</ele>
        <time>2012-06-28T21:21:30Z</time>
      </trkpt>
      <trkpt lat="43.84321" lon="6.98941">
        <ele>875.4174805</ele>
        <time>2012-06-28T21:21:35Z</time>
      </trkpt>
      <trkpt lat="43.84324" lon="6.98943">
        <ele>874.4562988</ele>
        <time>2012-06-28T21:21:37Z</time>
      </trkpt>
      <trkpt lat="43.84318" lon="6.98955">
        <ele>873.0144043</ele>
        <time>2012-06-28T21:21:42Z</time>
      </trkpt>
      <trkpt lat="43.84316" lon="6.98958">
        <ele>872.5336914</ele>
        <time>2012-06-28T21:21:44Z</time>
      </trkpt>
      <trkpt lat="43.8432" lon="6.98979">
        <ele>869.1691895</ele>
        <time>2012-06-28T21:21:55Z</time>
      </trkpt>
      <trkpt lat="43.84322" lon="6.98982">
        <ele>868.2077637</ele>
        <time>2012-06-28T21:21:58Z</time>
      </trkpt>
      <trkpt lat="43.84335" lon="6.9899">
        <ele>862.4399414</ele>
        <time>2012-06-28T21:22:09Z</time>
      </trkpt>
      <trkpt lat="43.8434" lon="6.98991">
        <ele>861.4787598</ele>
        <time>2012-06-28T21:22:23Z</time>
      </trkpt>
      <trkpt lat="43.84341" lon="6.98994">
        <ele>860.9980469</ele>
        <time>2012-06-28T21:22:25Z</time>
      </trkpt>
      <trkpt lat="43.84346" lon="6.98999">
        <ele>861.4787598</ele>
        <time>2012-06-28T21:22:41Z</time>
      </trkpt>
      <trkpt lat="43.84349" lon="6.99002">
        <ele>862.4399414</ele>
        <time>2012-06-28T21:22:47Z</time>
      </trkpt>
      <trkpt lat="43.84352" lon="6.99009">
        <ele>860.517334</ele>
        <time>2012-06-28T21:22:54Z</time>
      </trkpt>
      <trkpt lat="43.84363" lon="6.99007">
        <ele>859.5559082</ele>
        <time>2012-06-28T21:23:00Z</time>
      </trkpt>
      <trkpt lat="43.84365" lon="6.99006">
        <ele>861.4787598</ele>
        <time>2012-06-28T21:23:19Z</time>
      </trkpt>
      <trkpt lat="43.84366" lon="6.99007">
        <ele>860.9980469</ele>
        <time>2012-06-28T21:25:02Z</time>
      </trkpt>
      <trkpt lat="43.84384" lon="6.99007">
        <ele>862.9206543</ele>
        <time>2012-06-28T21:25:09Z</time>
      </trkpt>
      <trkpt lat="43.84412" lon="6.98992">
        <ele>859.5559082</ele>
        <time>2012-06-28T21:25:15Z</time>
      </trkpt>
      <trkpt lat="43.84429" lon="6.9898">
        <ele>854.7492676</ele>
        <time>2012-06-28T21:25:18Z</time>
      </trkpt>
      <trkpt lat="43.84467" lon="6.98908">
        <ele>843.6940918</ele>
        <time>2012-06-28T21:25:27Z</time>
      </trkpt>
      <trkpt lat="43.8451" lon="6.98836">
        <ele>842.7329102</ele>
        <time>2012-06-28T21:25:36Z</time>
      </trkpt>
      <trkpt lat="43.84517" lon="6.98803">
        <ele>840.8100586</ele>
        <time>2012-06-28T21:25:40Z</time>
      </trkpt>
      <trkpt lat="43.84517" lon="6.98765">
        <ele>837.4455566</ele>
        <time>2012-06-28T21:25:44Z</time>
      </trkpt>
      <trkpt lat="43.84529" lon="6.98735">
        <ele>835.0424805</ele>
        <time>2012-06-28T21:25:49Z</time>
      </trkpt>
      <trkpt lat="43.84545" lon="6.98723">
        <ele>832.6391602</ele>
        <time>2012-06-28T21:25:52Z</time>
      </trkpt>
      <trkpt lat="43.84565" lon="6.98711">
        <ele>831.1972656</ele>
        <time>2012-06-28T21:25:55Z</time>
      </trkpt>
      <trkpt lat="43.84579" lon="6.98677">
        <ele>829.755127</ele>
        <time>2012-06-28T21:26:00Z</time>
      </trkpt>
      <trkpt lat="43.84596" lon="6.98645">
        <ele>829.755127</ele>
        <time>2012-06-28T21:26:06Z</time>
      </trkpt>
      <trkpt lat="43.84629" lon="6.98608">
        <ele>821.1032715</ele>
        <time>2012-06-28T21:26:13Z</time>
      </trkpt>
      <trkpt lat="43.84632" lon="6.98559">
        <ele>818.2192383</ele>
        <time>2012-06-28T21:26:18Z</time>
      </trkpt>
      <trkpt lat="43.84624" lon="6.98481">
        <ele>811.0092773</ele>
        <time>2012-06-28T21:26:25Z</time>
      </trkpt>
      <trkpt lat="43.84656" lon="6.9845">
        <ele>808.605957</ele>
        <time>2012-06-28T21:26:32Z</time>
      </trkpt>
      <trkpt lat="43.84673" lon="6.98458">
        <ele>806.6833496</ele>
        <time>2012-06-28T21:26:35Z</time>
      </trkpt>
      <trkpt lat="43.84683" lon="6.98466">
        <ele>803.3188477</ele>
        <time>2012-06-28T21:26:38Z</time>
      </trkpt>
      <trkpt lat="43.84704" lon="6.98446">
        <ele>800.9155273</ele>
        <time>2012-06-28T21:26:44Z</time>
      </trkpt>
      <trkpt lat="43.84717" lon="6.98398">
        <ele>800.4350586</ele>
        <time>2012-06-28T21:26:51Z</time>
      </trkpt>
      <trkpt lat="43.84717" lon="6.98344">
        <ele>801.3962402</ele>
        <time>2012-06-28T21:26:59Z</time>
      </trkpt>
      <trkpt lat="43.84676" lon="6.98299">
        <ele>801.3962402</ele>
        <time>2012-06-28T21:27:12Z</time>
      </trkpt>
      <trkpt lat="43.84639" lon="6.98251">
        <ele>802.3574219</ele>
        <time>2012-06-28T21:27:28Z</time>
      </trkpt>
      <trkpt lat="43.8461" lon="6.9823">
        <ele>803.3188477</ele>
        <time>2012-06-28T21:27:41Z</time>
      </trkpt>
      <trkpt lat="43.846" lon="6.98229">
        <ele>802.3574219</ele>
        <time>2012-06-28T21:27:46Z</time>
      </trkpt>
      <trkpt lat="43.84579" lon="6.98208">
        <ele>798.512207</ele>
        <time>2012-06-28T21:27:58Z</time>
      </trkpt>
      <trkpt lat="43.84574" lon="6.98201">
        <ele>797.0703125</ele>
        <time>2012-06-28T21:28:02Z</time>
      </trkpt>
      <trkpt lat="43.84571" lon="6.98196">
        <ele>796.1091309</ele>
        <time>2012-06-28T21:28:05Z</time>
      </trkpt>
      <trkpt lat="43.84572" lon="6.98188">
        <ele>796.5898438</ele>
        <time>2012-06-28T21:28:08Z</time>
      </trkpt>
      <trkpt lat="43.84575" lon="6.98163">
        <ele>797.0703125</ele>
        <time>2012-06-28T21:28:19Z</time>
      </trkpt>
      <trkpt lat="43.84585" lon="6.98127">
        <ele>801.3962402</ele>
        <time>2012-06-28T21:28:34Z</time>
      </trkpt>
      <trkpt lat="43.84584" lon="6.98092">
        <ele>802.8381348</ele>
        <time>2012-06-28T21:28:48Z</time>
      </trkpt>
      <trkpt lat="43.84604" lon="6.98052">
        <ele>804.7607422</ele>
        <time>2012-06-28T21:29:06Z</time>
      </trkpt>
      <trkpt lat="43.84625" lon="6.98008">
        <ele>812.451416</ele>
        <time>2012-06-28T21:29:25Z</time>
      </trkpt>
      <trkpt lat="43.84647" lon="6.97977">
        <ele>818.2192383</ele>
        <time>2012-06-28T21:29:42Z</time>
      </trkpt>
      <trkpt lat="43.84673" lon="6.97945">
        <ele>823.0258789</ele>
        <time>2012-06-28T21:30:04Z</time>
      </trkpt>
      <trkpt lat="43.84674" lon="6.97928">
        <ele>823.9870605</ele>
        <time>2012-06-28T21:30:13Z</time>
      </trkpt>
      <trkpt lat="43.84671" lon="6.97895">
        <ele>827.8322754</ele>
        <time>2012-06-28T21:30:31Z</time>
      </trkpt>
      <trkpt lat="43.84671" lon="6.97894">
        <ele>827.8322754</ele>
        <time>2012-06-28T21:30:32Z</time>
      </trkpt>
      <trkpt lat="43.8467" lon="6.97885">
        <ele>828.3132324</ele>
        <time>2012-06-28T21:30:38Z</time>
      </trkpt>
      <trkpt lat="43.84663" lon="6.97863">
        <ele>831.6777344</ele>
        <time>2012-06-28T21:30:52Z</time>
      </trkpt>
      <trkpt lat="43.84643" lon="6.97832">
        <ele>834.0810547</ele>
        <time>2012-06-28T21:31:15Z</time>
      </trkpt>
      <trkpt lat="43.8464" lon="6.97828">
        <ele>834.5617676</ele>
        <time>2012-06-28T21:31:19Z</time>
      </trkpt>
      <trkpt lat="43.84625" lon="6.97804">
        <ele>838.8876953</ele>
        <time>2012-06-28T21:31:39Z</time>
      </trkpt>
      <trkpt lat="43.84619" lon="6.97788">
        <ele>840.8100586</ele>
        <time>2012-06-28T21:31:50Z</time>
      </trkpt>
      <trkpt lat="43.84612" lon="6.97771">
        <ele>845.6169434</ele>
        <time>2012-06-28T21:32:03Z</time>
      </trkpt>
      <trkpt lat="43.84609" lon="6.97765">
        <ele>849.4621582</ele>
        <time>2012-06-28T21:32:09Z</time>
      </trkpt>
      <trkpt lat="43.84609" lon="6.97763">
        <ele>850.423584</ele>
        <time>2012-06-28T21:32:11Z</time>
      </trkpt>
      <trkpt lat="43.84607" lon="6.97753">
        <ele>851.3847656</ele>
        <time>2012-06-28T21:32:16Z</time>
      </trkpt>
      <trkpt lat="43.84607" lon="6.97745">
        <ele>850.423584</ele>
        <time>2012-06-28T21:32:19Z</time>
      </trkpt>
      <trkpt lat="43.84601" lon="6.97734">
        <ele>851.3847656</ele>
        <time>2012-06-28T21:32:27Z</time>
      </trkpt>
      <trkpt lat="43.84599" lon="6.9773">
        <ele>851.8654785</ele>
        <time>2012-06-28T21:32:30Z</time>
      </trkpt>
      <trkpt lat="43.84596" lon="6.97726">
        <ele>851.8654785</ele>
        <time>2012-06-28T21:32:33Z</time>
      </trkpt>
      <trkpt lat="43.84592" lon="6.97709">
        <ele>854.2687988</ele>
        <time>2012-06-28T21:32:44Z</time>
      </trkpt>
      <trkpt lat="43.84591" lon="6.977">
        <ele>855.2299805</ele>
        <time>2012-06-28T21:32:48Z</time>
      </trkpt>
      <trkpt lat="43.84604" lon="6.97664">
        <ele>858.1140137</ele>
        <time>2012-06-28T21:33:07Z</time>
      </trkpt>
      <trkpt lat="43.84614" lon="6.97621">
        <ele>857.6333008</ele>
        <time>2012-06-28T21:33:23Z</time>
      </trkpt>
      <trkpt lat="43.84611" lon="6.97613">
        <ele>858.5944824</ele>
        <time>2012-06-28T21:33:26Z</time>
      </trkpt>
      <trkpt lat="43.84581" lon="6.97603">
        <ele>857.6333008</ele>
        <time>2012-06-28T21:33:38Z</time>
      </trkpt>
      <trkpt lat="43.84571" lon="6.97592">
        <ele>856.1911621</ele>
        <time>2012-06-28T21:33:50Z</time>
      </trkpt>
      <trkpt lat="43.84569" lon="6.97589">
        <ele>856.1911621</ele>
        <time>2012-06-28T21:33:52Z</time>
      </trkpt>
      <trkpt lat="43.8454" lon="6.97546">
        <ele>854.2687988</ele>
        <time>2012-06-28T21:34:08Z</time>
      </trkpt>
      <trkpt lat="43.84533" lon="6.97478">
        <ele>854.2687988</ele>
        <time>2012-06-28T21:34:22Z</time>
      </trkpt>
      <trkpt lat="43.84536" lon="6.97409">
        <ele>854.7492676</ele>
        <time>2012-06-28T21:34:39Z</time>
      </trkpt>
      <trkpt lat="43.84531" lon="6.97363">
        <ele>857.6333008</ele>
        <time>2012-06-28T21:34:56Z</time>
      </trkpt>
      <trkpt lat="43.84548" lon="6.97329">
        <ele>862.4399414</ele>
        <time>2012-06-28T21:35:14Z</time>
      </trkpt>
      <trkpt lat="43.84569" lon="6.97286">
        <ele>866.2851563</ele>
        <time>2012-06-28T21:35:35Z</time>
      </trkpt>
      <trkpt lat="43.84586" lon="6.97269">
        <ele>871.5722656</ele>
        <time>2012-06-28T21:35:51Z</time>
      </trkpt>
      <trkpt lat="43.84588" lon="6.97271">
        <ele>872.5336914</ele>
        <time>2012-06-28T21:35:53Z</time>
      </trkpt>
      <trkpt lat="43.84597" lon="6.97292">
        <ele>873.0144043</ele>
        <time>2012-06-28T21:36:07Z</time>
      </trkpt>
      <trkpt lat="43.8462" lon="6.97303">
        <ele>877.8210449</ele>
        <time>2012-06-28T21:36:26Z</time>
      </trkpt>
      <trkpt lat="43.84635" lon="6.97285">
        <ele>879.7436523</ele>
        <time>2012-06-28T21:36:42Z</time>
      </trkpt>
      <trkpt lat="43.84642" lon="6.97254">
        <ele>879.7436523</ele>
        <time>2012-06-28T21:37:03Z</time>
      </trkpt>
      <trkpt lat="43.84644" lon="6.97246">
        <ele>879.2629395</ele>
        <time>2012-06-28T21:37:08Z</time>
      </trkpt>
      <trkpt lat="43.84665" lon="6.97238">
        <ele>878.3017578</ele>
        <time>2012-06-28T21:37:27Z</time>
      </trkpt>
      <trkpt lat="43.84687" lon="6.97227">
        <ele>880.2243652</ele>
        <time>2012-06-28T21:37:43Z</time>
      </trkpt>
      <trkpt lat="43.84702" lon="6.97201">
        <ele>882.1469727</ele>
        <time>2012-06-28T21:38:03Z</time>
      </trkpt>
      <trkpt lat="43.84706" lon="6.97179">
        <ele>882.1469727</ele>
        <time>2012-06-28T21:38:17Z</time>
      </trkpt>
      <trkpt lat="43.8471" lon="6.97168">
        <ele>883.5888672</ele>
        <time>2012-06-28T21:38:25Z</time>
      </trkpt>
      <trkpt lat="43.84722" lon="6.97131">
        <ele>885.0310059</ele>
        <time>2012-06-28T21:38:47Z</time>
      </trkpt>
      <trkpt lat="43.84726" lon="6.97114">
        <ele>887.434082</ele>
        <time>2012-06-28T21:38:57Z</time>
      </trkpt>
      <trkpt lat="43.8473" lon="6.97109">
        <ele>888.3955078</ele>
        <time>2012-06-28T21:39:01Z</time>
      </trkpt>
      <trkpt lat="43.84736" lon="6.97108">
        <ele>888.8762207</ele>
        <time>2012-06-28T21:39:06Z</time>
      </trkpt>
      <trkpt lat="43.84745" lon="6.9712">
        <ele>891.2792969</ele>
        <time>2012-06-28T21:39:15Z</time>
      </trkpt>
      <trkpt lat="43.84758" lon="6.97126">
        <ele>891.2792969</ele>
        <time>2012-06-28T21:39:24Z</time>
      </trkpt>
      <trkpt lat="43.84777" lon="6.97126">
        <ele>890.3181152</ele>
        <time>2012-06-28T21:39:39Z</time>
      </trkpt>
      <trkpt lat="43.84783" lon="6.97125">
        <ele>891.2792969</ele>
        <time>2012-06-28T21:39:42Z</time>
      </trkpt>
      <trkpt lat="43.84802" lon="6.97103">
        <ele>896.5668945</ele>
        <time>2012-06-28T21:40:02Z</time>
      </trkpt>
      <trkpt lat="43.84807" lon="6.97096">
        <ele>896.5668945</ele>
        <time>2012-06-28T21:40:08Z</time>
      </trkpt>
      <trkpt lat="43.84818" lon="6.97078">
        <ele>898.4892578</ele>
        <time>2012-06-28T21:40:23Z</time>
      </trkpt>
      <trkpt lat="43.84819" lon="6.97073">
        <ele>898.4892578</ele>
        <time>2012-06-28T21:40:26Z</time>
      </trkpt>
      <trkpt lat="43.84821" lon="6.9707">
        <ele>898.4892578</ele>
        <time>2012-06-28T21:40:29Z</time>
      </trkpt>
      <trkpt lat="43.84838" lon="6.9705">
        <ele>902.8151855</ele>
        <time>2012-06-28T21:40:47Z</time>
      </trkpt>
      <trkpt lat="43.84859" lon="6.97031">
        <ele>902.3344727</ele>
        <time>2012-06-28T21:41:05Z</time>
      </trkpt>
      <trkpt lat="43.84878" lon="6.97021">
        <ele>904.2573242</ele>
        <time>2012-06-28T21:41:20Z</time>
      </trkpt>
      <trkpt lat="43.84903" lon="6.97009">
        <ele>904.2573242</ele>
        <time>2012-06-28T21:41:40Z</time>
      </trkpt>
      <trkpt lat="43.84916" lon="6.97033">
        <ele>906.1796875</ele>
        <time>2012-06-28T21:41:58Z</time>
      </trkpt>
      <trkpt lat="43.84937" lon="6.97075">
        <ele>908.1027832</ele>
        <time>2012-06-28T21:42:26Z</time>
      </trkpt>
      <trkpt lat="43.84956" lon="6.97109">
        <ele>910.5058594</ele>
        <time>2012-06-28T21:42:50Z</time>
      </trkpt>
      <trkpt lat="43.84981" lon="6.97146">
        <ele>914.3510742</ele>
        <time>2012-06-28T21:43:19Z</time>
      </trkpt>
      <trkpt lat="43.84995" lon="6.97163">
        <ele>915.3125</ele>
        <time>2012-06-28T21:43:36Z</time>
      </trkpt>
      <trkpt lat="43.84993" lon="6.9715">
        <ele>915.7932129</ele>
        <time>2012-06-28T21:43:51Z</time>
      </trkpt>
      <trkpt lat="43.84981" lon="6.97125">
        <ele>917.2351074</ele>
        <time>2012-06-28T21:44:07Z</time>
      </trkpt>
      <trkpt lat="43.8497" lon="6.97078">
        <ele>920.5996094</ele>
        <time>2012-06-28T21:44:35Z</time>
      </trkpt>
      <trkpt lat="43.84965" lon="6.97041">
        <ele>923.0029297</ele>
        <time>2012-06-28T21:44:58Z</time>
      </trkpt>
      <trkpt lat="43.84964" lon="6.97029">
        <ele>923.9641113</ele>
        <time>2012-06-28T21:45:12Z</time>
      </trkpt>
      <trkpt lat="43.8496" lon="6.96995">
        <ele>926.8483887</ele>
        <time>2012-06-28T21:45:35Z</time>
      </trkpt>
      <trkpt lat="43.84958" lon="6.96959">
        <ele>930.6936035</ele>
        <time>2012-06-28T21:45:59Z</time>
      </trkpt>
      <trkpt lat="43.84954" lon="6.96938">
        <ele>932.6162109</ele>
        <time>2012-06-28T21:46:13Z</time>
      </trkpt>
      <trkpt lat="43.8495" lon="6.96914">
        <ele>935.0195313</ele>
        <time>2012-06-28T21:46:35Z</time>
      </trkpt>
      <trkpt lat="43.84944" lon="6.96892">
        <ele>936.9418945</ele>
        <time>2012-06-28T21:46:55Z</time>
      </trkpt>
      <trkpt lat="43.84932" lon="6.96853">
        <ele>940.7873535</ele>
        <time>2012-06-28T21:47:20Z</time>
      </trkpt>
      <trkpt lat="43.84916" lon="6.96825">
        <ele>943.6713867</ele>
        <time>2012-06-28T21:47:43Z</time>
      </trkpt>
      <trkpt lat="43.84894" lon="6.96809">
        <ele>948.4777832</ele>
        <time>2012-06-28T21:48:03Z</time>
      </trkpt>
      <trkpt lat="43.84882" lon="6.96792">
        <ele>949.439209</ele>
        <time>2012-06-28T21:48:23Z</time>
      </trkpt>
      <trkpt lat="43.84881" lon="6.96788">
        <ele>949.9199219</ele>
        <time>2012-06-28T21:49:03Z</time>
      </trkpt>
      <trkpt lat="43.84869" lon="6.96761">
        <ele>948.4777832</ele>
        <time>2012-06-28T21:49:17Z</time>
      </trkpt>
      <trkpt lat="43.84867" lon="6.96759">
        <ele>948.9584961</ele>
        <time>2012-06-28T21:49:34Z</time>
      </trkpt>
      <trkpt lat="43.84862" lon="6.96751">
        <ele>949.439209</ele>
        <time>2012-06-28T21:49:49Z</time>
      </trkpt>
      <trkpt lat="43.84857" lon="6.96748">
        <ele>949.439209</ele>
        <time>2012-06-28T21:50:09Z</time>
      </trkpt>
      <trkpt lat="43.84849" lon="6.96735">
        <ele>950.4006348</ele>
        <time>2012-06-28T21:50:35Z</time>
      </trkpt>
      <trkpt lat="43.84844" lon="6.96737">
        <ele>949.9199219</ele>
        <time>2012-06-28T21:50:38Z</time>
      </trkpt>
      <trkpt lat="43.84844" lon="6.96742">
        <ele>949.439209</ele>
        <time>2012-06-28T21:50:46Z</time>
      </trkpt>
      <trkpt lat="43.84839" lon="6.96741">
        <ele>952.8037109</ele>
        <time>2012-06-28T21:51:05Z</time>
      </trkpt>
      <trkpt lat="43.84828" lon="6.96732">
        <ele>955.6877441</ele>
        <time>2012-06-28T21:51:24Z</time>
      </trkpt>
      <trkpt lat="43.84817" lon="6.9673">
        <ele>959.0524902</ele>
        <time>2012-06-28T21:51:45Z</time>
      </trkpt>
      <trkpt lat="43.84808" lon="6.9673">
        <ele>963.378418</ele>
        <time>2012-06-28T21:52:08Z</time>
      </trkpt>
      <trkpt lat="43.84804" lon="6.9673">
        <ele>964.3395996</ele>
        <time>2012-06-28T21:52:29Z</time>
      </trkpt>
      <trkpt lat="43.84791" lon="6.96731">
        <ele>969.6269531</ele>
        <time>2012-06-28T21:52:56Z</time>
      </trkpt>
      <trkpt lat="43.84779" lon="6.96727">
        <ele>972.5109863</ele>
        <time>2012-06-28T21:53:18Z</time>
      </trkpt>
      <trkpt lat="43.84766" lon="6.96723">
        <ele>975.8754883</ele>
        <time>2012-06-28T21:53:43Z</time>
      </trkpt>
      <trkpt lat="43.84767" lon="6.96723">
        <ele>975.3947754</ele>
        <time>2012-06-28T21:54:09Z</time>
      </trkpt>
      <trkpt lat="43.84791" lon="6.96732">
        <ele>971.0688477</ele>
        <time>2012-06-28T21:54:23Z</time>
      </trkpt>
      <trkpt lat="43.84831" lon="6.96735">
        <ele>958.5717773</ele>
        <time>2012-06-28T21:54:38Z</time>
      </trkpt>
      <trkpt lat="43.84839" lon="6.9674">
        <ele>957.1298828</ele>
        <time>2012-06-28T21:54:50Z</time>
      </trkpt>
      <trkpt lat="43.84837" lon="6.9674">
        <ele>958.0913086</ele>
        <time>2012-06-28T21:56:18Z</time>
      </trkpt>
      <trkpt lat="43.84818" lon="6.96754">
        <ele>959.5332031</ele>
        <time>2012-06-28T21:56:37Z</time>
      </trkpt>
      <trkpt lat="43.84817" lon="6.96755">
        <ele>959.5332031</ele>
        <time>2012-06-28T21:56:38Z</time>
      </trkpt>
      <trkpt lat="43.84798" lon="6.96779">
        <ele>960.4943848</ele>
        <time>2012-06-28T21:56:55Z</time>
      </trkpt>
      <trkpt lat="43.84776" lon="6.96791">
        <ele>961.9365234</ele>
        <time>2012-06-28T21:57:11Z</time>
      </trkpt>
      <trkpt lat="43.84767" lon="6.96793">
        <ele>961.4558105</ele>
        <time>2012-06-28T21:57:27Z</time>
      </trkpt>
      <trkpt lat="43.84739" lon="6.96798">
        <ele>963.378418</ele>
        <time>2012-06-28T21:57:42Z</time>
      </trkpt>
      <trkpt lat="43.84718" lon="6.96804">
        <ele>967.2236328</ele>
        <time>2012-06-28T21:57:55Z</time>
      </trkpt>
      <trkpt lat="43.84712" lon="6.96809">
        <ele>968.1848145</ele>
        <time>2012-06-28T21:57:59Z</time>
      </trkpt>
      <trkpt lat="43.84705" lon="6.96813">
        <ele>969.6269531</ele>
        <time>2012-06-28T21:58:05Z</time>
      </trkpt>
      <trkpt lat="43.84695" lon="6.96822">
        <ele>970.1074219</ele>
        <time>2012-06-28T21:58:13Z</time>
      </trkpt>
      <trkpt lat="43.84693" lon="6.96822">
        <ele>970.5881348</ele>
        <time>2012-06-28T21:58:15Z</time>
      </trkpt>
      <trkpt lat="43.84679" lon="6.96827">
        <ele>970.5881348</ele>
        <time>2012-06-28T21:58:24Z</time>
      </trkpt>
      <trkpt lat="43.84655" lon="6.96837">
        <ele>966.7429199</ele>
        <time>2012-06-28T21:58:36Z</time>
      </trkpt>
      <trkpt lat="43.84625" lon="6.96833">
        <ele>964.3395996</ele>
        <time>2012-06-28T21:58:46Z</time>
      </trkpt>
      <trkpt lat="43.84618" lon="6.96831">
        <ele>964.3395996</ele>
        <time>2012-06-28T21:58:49Z</time>
      </trkpt>
      <trkpt lat="43.84614" lon="6.96831">
        <ele>965.7817383</ele>
        <time>2012-06-28T21:58:53Z</time>
      </trkpt>
      <trkpt lat="43.84585" lon="6.9684">
        <ele>962.4169922</ele>
        <time>2012-06-28T21:59:06Z</time>
      </trkpt>
      <trkpt lat="43.84584" lon="6.96841">
        <ele>961.4558105</ele>
        <time>2012-06-28T21:59:07Z</time>
      </trkpt>
      <trkpt lat="43.84573" lon="6.96849">
        <ele>957.6105957</ele>
        <time>2012-06-28T21:59:19Z</time>
      </trkpt>
      <trkpt lat="43.84564" lon="6.96859">
        <ele>955.6877441</ele>
        <time>2012-06-28T21:59:34Z</time>
      </trkpt>
      <trkpt lat="43.84559" lon="6.96871">
        <ele>959.5332031</ele>
        <time>2012-06-28T21:59:51Z</time>
      </trkpt>
      <trkpt lat="43.84555" lon="6.96876">
        <ele>961.4558105</ele>
        <time>2012-06-28T22:00:06Z</time>
      </trkpt>
      <trkpt lat="43.84543" lon="6.96885">
        <ele>964.3395996</ele>
        <time>2012-06-28T22:00:23Z</time>
      </trkpt>
      <trkpt lat="43.84514" lon="6.96878">
        <ele>964.3395996</ele>
        <time>2012-06-28T22:00:37Z</time>
      </trkpt>
      <trkpt lat="43.84492" lon="6.96873">
        <ele>963.8588867</ele>
        <time>2012-06-28T22:00:49Z</time>
      </trkpt>
      <trkpt lat="43.84482" lon="6.96867">
        <ele>965.3010254</ele>
        <time>2012-06-28T22:00:54Z</time>
      </trkpt>
      <trkpt lat="43.84472" lon="6.96867">
        <ele>965.3010254</ele>
        <time>2012-06-28T22:01:04Z</time>
      </trkpt>
      <trkpt lat="43.84464" lon="6.96864">
        <ele>964.8203125</ele>
        <time>2012-06-28T22:01:16Z</time>
      </trkpt>
      <trkpt lat="43.84464" lon="6.96865">
        <ele>965.3010254</ele>
        <time>2012-06-28T22:01:17Z</time>
      </trkpt>
      <trkpt lat="43.84454" lon="6.96869">
        <ele>963.378418</ele>
        <time>2012-06-28T22:01:29Z</time>
      </trkpt>
      <trkpt lat="43.84451" lon="6.96871">
        <ele>962.8977051</ele>
        <time>2012-06-28T22:01:34Z</time>
      </trkpt>
      <trkpt lat="43.84442" lon="6.96875">
        <ele>964.8203125</ele>
        <time>2012-06-28T22:01:47Z</time>
      </trkpt>
      <trkpt lat="43.84434" lon="6.96878">
        <ele>966.7429199</ele>
        <time>2012-06-28T22:02:03Z</time>
      </trkpt>
      <trkpt lat="43.84432" lon="6.96879">
        <ele>966.7429199</ele>
        <time>2012-06-28T22:02:05Z</time>
      </trkpt>
      <trkpt lat="43.84426" lon="6.96884">
        <ele>967.2236328</ele>
        <time>2012-06-28T22:02:14Z</time>
      </trkpt>
      <trkpt lat="43.8443" lon="6.96893">
        <ele>969.6269531</ele>
        <time>2012-06-28T22:02:33Z</time>
      </trkpt>
      <trkpt lat="43.84431" lon="6.96899">
        <ele>971.0688477</ele>
        <time>2012-06-28T22:02:51Z</time>
      </trkpt>
      <trkpt lat="43.8443" lon="6.96904">
        <ele>972.5109863</ele>
        <time>2012-06-28T22:03:09Z</time>
      </trkpt>
      <trkpt lat="43.84427" lon="6.96903">
        <ele>975.3947754</ele>
        <time>2012-06-28T22:03:29Z</time>
      </trkpt>
      <trkpt lat="43.84428" lon="6.96904">
        <ele>975.3947754</ele>
        <time>2012-06-28T22:03:48Z</time>
      </trkpt>
      <trkpt lat="43.84424" lon="6.96898">
        <ele>975.8754883</ele>
        <time>2012-06-28T22:04:36Z</time>
      </trkpt>
      <trkpt lat="43.84427" lon="6.96903">
        <ele>978.7595215</ele>
        <time>2012-06-28T22:05:01Z</time>
      </trkpt>
      <trkpt lat="43.84427" lon="6.96918">
        <ele>981.6433105</ele>
        <time>2012-06-28T22:05:25Z</time>
      </trkpt>
      <trkpt lat="43.84416" lon="6.96943">
        <ele>989.3339844</ele>
        <time>2012-06-28T22:06:13Z</time>
      </trkpt>
      <trkpt lat="43.84412" lon="6.96948">
        <ele>992.2180176</ele>
        <time>2012-06-28T22:06:28Z</time>
      </trkpt>
      <trkpt lat="43.8441" lon="6.96954">
        <ele>995.1018066</ele>
        <time>2012-06-28T22:06:44Z</time>
      </trkpt>
      <trkpt lat="43.84404" lon="6.96959">
        <ele>997.9858398</ele>
        <time>2012-06-28T22:07:02Z</time>
      </trkpt>
      <trkpt lat="43.84401" lon="6.96962">
        <ele>998.9470215</ele>
        <time>2012-06-28T22:07:27Z</time>
      </trkpt>
      <trkpt lat="43.84399" lon="6.96966">
        <ele>1000.3891602</ele>
        <time>2012-06-28T22:07:44Z</time>
      </trkpt>
      <trkpt lat="43.84396" lon="6.96968">
        <ele>1001.3503418</ele>
        <time>2012-06-28T22:08:05Z</time>
      </trkpt>
      <trkpt lat="43.84393" lon="6.9697">
        <ele>1002.7922363</ele>
        <time>2012-06-28T22:08:24Z</time>
      </trkpt>
      <trkpt lat="43.84389" lon="6.96974">
        <ele>1004.7150879</ele>
        <time>2012-06-28T22:08:45Z</time>
      </trkpt>
      <trkpt lat="43.84386" lon="6.96977">
        <ele>1005.1958008</ele>
        <time>2012-06-28T22:09:02Z</time>
      </trkpt>
      <trkpt lat="43.84385" lon="6.96979">
        <ele>1006.6376953</ele>
        <time>2012-06-28T22:09:17Z</time>
      </trkpt>
      <trkpt lat="43.84383" lon="6.96978">
        <ele>1006.6376953</ele>
        <time>2012-06-28T22:09:48Z</time>
      </trkpt>
      <trkpt lat="43.84377" lon="6.9698">
        <ele>1008.079834</ele>
        <time>2012-06-28T22:10:08Z</time>
      </trkpt>
      <trkpt lat="43.84373" lon="6.96982">
        <ele>1009.5217285</ele>
        <time>2012-06-28T22:10:26Z</time>
      </trkpt>
      <trkpt lat="43.84367" lon="6.96984">
        <ele>1012.4055176</ele>
        <time>2012-06-28T22:10:44Z</time>
      </trkpt>
      <trkpt lat="43.84366" lon="6.96985">
        <ele>1014.328125</ele>
        <time>2012-06-28T22:11:00Z</time>
      </trkpt>
      <trkpt lat="43.84364" lon="6.96988">
        <ele>1017.2121582</ele>
        <time>2012-06-28T22:11:18Z</time>
      </trkpt>
      <trkpt lat="43.84361" lon="6.96994">
        <ele>1022.0187988</ele>
        <time>2012-06-28T22:11:42Z</time>
      </trkpt>
      <trkpt lat="43.84359" lon="6.97009">
        <ele>1023.9414063</ele>
        <time>2012-06-28T22:11:58Z</time>
      </trkpt>
      <trkpt lat="43.84355" lon="6.97014">
        <ele>1022.9802246</ele>
        <time>2012-06-28T22:12:09Z</time>
      </trkpt>
      <trkpt lat="43.84345" lon="6.97026">
        <ele>1023.9414063</ele>
        <time>2012-06-28T22:12:27Z</time>
      </trkpt>
      <trkpt lat="43.8434" lon="6.97031">
        <ele>1025.3833008</ele>
        <time>2012-06-28T22:12:48Z</time>
      </trkpt>
      <trkpt lat="43.84333" lon="6.97037">
        <ele>1025.8640137</ele>
        <time>2012-06-28T22:13:07Z</time>
      </trkpt>
      <trkpt lat="43.84328" lon="6.97036">
        <ele>1024.902832</ele>
        <time>2012-06-28T22:13:23Z</time>
      </trkpt>
      <trkpt lat="43.84323" lon="6.9704">
        <ele>1026.3447266</ele>
        <time>2012-06-28T22:13:42Z</time>
      </trkpt>
      <trkpt lat="43.84317" lon="6.97045">
        <ele>1028.267334</ele>
        <time>2012-06-28T22:14:02Z</time>
      </trkpt>
      <trkpt lat="43.84314" lon="6.97049">
        <ele>1027.7866211</ele>
        <time>2012-06-28T22:14:19Z</time>
      </trkpt>
      <trkpt lat="43.84307" lon="6.97054">
        <ele>1029.2285156</ele>
        <time>2012-06-28T22:14:37Z</time>
      </trkpt>
      <trkpt lat="43.84303" lon="6.97062">
        <ele>1033.0737305</ele>
        <time>2012-06-28T22:15:00Z</time>
      </trkpt>
      <trkpt lat="43.84301" lon="6.97068">
        <ele>1034.5158691</ele>
        <time>2012-06-28T22:15:17Z</time>
      </trkpt>
      <trkpt lat="43.84291" lon="6.97082">
        <ele>1034.996582</ele>
        <time>2012-06-28T22:15:30Z</time>
      </trkpt>
      <trkpt lat="43.84283" lon="6.97087">
        <ele>1036.4387207</ele>
        <time>2012-06-28T22:15:54Z</time>
      </trkpt>
      <trkpt lat="43.84271" lon="6.97101">
        <ele>1038.3613281</ele>
        <time>2012-06-28T22:16:16Z</time>
      </trkpt>
      <trkpt lat="43.8427" lon="6.97103">
        <ele>1038.3613281</ele>
        <time>2012-06-28T22:16:17Z</time>
      </trkpt>
      <trkpt lat="43.84267" lon="6.97111">
        <ele>1038.842041</ele>
        <time>2012-06-28T22:16:28Z</time>
      </trkpt>
      <trkpt lat="43.84268" lon="6.97118">
        <ele>1039.3225098</ele>
        <time>2012-06-28T22:16:41Z</time>
      </trkpt>
      <trkpt lat="43.84268" lon="6.97126">
        <ele>1042.206543</ele>
        <time>2012-06-28T22:16:59Z</time>
      </trkpt>
      <trkpt lat="43.84267" lon="6.97136">
        <ele>1046.5324707</ele>
        <time>2012-06-28T22:17:17Z</time>
      </trkpt>
      <trkpt lat="43.84269" lon="6.97141">
        <ele>1048.9355469</ele>
        <time>2012-06-28T22:17:33Z</time>
      </trkpt>
      <trkpt lat="43.84266" lon="6.97151">
        <ele>1048.454834</ele>
        <time>2012-06-28T22:17:49Z</time>
      </trkpt>
      <trkpt lat="43.84264" lon="6.97153">
        <ele>1048.454834</ele>
        <time>2012-06-28T22:17:55Z</time>
      </trkpt>
      <trkpt lat="43.8426" lon="6.97158">
        <ele>1047.9743652</ele>
        <time>2012-06-28T22:18:05Z</time>
      </trkpt>
      <trkpt lat="43.84254" lon="6.97166">
        <ele>1048.454834</ele>
        <time>2012-06-28T22:18:18Z</time>
      </trkpt>
      <trkpt lat="43.84242" lon="6.97172">
        <ele>1048.454834</ele>
        <time>2012-06-28T22:18:37Z</time>
      </trkpt>
      <trkpt lat="43.84238" lon="6.97172">
        <ele>1048.454834</ele>
        <time>2012-06-28T22:18:58Z</time>
      </trkpt>
      <trkpt lat="43.84234" lon="6.97174">
        <ele>1049.4162598</ele>
        <time>2012-06-28T22:19:20Z</time>
      </trkpt>
      <trkpt lat="43.84233" lon="6.97174">
        <ele>1050.3776855</ele>
        <time>2012-06-28T22:19:39Z</time>
      </trkpt>
      <trkpt lat="43.84229" lon="6.97175">
        <ele>1051.8195801</ele>
        <time>2012-06-28T22:19:57Z</time>
      </trkpt>
      <trkpt lat="43.84226" lon="6.97174">
        <ele>1055.6650391</ele>
        <time>2012-06-28T22:20:21Z</time>
      </trkpt>
      <trkpt lat="43.84224" lon="6.97176">
        <ele>1056.6262207</ele>
        <time>2012-06-28T22:20:35Z</time>
      </trkpt>
      <trkpt lat="43.8422" lon="6.97182">
        <ele>1060.4714355</ele>
        <time>2012-06-28T22:20:54Z</time>
      </trkpt>
      <trkpt lat="43.84218" lon="6.97184">
        <ele>1061.4328613</ele>
        <time>2012-06-28T22:21:10Z</time>
      </trkpt>
      <trkpt lat="43.84215" lon="6.97184">
        <ele>1060.9521484</ele>
        <time>2012-06-28T22:21:24Z</time>
      </trkpt>
      <trkpt lat="43.84211" lon="6.97185">
        <ele>1061.4328613</ele>
        <time>2012-06-28T22:21:38Z</time>
      </trkpt>
      <trkpt lat="43.84202" lon="6.97187">
        <ele>1063.3554688</ele>
        <time>2012-06-28T22:21:55Z</time>
      </trkpt>
      <trkpt lat="43.84203" lon="6.97195">
        <ele>1066.2392578</ele>
        <time>2012-06-28T22:22:09Z</time>
      </trkpt>
      <trkpt lat="43.84204" lon="6.97198">
        <ele>1070.0847168</ele>
        <time>2012-06-28T22:22:27Z</time>
      </trkpt>
      <trkpt lat="43.84208" lon="6.97203">
        <ele>1074.4106445</ele>
        <time>2012-06-28T22:22:46Z</time>
      </trkpt>
      <trkpt lat="43.8421" lon="6.97208">
        <ele>1076.333252</ele>
        <time>2012-06-28T22:23:06Z</time>
      </trkpt>
      <trkpt lat="43.84213" lon="6.97214">
        <ele>1076.8139648</ele>
        <time>2012-06-28T22:23:23Z</time>
      </trkpt>
      <trkpt lat="43.84213" lon="6.97217">
        <ele>1076.8139648</ele>
        <time>2012-06-28T22:23:47Z</time>
      </trkpt>
      <trkpt lat="43.84212" lon="6.97222">
        <ele>1078.7365723</ele>
        <time>2012-06-28T22:24:00Z</time>
      </trkpt>
      <trkpt lat="43.84211" lon="6.97224">
        <ele>1079.6977539</ele>
        <time>2012-06-28T22:24:16Z</time>
      </trkpt>
      <trkpt lat="43.84211" lon="6.97231">
        <ele>1080.6591797</ele>
        <time>2012-06-28T22:24:37Z</time>
      </trkpt>
      <trkpt lat="43.84213" lon="6.97237">
        <ele>1081.6203613</ele>
        <time>2012-06-28T22:24:52Z</time>
      </trkpt>
      <trkpt lat="43.84214" lon="6.97245">
        <ele>1085.4658203</ele>
        <time>2012-06-28T22:25:11Z</time>
      </trkpt>
      <trkpt lat="43.84214" lon="6.97252">
        <ele>1084.9853516</ele>
        <time>2012-06-28T22:25:29Z</time>
      </trkpt>
      <trkpt lat="43.84213" lon="6.97257">
        <ele>1085.9465332</ele>
        <time>2012-06-28T22:25:46Z</time>
      </trkpt>
      <trkpt lat="43.84212" lon="6.97258">
        <ele>1084.0239258</ele>
        <time>2012-06-28T22:26:00Z</time>
      </trkpt>
      <trkpt lat="43.8421" lon="6.97267">
        <ele>1084.0239258</ele>
        <time>2012-06-28T22:26:20Z</time>
      </trkpt>
      <trkpt lat="43.84208" lon="6.97267">
        <ele>1083.0622559</ele>
        <time>2012-06-28T22:26:38Z</time>
      </trkpt>
      <trkpt lat="43.84206" lon="6.9727">
        <ele>1083.5429688</ele>
        <time>2012-06-28T22:28:24Z</time>
      </trkpt>
      <trkpt lat="43.84205" lon="6.97266">
        <ele>1084.5046387</ele>
        <time>2012-06-28T22:28:40Z</time>
      </trkpt>
      <trkpt lat="43.84201" lon="6.97257">
        <ele>1086.9077148</ele>
        <time>2012-06-28T22:28:59Z</time>
      </trkpt>
      <trkpt lat="43.84198" lon="6.97256">
        <ele>1090.2724609</ele>
        <time>2012-06-28T22:29:16Z</time>
      </trkpt>
      <trkpt lat="43.84199" lon="6.97264">
        <ele>1092.6757813</ele>
        <time>2012-06-28T22:29:35Z</time>
      </trkpt>
      <trkpt lat="43.84198" lon="6.97274">
        <ele>1097.4821777</ele>
        <time>2012-06-28T22:29:52Z</time>
      </trkpt>
      <trkpt lat="43.84196" lon="6.97288">
        <ele>1097.0014648</ele>
        <time>2012-06-28T22:30:21Z</time>
      </trkpt>
      <trkpt lat="43.84194" lon="6.97293">
        <ele>1097.0014648</ele>
        <time>2012-06-28T22:30:40Z</time>
      </trkpt>
      <trkpt lat="43.84193" lon="6.973">
        <ele>1100.8469238</ele>
        <time>2012-06-28T22:30:57Z</time>
      </trkpt>
      <trkpt lat="43.84194" lon="6.97308">
        <ele>1102.7695313</ele>
        <time>2012-06-28T22:31:18Z</time>
      </trkpt>
      <trkpt lat="43.84194" lon="6.97313">
        <ele>1104.2116699</ele>
        <time>2012-06-28T22:31:40Z</time>
      </trkpt>
      <trkpt lat="43.84193" lon="6.97318">
        <ele>1105.6535645</ele>
        <time>2012-06-28T22:31:55Z</time>
      </trkpt>
      <trkpt lat="43.84191" lon="6.97322">
        <ele>1107.5761719</ele>
        <time>2012-06-28T22:32:14Z</time>
      </trkpt>
      <trkpt lat="43.84189" lon="6.97327">
        <ele>1108.5373535</ele>
        <time>2012-06-28T22:32:31Z</time>
      </trkpt>
      <trkpt lat="43.84189" lon="6.97332">
        <ele>1109.0180664</ele>
        <time>2012-06-28T22:32:49Z</time>
      </trkpt>
      <trkpt lat="43.8419" lon="6.97339">
        <ele>1110.9406738</ele>
        <time>2012-06-28T22:33:08Z</time>
      </trkpt>
      <trkpt lat="43.84191" lon="6.97347">
        <ele>1113.8244629</ele>
        <time>2012-06-28T22:33:31Z</time>
      </trkpt>
      <trkpt lat="43.84187" lon="6.97351">
        <ele>1111.9020996</ele>
        <time>2012-06-28T22:33:49Z</time>
      </trkpt>
      <trkpt lat="43.84187" lon="6.97359">
        <ele>1111.9020996</ele>
        <time>2012-06-28T22:34:04Z</time>
      </trkpt>
      <trkpt lat="43.84188" lon="6.97363">
        <ele>1113.8244629</ele>
        <time>2012-06-28T22:34:32Z</time>
      </trkpt>
      <trkpt lat="43.8419" lon="6.97369">
        <ele>1111.9020996</ele>
        <time>2012-06-28T22:34:48Z</time>
      </trkpt>
      <trkpt lat="43.84193" lon="6.97373">
        <ele>1111.9020996</ele>
        <time>2012-06-28T22:35:05Z</time>
      </trkpt>
      <trkpt lat="43.84191" lon="6.97377">
        <ele>1114.7858887</ele>
        <time>2012-06-28T22:35:24Z</time>
      </trkpt>
      <trkpt lat="43.84191" lon="6.97379">
        <ele>1116.7087402</ele>
        <time>2012-06-28T22:35:43Z</time>
      </trkpt>
      <trkpt lat="43.84194" lon="6.97385">
        <ele>1119.1120605</ele>
        <time>2012-06-28T22:36:02Z</time>
      </trkpt>
      <trkpt lat="43.84196" lon="6.97388">
        <ele>1121.034668</ele>
        <time>2012-06-28T22:36:18Z</time>
      </trkpt>
      <trkpt lat="43.84196" lon="6.9739">
        <ele>1122.9572754</ele>
        <time>2012-06-28T22:36:37Z</time>
      </trkpt>
      <trkpt lat="43.84195" lon="6.97391">
        <ele>1123.4379883</ele>
        <time>2012-06-28T22:37:00Z</time>
      </trkpt>
      <trkpt lat="43.84197" lon="6.97392">
        <ele>1123.4379883</ele>
        <time>2012-06-28T22:37:49Z</time>
      </trkpt>
      <trkpt lat="43.84196" lon="6.974">
        <ele>1125.8410645</ele>
        <time>2012-06-28T22:38:11Z</time>
      </trkpt>
      <trkpt lat="43.84192" lon="6.97405">
        <ele>1126.8024902</ele>
        <time>2012-06-28T22:38:31Z</time>
      </trkpt>
      <trkpt lat="43.84192" lon="6.97411">
        <ele>1127.7636719</ele>
        <time>2012-06-28T22:38:47Z</time>
      </trkpt>
      <trkpt lat="43.84192" lon="6.97417">
        <ele>1129.6862793</ele>
        <time>2012-06-28T22:39:05Z</time>
      </trkpt>
      <trkpt lat="43.84193" lon="6.97424">
        <ele>1131.6088867</ele>
        <time>2012-06-28T22:39:19Z</time>
      </trkpt>
      <trkpt lat="43.84193" lon="6.97428">
        <ele>1132.5705566</ele>
        <time>2012-06-28T22:39:45Z</time>
      </trkpt>
      <trkpt lat="43.8419" lon="6.97433">
        <ele>1136.8962402</ele>
        <time>2012-06-28T22:40:07Z</time>
      </trkpt>
      <trkpt lat="43.84182" lon="6.97445">
        <ele>1141.7028809</ele>
        <time>2012-06-28T22:40:30Z</time>
      </trkpt>
      <trkpt lat="43.8418" lon="6.97451">
        <ele>1145.5480957</ele>
        <time>2012-06-28T22:40:46Z</time>
      </trkpt>
      <trkpt lat="43.84174" lon="6.97458">
        <ele>1148.4321289</ele>
        <time>2012-06-28T22:41:03Z</time>
      </trkpt>
      <trkpt lat="43.84167" lon="6.97462">
        <ele>1150.3549805</ele>
        <time>2012-06-28T22:41:19Z</time>
      </trkpt>
      <trkpt lat="43.84162" lon="6.97465">
        <ele>1152.2773438</ele>
        <time>2012-06-28T22:41:33Z</time>
      </trkpt>
      <trkpt lat="43.84156" lon="6.9747">
        <ele>1154.2001953</ele>
        <time>2012-06-28T22:41:56Z</time>
      </trkpt>
      <trkpt lat="43.8415" lon="6.97473">
        <ele>1158.0454102</ele>
        <time>2012-06-28T22:42:13Z</time>
      </trkpt>
      <trkpt lat="43.84144" lon="6.97478">
        <ele>1161.4099121</ele>
        <time>2012-06-28T22:42:35Z</time>
      </trkpt>
      <trkpt lat="43.84138" lon="6.97485">
        <ele>1163.8129883</ele>
        <time>2012-06-28T22:42:54Z</time>
      </trkpt>
      <trkpt lat="43.84135" lon="6.97486">
        <ele>1166.6972656</ele>
        <time>2012-06-28T22:43:12Z</time>
      </trkpt>
      <trkpt lat="43.84132" lon="6.97489">
        <ele>1169.5812988</ele>
        <time>2012-06-28T22:43:27Z</time>
      </trkpt>
      <trkpt lat="43.84127" lon="6.97498">
        <ele>1172.4650879</ele>
        <time>2012-06-28T22:43:45Z</time>
      </trkpt>
      <trkpt lat="43.84124" lon="6.97507">
        <ele>1179.1940918</ele>
        <time>2012-06-28T22:44:07Z</time>
      </trkpt>
      <trkpt lat="43.84112" lon="6.97518">
        <ele>1183.0395508</ele>
        <time>2012-06-28T22:44:26Z</time>
      </trkpt>
      <trkpt lat="43.84105" lon="6.97529">
        <ele>1184.9624023</ele>
        <time>2012-06-28T22:44:46Z</time>
      </trkpt>
      <trkpt lat="43.84096" lon="6.97543">
        <ele>1187.3654785</ele>
        <time>2012-06-28T22:45:13Z</time>
      </trkpt>
      <trkpt lat="43.84094" lon="6.97551">
        <ele>1191.2106934</ele>
        <time>2012-06-28T22:45:27Z</time>
      </trkpt>
      <trkpt lat="43.84094" lon="6.97559">
        <ele>1195.0559082</ele>
        <time>2012-06-28T22:45:50Z</time>
      </trkpt>
      <trkpt lat="43.84097" lon="6.97561">
        <ele>1193.6140137</ele>
        <time>2012-06-28T22:46:25Z</time>
      </trkpt>
      <trkpt lat="43.84097" lon="6.97562">
        <ele>1192.1721191</ele>
        <time>2012-06-28T22:47:44Z</time>
      </trkpt>
      <trkpt lat="43.84096" lon="6.97561">
        <ele>1192.1721191</ele>
        <time>2012-06-28T22:49:43Z</time>
      </trkpt>
      <trkpt lat="43.84096" lon="6.97564">
        <ele>1193.6140137</ele>
        <time>2012-06-28T22:50:10Z</time>
      </trkpt>
      <trkpt lat="43.84093" lon="6.97566">
        <ele>1193.1333008</ele>
        <time>2012-06-28T22:50:28Z</time>
      </trkpt>
      <trkpt lat="43.84083" lon="6.97573">
        <ele>1192.1721191</ele>
        <time>2012-06-28T22:50:50Z</time>
      </trkpt>
      <trkpt lat="43.84076" lon="6.97577">
        <ele>1192.652832</ele>
        <time>2012-06-28T22:51:13Z</time>
      </trkpt>
      <trkpt lat="43.8407" lon="6.97584">
        <ele>1194.0947266</ele>
        <time>2012-06-28T22:51:40Z</time>
      </trkpt>
      <trkpt lat="43.84066" lon="6.9759">
        <ele>1194.0947266</ele>
        <time>2012-06-28T22:51:54Z</time>
      </trkpt>
      <trkpt lat="43.8406" lon="6.97594">
        <ele>1195.0559082</ele>
        <time>2012-06-28T22:52:10Z</time>
      </trkpt>
      <trkpt lat="43.84053" lon="6.97594">
        <ele>1198.4206543</ele>
        <time>2012-06-28T22:52:32Z</time>
      </trkpt>
      <trkpt lat="43.84048" lon="6.976">
        <ele>1199.3820801</ele>
        <time>2012-06-28T22:52:46Z</time>
      </trkpt>
      <trkpt lat="43.84043" lon="6.97613">
        <ele>1198.4206543</ele>
        <time>2012-06-28T22:53:07Z</time>
      </trkpt>
      <trkpt lat="43.84042" lon="6.97615">
        <ele>1199.3820801</ele>
        <time>2012-06-28T22:53:23Z</time>
      </trkpt>
      <trkpt lat="43.84035" lon="6.97629">
        <ele>1200.8239746</ele>
        <time>2012-06-28T22:53:41Z</time>
      </trkpt>
      <trkpt lat="43.84028" lon="6.97641">
        <ele>1201.7854004</ele>
        <time>2012-06-28T22:53:59Z</time>
      </trkpt>
      <trkpt lat="43.84022" lon="6.97647">
        <ele>1201.7854004</ele>
        <time>2012-06-28T22:54:20Z</time>
      </trkpt>
      <trkpt lat="43.84021" lon="6.97659">
        <ele>1200.8239746</ele>
        <time>2012-06-28T22:54:44Z</time>
      </trkpt>
      <trkpt lat="43.84019" lon="6.97669">
        <ele>1202.2658691</ele>
        <time>2012-06-28T22:55:01Z</time>
      </trkpt>
      <trkpt lat="43.84019" lon="6.97676">
        <ele>1203.2272949</ele>
        <time>2012-06-28T22:55:20Z</time>
      </trkpt>
      <trkpt lat="43.8402" lon="6.97688">
        <ele>1207.0725098</ele>
        <time>2012-06-28T22:55:37Z</time>
      </trkpt>
      <trkpt lat="43.84017" lon="6.97703">
        <ele>1211.3984375</ele>
        <time>2012-06-28T22:55:54Z</time>
      </trkpt>
      <trkpt lat="43.84014" lon="6.97714">
        <ele>1212.8405762</ele>
        <time>2012-06-28T22:56:10Z</time>
      </trkpt>
      <trkpt lat="43.84013" lon="6.97725">
        <ele>1219.5698242</ele>
        <time>2012-06-28T22:56:30Z</time>
      </trkpt>
      <trkpt lat="43.84008" lon="6.97737">
        <ele>1221.0117188</ele>
        <time>2012-06-28T22:56:49Z</time>
      </trkpt>
      <trkpt lat="43.83999" lon="6.97738">
        <ele>1218.1276855</ele>
        <time>2012-06-28T22:57:05Z</time>
      </trkpt>
      <trkpt lat="43.83991" lon="6.97745">
        <ele>1215.7246094</ele>
        <time>2012-06-28T22:57:22Z</time>
      </trkpt>
      <trkpt lat="43.83988" lon="6.97748">
        <ele>1217.6469727</ele>
        <time>2012-06-28T22:57:40Z</time>
      </trkpt>
      <trkpt lat="43.83981" lon="6.97756">
        <ele>1220.050293</ele>
        <time>2012-06-28T22:58:03Z</time>
      </trkpt>
      <trkpt lat="43.83974" lon="6.97763">
        <ele>1217.1665039</ele>
        <time>2012-06-28T22:58:20Z</time>
      </trkpt>
      <trkpt lat="43.83967" lon="6.97768">
        <ele>1217.1665039</ele>
        <time>2012-06-28T22:58:39Z</time>
      </trkpt>
      <trkpt lat="43.83963" lon="6.97774">
        <ele>1217.6469727</ele>
        <time>2012-06-28T22:58:59Z</time>
      </trkpt>
      <trkpt lat="43.83963" lon="6.97782">
        <ele>1216.685791</ele>
        <time>2012-06-28T22:59:23Z</time>
      </trkpt>
      <trkpt lat="43.83964" lon="6.97788">
        <ele>1218.1276855</ele>
        <time>2012-06-28T22:59:44Z</time>
      </trkpt>
      <trkpt lat="43.83967" lon="6.97796">
        <ele>1219.0891113</ele>
        <time>2012-06-28T23:01:55Z</time>
      </trkpt>
      <trkpt lat="43.83965" lon="6.97807">
        <ele>1221.9729004</ele>
        <time>2012-06-28T23:02:12Z</time>
      </trkpt>
      <trkpt lat="43.83966" lon="6.97816">
        <ele>1225.8181152</ele>
        <time>2012-06-28T23:02:28Z</time>
      </trkpt>
      <trkpt lat="43.83969" lon="6.97823">
        <ele>1225.8181152</ele>
        <time>2012-06-28T23:02:45Z</time>
      </trkpt>
      <trkpt lat="43.83969" lon="6.97826">
        <ele>1225.3374023</ele>
        <time>2012-06-28T23:03:06Z</time>
      </trkpt>
      <trkpt lat="43.83968" lon="6.97843">
        <ele>1226.2988281</ele>
        <time>2012-06-28T23:03:31Z</time>
      </trkpt>
      <trkpt lat="43.83964" lon="6.97848">
        <ele>1227.7407227</ele>
        <time>2012-06-28T23:03:54Z</time>
      </trkpt>
      <trkpt lat="43.83948" lon="6.97862">
        <ele>1231.1057129</ele>
        <time>2012-06-28T23:04:36Z</time>
      </trkpt>
      <trkpt lat="43.83946" lon="6.97871">
        <ele>1234.4702148</ele>
        <time>2012-06-28T23:05:13Z</time>
      </trkpt>
      <trkpt lat="43.83934" lon="6.9788">
        <ele>1237.3540039</ele>
        <time>2012-06-28T23:05:42Z</time>
      </trkpt>
      <trkpt lat="43.83927" lon="6.97896">
        <ele>1245.5253906</ele>
        <time>2012-06-28T23:06:12Z</time>
      </trkpt>
      <trkpt lat="43.83923" lon="6.97911">
        <ele>1251.7739258</ele>
        <time>2012-06-28T23:06:39Z</time>
      </trkpt>
      <trkpt lat="43.83923" lon="6.97925">
        <ele>1252.7351074</ele>
        <time>2012-06-28T23:07:03Z</time>
      </trkpt>
      <trkpt lat="43.83927" lon="6.97935">
        <ele>1256.0996094</ele>
        <time>2012-06-28T23:07:21Z</time>
      </trkpt>
      <trkpt lat="43.83933" lon="6.9795">
        <ele>1259.4643555</ele>
        <time>2012-06-28T23:07:40Z</time>
      </trkpt>
      <trkpt lat="43.83932" lon="6.97959">
        <ele>1261.387207</ele>
        <time>2012-06-28T23:08:03Z</time>
      </trkpt>
      <trkpt lat="43.83926" lon="6.97973">
        <ele>1262.3483887</ele>
        <time>2012-06-28T23:08:23Z</time>
      </trkpt>
      <trkpt lat="43.83923" lon="6.97971">
        <ele>1263.3098145</ele>
        <time>2012-06-28T23:08:46Z</time>
      </trkpt>
      <trkpt lat="43.83914" lon="6.97965">
        <ele>1264.751709</ele>
        <time>2012-06-28T23:09:14Z</time>
      </trkpt>
      <trkpt lat="43.83907" lon="6.97969">
        <ele>1271.9614258</ele>
        <time>2012-06-28T23:09:34Z</time>
      </trkpt>
      <trkpt lat="43.83905" lon="6.97965">
        <ele>1276.7683105</ele>
        <time>2012-06-28T23:09:54Z</time>
      </trkpt>
      <trkpt lat="43.83904" lon="6.97967">
        <ele>1279.6520996</ele>
        <time>2012-06-28T23:10:10Z</time>
      </trkpt>
      <trkpt lat="43.83898" lon="6.97968">
        <ele>1281.574707</ele>
        <time>2012-06-28T23:10:38Z</time>
      </trkpt>
      <trkpt lat="43.83891" lon="6.97968">
        <ele>1283.9780273</ele>
        <time>2012-06-28T23:10:57Z</time>
      </trkpt>
      <trkpt lat="43.83886" lon="6.97965">
        <ele>1286.3813477</ele>
        <time>2012-06-28T23:11:15Z</time>
      </trkpt>
      <trkpt lat="43.83888" lon="6.9795">
        <ele>1290.7070313</ele>
        <time>2012-06-28T23:11:38Z</time>
      </trkpt>
      <trkpt lat="43.83886" lon="6.9795">
        <ele>1292.1494141</ele>
        <time>2012-06-28T23:11:55Z</time>
      </trkpt>
      <trkpt lat="43.83881" lon="6.97953">
        <ele>1293.1105957</ele>
        <time>2012-06-28T23:12:12Z</time>
      </trkpt>
      <trkpt lat="43.83875" lon="6.97954">
        <ele>1294.0720215</ele>
        <time>2012-06-28T23:12:31Z</time>
      </trkpt>
      <trkpt lat="43.83875" lon="6.9795">
        <ele>1297.9172363</ele>
        <time>2012-06-28T23:12:51Z</time>
      </trkpt>
      <trkpt lat="43.83874" lon="6.97942">
        <ele>1298.878418</ele>
        <time>2012-06-28T23:13:09Z</time>
      </trkpt>
      <trkpt lat="43.83869" lon="6.97938">
        <ele>1299.8398438</ele>
        <time>2012-06-28T23:13:26Z</time>
      </trkpt>
      <trkpt lat="43.83866" lon="6.97942">
        <ele>1299.3591309</ele>
        <time>2012-06-28T23:13:51Z</time>
      </trkpt>
      <trkpt lat="43.83866" lon="6.97943">
        <ele>1298.878418</ele>
        <time>2012-06-28T23:14:16Z</time>
      </trkpt>
      <trkpt lat="43.83864" lon="6.97946">
        <ele>1300.3205566</ele>
        <time>2012-06-28T23:14:59Z</time>
      </trkpt>
      <trkpt lat="43.83861" lon="6.97948">
        <ele>1298.878418</ele>
        <time>2012-06-28T23:15:34Z</time>
      </trkpt>
      <trkpt lat="43.83861" lon="6.97948">
        <ele>1298.878418</ele>
        <time>2012-06-28T23:15:35Z</time>
      </trkpt>
      <trkpt lat="43.83852" lon="6.97948">
        <ele>1295.9946289</ele>
        <time>2012-06-28T23:15:49Z</time>
      </trkpt>
      <trkpt lat="43.83854" lon="6.97943">
        <ele>1299.3591309</ele>
        <time>2012-06-28T23:16:08Z</time>
      </trkpt>
      <trkpt lat="43.83852" lon="6.97939">
        <ele>1300.8010254</ele>
        <time>2012-06-28T23:16:23Z</time>
      </trkpt>
      <trkpt lat="43.83846" lon="6.97942">
        <ele>1302.7236328</ele>
        <time>2012-06-28T23:16:37Z</time>
      </trkpt>
      <trkpt lat="43.8384" lon="6.97946">
        <ele>1305.607666</ele>
        <time>2012-06-28T23:16:53Z</time>
      </trkpt>
      <trkpt lat="43.83833" lon="6.97948">
        <ele>1307.0495605</ele>
        <time>2012-06-28T23:17:12Z</time>
      </trkpt>
      <trkpt lat="43.8383" lon="6.97947">
        <ele>1308.4916992</ele>
        <time>2012-06-28T23:17:30Z</time>
      </trkpt>
      <trkpt lat="43.83821" lon="6.97948">
        <ele>1313.2983398</ele>
        <time>2012-06-28T23:17:49Z</time>
      </trkpt>
      <trkpt lat="43.83811" lon="6.97951">
        <ele>1316.6628418</ele>
        <time>2012-06-28T23:18:24Z</time>
      </trkpt>
      <trkpt lat="43.83787" lon="6.97954">
        <ele>1322.911377</ele>
        <time>2012-06-28T23:18:49Z</time>
      </trkpt>
      <trkpt lat="43.83784" lon="6.97956">
        <ele>1326.276123</ele>
        <time>2012-06-28T23:19:06Z</time>
      </trkpt>
      <trkpt lat="43.83772" lon="6.97952">
        <ele>1327.7180176</ele>
        <time>2012-06-28T23:19:24Z</time>
      </trkpt>
      <trkpt lat="43.83764" lon="6.97949">
        <ele>1333.005127</ele>
        <time>2012-06-28T23:19:48Z</time>
      </trkpt>
      <trkpt lat="43.83759" lon="6.97944">
        <ele>1336.8503418</ele>
        <time>2012-06-28T23:20:04Z</time>
      </trkpt>
      <trkpt lat="43.83752" lon="6.97942">
        <ele>1338.2924805</ele>
        <time>2012-06-28T23:20:23Z</time>
      </trkpt>
      <trkpt lat="43.83746" lon="6.97936">
        <ele>1344.5410156</ele>
        <time>2012-06-28T23:20:42Z</time>
      </trkpt>
      <trkpt lat="43.83736" lon="6.97925">
        <ele>1350.7895508</ele>
        <time>2012-06-28T23:21:04Z</time>
      </trkpt>
      <trkpt lat="43.8373" lon="6.97924">
        <ele>1357.519043</ele>
        <time>2012-06-28T23:21:22Z</time>
      </trkpt>
      <trkpt lat="43.83722" lon="6.9793">
        <ele>1358.9609375</ele>
        <time>2012-06-28T23:21:41Z</time>
      </trkpt>
      <trkpt lat="43.83724" lon="6.97947">
        <ele>1359.9221191</ele>
        <time>2012-06-28T23:21:57Z</time>
      </trkpt>
      <trkpt lat="43.83719" lon="6.97952">
        <ele>1362.8061523</ele>
        <time>2012-06-28T23:22:21Z</time>
      </trkpt>
      <trkpt lat="43.83716" lon="6.97954">
        <ele>1362.3254395</ele>
        <time>2012-06-28T23:25:54Z</time>
      </trkpt>
      <trkpt lat="43.83703" lon="6.97949">
        <ele>1363.767334</ele>
        <time>2012-06-28T23:26:10Z</time>
      </trkpt>
      <trkpt lat="43.83692" lon="6.97948">
        <ele>1361.3642578</ele>
        <time>2012-06-28T23:26:22Z</time>
      </trkpt>
      <trkpt lat="43.83681" lon="6.97946">
        <ele>1362.3254395</ele>
        <time>2012-06-28T23:26:31Z</time>
      </trkpt>
      <trkpt lat="43.83678" lon="6.97939">
        <ele>1363.2868652</ele>
        <time>2012-06-28T23:26:35Z</time>
      </trkpt>
      <trkpt lat="43.83677" lon="6.97935">
        <ele>1363.767334</ele>
        <time>2012-06-28T23:26:38Z</time>
      </trkpt>
      <trkpt lat="43.83673" lon="6.97931">
        <ele>1363.767334</ele>
        <time>2012-06-28T23:26:42Z</time>
      </trkpt>
      <trkpt lat="43.83672" lon="6.97928">
        <ele>1363.767334</ele>
        <time>2012-06-28T23:26:45Z</time>
      </trkpt>
      <trkpt lat="43.83665" lon="6.97927">
        <ele>1366.6513672</ele>
        <time>2012-06-28T23:26:54Z</time>
      </trkpt>
      <trkpt lat="43.83644" lon="6.97924">
        <ele>1372.4194336</ele>
        <time>2012-06-28T23:27:07Z</time>
      </trkpt>
      <trkpt lat="43.83614" lon="6.97928">
        <ele>1375.3032227</ele>
        <time>2012-06-28T23:27:19Z</time>
      </trkpt>
      <trkpt lat="43.83605" lon="6.97926">
        <ele>1378.1872559</ele>
        <time>2012-06-28T23:27:29Z</time>
      </trkpt>
      <trkpt lat="43.83592" lon="6.97928">
        <ele>1382.0324707</ele>
        <time>2012-06-28T23:27:43Z</time>
      </trkpt>
      <trkpt lat="43.83575" lon="6.97926">
        <ele>1380.5905762</ele>
        <time>2012-06-28T23:28:00Z</time>
      </trkpt>
      <trkpt lat="43.83568" lon="6.97921">
        <ele>1376.7453613</ele>
        <time>2012-06-28T23:28:13Z</time>
      </trkpt>
      <trkpt lat="43.83558" lon="6.97917">
        <ele>1375.7839355</ele>
        <time>2012-06-28T23:28:29Z</time>
      </trkpt>
      <trkpt lat="43.8355" lon="6.97911">
        <ele>1377.706543</ele>
        <time>2012-06-28T23:28:43Z</time>
      </trkpt>
      <trkpt lat="43.83543" lon="6.97911">
        <ele>1382.5131836</ele>
        <time>2012-06-28T23:28:59Z</time>
      </trkpt>
      <trkpt lat="43.83533" lon="6.97919">
        <ele>1385.3969727</ele>
        <time>2012-06-28T23:29:18Z</time>
      </trkpt>
      <trkpt lat="43.83525" lon="6.97915">
        <ele>1383.9550781</ele>
        <time>2012-06-28T23:29:33Z</time>
      </trkpt>
      <trkpt lat="43.83511" lon="6.97917">
        <ele>1384.435791</ele>
        <time>2012-06-28T23:29:48Z</time>
      </trkpt>
      <trkpt lat="43.835" lon="6.97924">
        <ele>1385.8776855</ele>
        <time>2012-06-28T23:30:00Z</time>
      </trkpt>
      <trkpt lat="43.83489" lon="6.97926">
        <ele>1385.3969727</ele>
        <time>2012-06-28T23:30:17Z</time>
      </trkpt>
      <trkpt lat="43.83478" lon="6.97919">
        <ele>1386.8388672</ele>
        <time>2012-06-28T23:30:34Z</time>
      </trkpt>
      <trkpt lat="43.8347" lon="6.97913">
        <ele>1388.7619629</ele>
        <time>2012-06-28T23:30:48Z</time>
      </trkpt>
      <trkpt lat="43.83459" lon="6.97905">
        <ele>1392.1264648</ele>
        <time>2012-06-28T23:31:04Z</time>
      </trkpt>
      <trkpt lat="43.83458" lon="6.97905">
        <ele>1392.1264648</ele>
        <time>2012-06-28T23:31:05Z</time>
      </trkpt>
      <trkpt lat="43.83443" lon="6.97903">
        <ele>1395.4909668</ele>
        <time>2012-06-28T23:31:19Z</time>
      </trkpt>
      <trkpt lat="43.83442" lon="6.97902">
        <ele>1395.9716797</ele>
        <time>2012-06-28T23:31:21Z</time>
      </trkpt>
      <trkpt lat="43.83438" lon="6.97893">
        <ele>1397.8942871</ele>
        <time>2012-06-28T23:31:28Z</time>
      </trkpt>
      <trkpt lat="43.83431" lon="6.97894">
        <ele>1399.3361816</ele>
        <time>2012-06-28T23:31:33Z</time>
      </trkpt>
      <trkpt lat="43.83426" lon="6.97896">
        <ele>1398.8554688</ele>
        <time>2012-06-28T23:31:37Z</time>
      </trkpt>
      <trkpt lat="43.83415" lon="6.979">
        <ele>1397.4135742</ele>
        <time>2012-06-28T23:31:42Z</time>
      </trkpt>
      <trkpt lat="43.83412" lon="6.97902">
        <ele>1394.0490723</ele>
        <time>2012-06-28T23:31:56Z</time>
      </trkpt>
      <trkpt lat="43.83412" lon="6.97902">
        <ele>1394.0490723</ele>
        <time>2012-06-28T23:32:05Z</time>
      </trkpt>
      <trkpt lat="43.83429" lon="6.97927">
        <ele>1388.28125</ele>
        <time>2012-06-28T23:32:13Z</time>
      </trkpt>
      <trkpt lat="43.83433" lon="6.97941">
        <ele>1388.28125</ele>
        <time>2012-06-28T23:32:17Z</time>
      </trkpt>
      <trkpt lat="43.83431" lon="6.97959">
        <ele>1387.800293</ele>
        <time>2012-06-28T23:32:30Z</time>
      </trkpt>
      <trkpt lat="43.83424" lon="6.97954">
        <ele>1389.7231445</ele>
        <time>2012-06-28T23:32:44Z</time>
      </trkpt>
      <trkpt lat="43.83423" lon="6.97949">
        <ele>1391.645752</ele>
        <time>2012-06-28T23:32:58Z</time>
      </trkpt>
      <trkpt lat="43.83417" lon="6.9794">
        <ele>1393.5683594</ele>
        <time>2012-06-28T23:33:17Z</time>
      </trkpt>
      <trkpt lat="43.83411" lon="6.97933">
        <ele>1396.4523926</ele>
        <time>2012-06-28T23:33:31Z</time>
      </trkpt>
      <trkpt lat="43.83402" lon="6.97915">
        <ele>1400.2976074</ele>
        <time>2012-06-28T23:33:53Z</time>
      </trkpt>
      <trkpt lat="43.8339" lon="6.97895">
        <ele>1402.2199707</ele>
        <time>2012-06-28T23:34:21Z</time>
      </trkpt>
      <trkpt lat="43.83384" lon="6.97885">
        <ele>1401.2587891</ele>
        <time>2012-06-28T23:34:34Z</time>
      </trkpt>
      <trkpt lat="43.83381" lon="6.97881">
        <ele>1403.1813965</ele>
        <time>2012-06-28T23:34:49Z</time>
      </trkpt>
      <trkpt lat="43.83378" lon="6.97876">
        <ele>1405.104248</ele>
        <time>2012-06-28T23:35:07Z</time>
      </trkpt>
      <trkpt lat="43.83378" lon="6.97858">
        <ele>1407.0268555</ele>
        <time>2012-06-28T23:35:29Z</time>
      </trkpt>
      <trkpt lat="43.83378" lon="6.97856">
        <ele>1407.9882813</ele>
        <time>2012-06-28T23:35:32Z</time>
      </trkpt>
      <trkpt lat="43.8338" lon="6.97848">
        <ele>1412.3139648</ele>
        <time>2012-06-28T23:35:47Z</time>
      </trkpt>
      <trkpt lat="43.83381" lon="6.97843">
        <ele>1411.8334961</ele>
        <time>2012-06-28T23:36:01Z</time>
      </trkpt>
      <trkpt lat="43.83378" lon="6.97839">
        <ele>1411.8334961</ele>
        <time>2012-06-28T23:36:15Z</time>
      </trkpt>
      <trkpt lat="43.83375" lon="6.97829">
        <ele>1410.3913574</ele>
        <time>2012-06-28T23:36:31Z</time>
      </trkpt>
      <trkpt lat="43.83368" lon="6.9782">
        <ele>1410.8720703</ele>
        <time>2012-06-28T23:36:50Z</time>
      </trkpt>
      <trkpt lat="43.83366" lon="6.9781">
        <ele>1412.7946777</ele>
        <time>2012-06-28T23:37:06Z</time>
      </trkpt>
      <trkpt lat="43.83366" lon="6.97792">
        <ele>1417.1206055</ele>
        <time>2012-06-28T23:37:24Z</time>
      </trkpt>
      <trkpt lat="43.83361" lon="6.97776">
        <ele>1419.0432129</ele>
        <time>2012-06-28T23:37:42Z</time>
      </trkpt>
      <trkpt lat="43.83356" lon="6.97761">
        <ele>1419.0432129</ele>
        <time>2012-06-28T23:38:01Z</time>
      </trkpt>
      <trkpt lat="43.83352" lon="6.97746">
        <ele>1420.4853516</ele>
        <time>2012-06-28T23:38:22Z</time>
      </trkpt>
      <trkpt lat="43.83345" lon="6.97731">
        <ele>1420.9660645</ele>
        <time>2012-06-28T23:38:47Z</time>
      </trkpt>
      <trkpt lat="43.83338" lon="6.97718">
        <ele>1421.4465332</ele>
        <time>2012-06-28T23:39:07Z</time>
      </trkpt>
      <trkpt lat="43.83334" lon="6.97705">
        <ele>1422.407959</ele>
        <time>2012-06-28T23:39:28Z</time>
      </trkpt>
      <trkpt lat="43.8333" lon="6.97694">
        <ele>1423.8498535</ele>
        <time>2012-06-28T23:39:49Z</time>
      </trkpt>
      <trkpt lat="43.83324" lon="6.97681">
        <ele>1426.2531738</ele>
        <time>2012-06-28T23:40:06Z</time>
      </trkpt>
      <trkpt lat="43.83327" lon="6.97662">
        <ele>1431.0598145</ele>
        <time>2012-06-28T23:40:24Z</time>
      </trkpt>
      <trkpt lat="43.83323" lon="6.9765">
        <ele>1433.4628906</ele>
        <time>2012-06-28T23:40:37Z</time>
      </trkpt>
      <trkpt lat="43.8332" lon="6.97637">
        <ele>1434.9050293</ele>
        <time>2012-06-28T23:40:49Z</time>
      </trkpt>
      <trkpt lat="43.83316" lon="6.97624">
        <ele>1435.8662109</ele>
        <time>2012-06-28T23:41:01Z</time>
      </trkpt>
      <trkpt lat="43.83308" lon="6.9761">
        <ele>1440.6728516</ele>
        <time>2012-06-28T23:41:21Z</time>
      </trkpt>
      <trkpt lat="43.83305" lon="6.97601">
        <ele>1442.5957031</ele>
        <time>2012-06-28T23:41:30Z</time>
      </trkpt>
      <trkpt lat="43.83291" lon="6.97577">
        <ele>1444.5180664</ele>
        <time>2012-06-28T23:41:51Z</time>
      </trkpt>
      <trkpt lat="43.83286" lon="6.9756">
        <ele>1446.9213867</ele>
        <time>2012-06-28T23:42:06Z</time>
      </trkpt>
      <trkpt lat="43.83275" lon="6.9754">
        <ele>1449.324707</ele>
        <time>2012-06-28T23:42:27Z</time>
      </trkpt>
      <trkpt lat="43.83264" lon="6.97528">
        <ele>1451.2473145</ele>
        <time>2012-06-28T23:42:45Z</time>
      </trkpt>
      <trkpt lat="43.83254" lon="6.97513">
        <ele>1451.2473145</ele>
        <time>2012-06-28T23:43:04Z</time>
      </trkpt>
      <trkpt lat="43.83249" lon="6.97504">
        <ele>1451.7280273</ele>
        <time>2012-06-28T23:43:18Z</time>
      </trkpt>
      <trkpt lat="43.83251" lon="6.975">
        <ele>1449.324707</ele>
        <time>2012-06-28T23:43:37Z</time>
      </trkpt>
      <trkpt lat="43.83257" lon="6.97496">
        <ele>1448.3632813</ele>
        <time>2012-06-28T23:44:17Z</time>
      </trkpt>
      <trkpt lat="43.83256" lon="6.97493">
        <ele>1450.7666016</ele>
        <time>2012-06-28T23:45:05Z</time>
      </trkpt>
      <trkpt lat="43.83251" lon="6.97491">
        <ele>1450.2861328</ele>
        <time>2012-06-28T23:45:28Z</time>
      </trkpt>
      <trkpt lat="43.83251" lon="6.97491">
        <ele>1450.7666016</ele>
        <time>2012-06-28T23:45:30Z</time>
      </trkpt>
      <trkpt lat="43.8324" lon="6.97453">
        <ele>1449.8054199</ele>
        <time>2012-06-28T23:45:41Z</time>
      </trkpt>
      <trkpt lat="43.83237" lon="6.97449">
        <ele>1450.2861328</ele>
        <time>2012-06-28T23:45:42Z</time>
      </trkpt>
      <trkpt lat="43.83221" lon="6.97428">
        <ele>1449.324707</ele>
        <time>2012-06-28T23:45:47Z</time>
      </trkpt>
      <trkpt lat="43.83205" lon="6.97393">
        <ele>1448.3632813</ele>
        <time>2012-06-28T23:45:53Z</time>
      </trkpt>
      <trkpt lat="43.83202" lon="6.97371">
        <ele>1446.440918</ele>
        <time>2012-06-28T23:45:56Z</time>
      </trkpt>
      <trkpt lat="43.83195" lon="6.97352">
        <ele>1442.1149902</ele>
        <time>2012-06-28T23:45:59Z</time>
      </trkpt>
      <trkpt lat="43.83184" lon="6.97342">
        <ele>1438.7504883</ele>
        <time>2012-06-28T23:46:02Z</time>
      </trkpt>
      <trkpt lat="43.83175" lon="6.97323">
        <ele>1435.385498</ele>
        <time>2012-06-28T23:46:06Z</time>
      </trkpt>
      <trkpt lat="43.83165" lon="6.97316">
        <ele>1431.5402832</ele>
        <time>2012-06-28T23:46:10Z</time>
      </trkpt>
      <trkpt lat="43.83155" lon="6.9732">
        <ele>1430.0983887</ele>
        <time>2012-06-28T23:46:13Z</time>
      </trkpt>
      <trkpt lat="43.83141" lon="6.97321">
        <ele>1428.1757813</ele>
        <time>2012-06-28T23:46:16Z</time>
      </trkpt>
      <trkpt lat="43.83072" lon="6.9737">
        <ele>1422.8886719</ele>
        <time>2012-06-28T23:46:30Z</time>
      </trkpt>
      <trkpt lat="43.83035" lon="6.97395">
        <ele>1419.0432129</ele>
        <time>2012-06-28T23:46:36Z</time>
      </trkpt>
      <trkpt lat="43.82971" lon="6.97379">
        <ele>1415.197998</ele>
        <time>2012-06-28T23:46:44Z</time>
      </trkpt>
      <trkpt lat="43.82954" lon="6.97312">
        <ele>1411.3527832</ele>
        <time>2012-06-28T23:46:50Z</time>
      </trkpt>
      <trkpt lat="43.82981" lon="6.97247">
        <ele>1406.0654297</ele>
        <time>2012-06-28T23:46:56Z</time>
      </trkpt>
      <trkpt lat="43.83033" lon="6.97227">
        <ele>1403.6621094</ele>
        <time>2012-06-28T23:47:02Z</time>
      </trkpt>
      <trkpt lat="43.83063" lon="6.97232">
        <ele>1406.0654297</ele>
        <time>2012-06-28T23:47:10Z</time>
      </trkpt>
      <trkpt lat="43.83066" lon="6.9723">
        <ele>1407.0268555</ele>
        <time>2012-06-28T23:47:37Z</time>
      </trkpt>
      <trkpt lat="43.83067" lon="6.97229">
        <ele>1407.0268555</ele>
        <time>2012-06-28T23:48:11Z</time>
      </trkpt>
      <trkpt lat="43.83069" lon="6.97228">
        <ele>1407.5075684</ele>
        <time>2012-06-28T23:48:27Z</time>
      </trkpt>
      <trkpt lat="43.83088" lon="6.97199">
        <ele>1408.46875</ele>
        <time>2012-06-28T23:48:40Z</time>
      </trkpt>
      <trkpt lat="43.83103" lon="6.97098">
        <ele>1406.5461426</ele>
        <time>2012-06-28T23:48:54Z</time>
      </trkpt>
      <trkpt lat="43.83134" lon="6.9693">
        <ele>1405.104248</ele>
        <time>2012-06-28T23:49:14Z</time>
      </trkpt>
      <trkpt lat="43.83194" lon="6.96755">
        <ele>1404.6235352</ele>
        <time>2012-06-28T23:49:37Z</time>
      </trkpt>
      <trkpt lat="43.83268" lon="6.96644">
        <ele>1407.0268555</ele>
        <time>2012-06-28T23:49:55Z</time>
      </trkpt>
      <trkpt lat="43.8333" lon="6.96539">
        <ele>1407.9882813</ele>
        <time>2012-06-28T23:50:12Z</time>
      </trkpt>
      <trkpt lat="43.8337" lon="6.9642">
        <ele>1409.4301758</ele>
        <time>2012-06-28T23:50:32Z</time>
      </trkpt>
      <trkpt lat="43.83406" lon="6.9627">
        <ele>1409.9106445</ele>
        <time>2012-06-28T23:50:54Z</time>
      </trkpt>
      <trkpt lat="43.83397" lon="6.96094">
        <ele>1410.8720703</ele>
        <time>2012-06-28T23:51:19Z</time>
      </trkpt>
      <trkpt lat="43.83363" lon="6.95949">
        <ele>1406.5461426</ele>
        <time>2012-06-28T23:51:39Z</time>
      </trkpt>
      <trkpt lat="43.83359" lon="6.95943">
        <ele>1406.5461426</ele>
        <time>2012-06-28T23:51:40Z</time>
      </trkpt>
      <trkpt lat="43.83338" lon="6.95917">
        <ele>1404.6235352</ele>
        <time>2012-06-28T23:51:45Z</time>
      </trkpt>
      <trkpt lat="43.83291" lon="6.95905">
        <ele>1403.6621094</ele>
        <time>2012-06-28T23:51:53Z</time>
      </trkpt>
      <trkpt lat="43.83182" lon="6.95945">
        <ele>1401.2587891</ele>
        <time>2012-06-28T23:52:11Z</time>
      </trkpt>
      <trkpt lat="43.83094" lon="6.95923">
        <ele>1399.8168945</ele>
        <time>2012-06-28T23:52:26Z</time>
      </trkpt>
      <trkpt lat="43.8305" lon="6.95877">
        <ele>1401.739502</ele>
        <time>2012-06-28T23:52:40Z</time>
      </trkpt>
      <trkpt lat="43.83021" lon="6.95816">
        <ele>1403.6621094</ele>
        <time>2012-06-28T23:52:59Z</time>
      </trkpt>
      <trkpt lat="43.8301" lon="6.95744">
        <ele>1406.0654297</ele>
        <time>2012-06-28T23:53:20Z</time>
      </trkpt>
      <trkpt lat="43.83022" lon="6.95661">
        <ele>1407.5075684</ele>
        <time>2012-06-28T23:53:43Z</time>
      </trkpt>
      <trkpt lat="43.83065" lon="6.95577">
        <ele>1407.5075684</ele>
        <time>2012-06-28T23:54:07Z</time>
      </trkpt>
      <trkpt lat="43.83127" lon="6.95501">
        <ele>1409.9106445</ele>
        <time>2012-06-28T23:54:29Z</time>
      </trkpt>
      <trkpt lat="43.83168" lon="6.95445">
        <ele>1412.7946777</ele>
        <time>2012-06-28T23:54:44Z</time>
      </trkpt>
      <trkpt lat="43.8318" lon="6.95421">
        <ele>1413.2753906</ele>
        <time>2012-06-28T23:54:49Z</time>
      </trkpt>
      <trkpt lat="43.83189" lon="6.95394">
        <ele>1414.2365723</ele>
        <time>2012-06-28T23:54:54Z</time>
      </trkpt>
      <trkpt lat="43.83203" lon="6.95251">
        <ele>1413.7558594</ele>
        <time>2012-06-28T23:55:15Z</time>
      </trkpt>
      <trkpt lat="43.83193" lon="6.95107">
        <ele>1409.9106445</ele>
        <time>2012-06-28T23:55:33Z</time>
      </trkpt>
      <trkpt lat="43.8315" lon="6.94964">
        <ele>1406.5461426</ele>
        <time>2012-06-28T23:55:50Z</time>
      </trkpt>
      <trkpt lat="43.83076" lon="6.94836">
        <ele>1404.6235352</ele>
        <time>2012-06-28T23:56:10Z</time>
      </trkpt>
      <trkpt lat="43.82985" lon="6.94774">
        <ele>1404.1430664</ele>
        <time>2012-06-28T23:56:29Z</time>
      </trkpt>
      <trkpt lat="43.82919" lon="6.94764">
        <ele>1407.0268555</ele>
        <time>2012-06-28T23:56:45Z</time>
      </trkpt>
      <trkpt lat="43.8288" lon="6.94779">
        <ele>1408.46875</ele>
        <time>2012-06-28T23:57:02Z</time>
      </trkpt>
      <trkpt lat="43.82839" lon="6.94813">
        <ele>1411.3527832</ele>
        <time>2012-06-28T23:57:25Z</time>
      </trkpt>
      <trkpt lat="43.82802" lon="6.94817">
        <ele>1412.3139648</ele>
        <time>2012-06-28T23:57:45Z</time>
      </trkpt>
      <trkpt lat="43.82782" lon="6.94784">
        <ele>1412.7946777</ele>
        <time>2012-06-28T23:58:04Z</time>
      </trkpt>
      <trkpt lat="43.82798" lon="6.94742">
        <ele>1414.2365723</ele>
        <time>2012-06-28T23:58:23Z</time>
      </trkpt>
      <trkpt lat="43.82833" lon="6.94702">
        <ele>1416.1591797</ele>
        <time>2012-06-28T23:58:48Z</time>
      </trkpt>
      <trkpt lat="43.82877" lon="6.94659">
        <ele>1418.5625</ele>
        <time>2012-06-28T23:59:16Z</time>
      </trkpt>
      <trkpt lat="43.82922" lon="6.94623">
        <ele>1422.8886719</ele>
        <time>2012-06-28T23:59:43Z</time>
      </trkpt>
      <trkpt lat="43.82957" lon="6.94591">
        <ele>1425.291748</ele>
        <time>2012-06-29T00:00:05Z</time>
      </trkpt>
      <trkpt lat="43.83003" lon="6.94536">
        <ele>1429.6176758</ele>
        <time>2012-06-29T00:00:36Z</time>
      </trkpt>
      <trkpt lat="43.83016" lon="6.94472">
        <ele>1432.0209961</ele>
        <time>2012-06-29T00:00:56Z</time>
      </trkpt>
      <trkpt lat="43.83026" lon="6.94372">
        <ele>1433.9436035</ele>
        <time>2012-06-29T00:01:18Z</time>
      </trkpt>
      <trkpt lat="43.83021" lon="6.94262">
        <ele>1431.5402832</ele>
        <time>2012-06-29T00:01:36Z</time>
      </trkpt>
      <trkpt lat="43.83033" lon="6.94132">
        <ele>1425.7724609</ele>
        <time>2012-06-29T00:01:48Z</time>
      </trkpt>
      <trkpt lat="43.83045" lon="6.93938">
        <ele>1416.1591797</ele>
        <time>2012-06-29T00:02:02Z</time>
      </trkpt>
      <trkpt lat="43.83025" lon="6.93785">
        <ele>1411.8334961</ele>
        <time>2012-06-29T00:02:13Z</time>
      </trkpt>
      <trkpt lat="43.83009" lon="6.93624">
        <ele>1407.5075684</ele>
        <time>2012-06-29T00:02:26Z</time>
      </trkpt>
      <trkpt lat="43.8304" lon="6.93451">
        <ele>1404.1430664</ele>
        <time>2012-06-29T00:02:41Z</time>
      </trkpt>
      <trkpt lat="43.83042" lon="6.93335">
        <ele>1404.1430664</ele>
        <time>2012-06-29T00:02:53Z</time>
      </trkpt>
      <trkpt lat="43.83021" lon="6.93234">
        <ele>1404.1430664</ele>
        <time>2012-06-29T00:03:10Z</time>
      </trkpt>
      <trkpt lat="43.82999" lon="6.93121">
        <ele>1403.1813965</ele>
        <time>2012-06-29T00:03:33Z</time>
      </trkpt>
      <trkpt lat="43.82981" lon="6.92958">
        <ele>1400.7780762</ele>
        <time>2012-06-29T00:03:57Z</time>
      </trkpt>
      <trkpt lat="43.8298" lon="6.92769">
        <ele>1398.3747559</ele>
        <time>2012-06-29T00:04:21Z</time>
      </trkpt>
      <trkpt lat="43.82967" lon="6.92574">
        <ele>1396.9328613</ele>
        <time>2012-06-29T00:04:45Z</time>
      </trkpt>
      <trkpt lat="43.82942" lon="6.92341">
        <ele>1394.529541</ele>
        <time>2012-06-29T00:05:14Z</time>
      </trkpt>
      <trkpt lat="43.82932" lon="6.92211">
        <ele>1395.0102539</ele>
        <time>2012-06-29T00:05:32Z</time>
      </trkpt>
      <trkpt lat="43.82915" lon="6.92006">
        <ele>1391.645752</ele>
        <time>2012-06-29T00:06:00Z</time>
      </trkpt>
      <trkpt lat="43.82893" lon="6.91857">
        <ele>1389.7231445</ele>
        <time>2012-06-29T00:06:20Z</time>
      </trkpt>
      <trkpt lat="43.82855" lon="6.91673">
        <ele>1388.28125</ele>
        <time>2012-06-29T00:06:49Z</time>
      </trkpt>
      <trkpt lat="43.82812" lon="6.91504">
        <ele>1385.8776855</ele>
        <time>2012-06-29T00:07:17Z</time>
      </trkpt>
      <trkpt lat="43.82782" lon="6.9133">
        <ele>1383.9550781</ele>
        <time>2012-06-29T00:07:45Z</time>
      </trkpt>
      <trkpt lat="43.8277" lon="6.91166">
        <ele>1382.9936523</ele>
        <time>2012-06-29T00:08:10Z</time>
      </trkpt>
      <trkpt lat="43.82749" lon="6.91002">
        <ele>1383.4743652</ele>
        <time>2012-06-29T00:08:35Z</time>
      </trkpt>
      <trkpt lat="43.82744" lon="6.90975">
        <ele>1382.5131836</ele>
        <time>2012-06-29T00:08:44Z</time>
      </trkpt>
      <trkpt lat="43.82744" lon="6.9097">
        <ele>1382.9936523</ele>
        <time>2012-06-29T00:09:08Z</time>
      </trkpt>
      <trkpt lat="43.82732" lon="6.90965">
        <ele>1381.0712891</ele>
        <time>2012-06-29T00:09:14Z</time>
      </trkpt>
      <trkpt lat="43.82719" lon="6.9095">
        <ele>1379.6291504</ele>
        <time>2012-06-29T00:09:18Z</time>
      </trkpt>
      <trkpt lat="43.82713" lon="6.90921">
        <ele>1379.6291504</ele>
        <time>2012-06-29T00:09:22Z</time>
      </trkpt>
      <trkpt lat="43.82708" lon="6.90887">
        <ele>1378.6679688</ele>
        <time>2012-06-29T00:09:26Z</time>
      </trkpt>
      <trkpt lat="43.82708" lon="6.90854">
        <ele>1379.1484375</ele>
        <time>2012-06-29T00:09:30Z</time>
      </trkpt>
      <trkpt lat="43.82713" lon="6.90827">
        <ele>1382.5131836</ele>
        <time>2012-06-29T00:09:36Z</time>
      </trkpt>
      <trkpt lat="43.8271" lon="6.90829">
        <ele>1380.5905762</ele>
        <time>2012-06-29T00:09:43Z</time>
      </trkpt>
      <trkpt lat="43.82705" lon="6.90844">
        <ele>1379.1484375</ele>
        <time>2012-06-29T00:09:46Z</time>
      </trkpt>
      <trkpt lat="43.82702" lon="6.90877">
        <ele>1377.706543</ele>
        <time>2012-06-29T00:09:50Z</time>
      </trkpt>
      <trkpt lat="43.82704" lon="6.90921">
        <ele>1378.6679688</ele>
        <time>2012-06-29T00:09:57Z</time>
      </trkpt>
      <trkpt lat="43.827" lon="6.90937">
        <ele>1377.2260742</ele>
        <time>2012-06-29T00:10:00Z</time>
      </trkpt>
      <trkpt lat="43.82682" lon="6.9096">
        <ele>1371.9384766</ele>
        <time>2012-06-29T00:10:08Z</time>
      </trkpt>
      <trkpt lat="43.82677" lon="6.90955">
        <ele>1371.4577637</ele>
        <time>2012-06-29T00:10:09Z</time>
      </trkpt>
      <trkpt lat="43.82668" lon="6.90943">
        <ele>1370.0158691</ele>
        <time>2012-06-29T00:10:11Z</time>
      </trkpt>
      <trkpt lat="43.82639" lon="6.90879">
        <ele>1365.2094727</ele>
        <time>2012-06-29T00:10:19Z</time>
      </trkpt>
      <trkpt lat="43.82624" lon="6.90875">
        <ele>1364.2480469</ele>
        <time>2012-06-29T00:10:24Z</time>
      </trkpt>
      <trkpt lat="43.82604" lon="6.9086">
        <ele>1363.767334</ele>
        <time>2012-06-29T00:10:34Z</time>
      </trkpt>
      <trkpt lat="43.82567" lon="6.90854">
        <ele>1360.402832</ele>
        <time>2012-06-29T00:10:46Z</time>
      </trkpt>
      <trkpt lat="43.82545" lon="6.90827">
        <ele>1357.519043</ele>
        <time>2012-06-29T00:10:52Z</time>
      </trkpt>
      <trkpt lat="43.82542" lon="6.90812">
        <ele>1356.5576172</ele>
        <time>2012-06-29T00:10:54Z</time>
      </trkpt>
      <trkpt lat="43.82547" lon="6.90794">
        <ele>1354.6347656</ele>
        <time>2012-06-29T00:10:57Z</time>
      </trkpt>
      <trkpt lat="43.82519" lon="6.90756">
        <ele>1347.9057617</ele>
        <time>2012-06-29T00:11:05Z</time>
      </trkpt>
      <trkpt lat="43.82507" lon="6.90753">
        <ele>1345.9831543</ele>
        <time>2012-06-29T00:11:07Z</time>
      </trkpt>
      <trkpt lat="43.82499" lon="6.90752">
        <ele>1344.5410156</ele>
        <time>2012-06-29T00:11:09Z</time>
      </trkpt>
      <trkpt lat="43.82478" lon="6.90742">
        <ele>1340.215332</ele>
        <time>2012-06-29T00:11:14Z</time>
      </trkpt>
      <trkpt lat="43.82468" lon="6.90737">
        <ele>1338.2924805</ele>
        <time>2012-06-29T00:11:23Z</time>
      </trkpt>
      <trkpt lat="43.82468" lon="6.90737">
        <ele>1338.2924805</ele>
        <time>2012-06-29T00:11:27Z</time>
      </trkpt>
      <trkpt lat="43.82451" lon="6.90725">
        <ele>1334.9279785</ele>
        <time>2012-06-29T00:11:33Z</time>
      </trkpt>
      <trkpt lat="43.82419" lon="6.90708">
        <ele>1329.1599121</ele>
        <time>2012-06-29T00:11:41Z</time>
      </trkpt>
      <trkpt lat="43.82393" lon="6.907">
        <ele>1324.3535156</ele>
        <time>2012-06-29T00:11:46Z</time>
      </trkpt>
      <trkpt lat="43.82377" lon="6.90692">
        <ele>1320.5080566</ele>
        <time>2012-06-29T00:11:49Z</time>
      </trkpt>
      <trkpt lat="43.82347" lon="6.90691">
        <ele>1315.2209473</ele>
        <time>2012-06-29T00:11:55Z</time>
      </trkpt>
      <trkpt lat="43.82339" lon="6.90691">
        <ele>1314.7402344</ele>
        <time>2012-06-29T00:11:57Z</time>
      </trkpt>
      <trkpt lat="43.82326" lon="6.90692">
        <ele>1312.3369141</ele>
        <time>2012-06-29T00:12:00Z</time>
      </trkpt>
      <trkpt lat="43.8231" lon="6.90694">
        <ele>1310.8950195</ele>
        <time>2012-06-29T00:12:03Z</time>
      </trkpt>
      <trkpt lat="43.82295" lon="6.90697">
        <ele>1308.9724121</ele>
        <time>2012-06-29T00:12:06Z</time>
      </trkpt>
      <trkpt lat="43.82281" lon="6.90697">
        <ele>1307.0495605</ele>
        <time>2012-06-29T00:12:09Z</time>
      </trkpt>
      <trkpt lat="43.82266" lon="6.90722">
        <ele>1304.1657715</ele>
        <time>2012-06-29T00:12:15Z</time>
      </trkpt>
      <trkpt lat="43.82253" lon="6.90755">
        <ele>1301.2817383</ele>
        <time>2012-06-29T00:12:22Z</time>
      </trkpt>
      <trkpt lat="43.82241" lon="6.90772">
        <ele>1297.4365234</ele>
        <time>2012-06-29T00:12:27Z</time>
      </trkpt>
      <trkpt lat="43.82214" lon="6.90836">
        <ele>1288.3039551</ele>
        <time>2012-06-29T00:12:38Z</time>
      </trkpt>
      <trkpt lat="43.82209" lon="6.90852">
        <ele>1287.3425293</ele>
        <time>2012-06-29T00:12:41Z</time>
      </trkpt>
      <trkpt lat="43.82192" lon="6.90903">
        <ele>1284.9394531</ele>
        <time>2012-06-29T00:12:50Z</time>
      </trkpt>
      <trkpt lat="43.82189" lon="6.9092">
        <ele>1283.4973145</ele>
        <time>2012-06-29T00:12:53Z</time>
      </trkpt>
      <trkpt lat="43.8218" lon="6.90942">
        <ele>1282.0554199</ele>
        <time>2012-06-29T00:12:58Z</time>
      </trkpt>
      <trkpt lat="43.82163" lon="6.90937">
        <ele>1280.1328125</ele>
        <time>2012-06-29T00:13:03Z</time>
      </trkpt>
      <trkpt lat="43.82152" lon="6.90927">
        <ele>1278.690918</ele>
        <time>2012-06-29T00:13:06Z</time>
      </trkpt>
      <trkpt lat="43.82136" lon="6.90912">
        <ele>1276.7683105</ele>
        <time>2012-06-29T00:13:10Z</time>
      </trkpt>
      <trkpt lat="43.8212" lon="6.90911">
        <ele>1274.845459</ele>
        <time>2012-06-29T00:13:14Z</time>
      </trkpt>
      <trkpt lat="43.82097" lon="6.90898">
        <ele>1272.9228516</ele>
        <time>2012-06-29T00:13:19Z</time>
      </trkpt>
      <trkpt lat="43.82078" lon="6.90874">
        <ele>1270.5195313</ele>
        <time>2012-06-29T00:13:24Z</time>
      </trkpt>
      <trkpt lat="43.82061" lon="6.90858">
        <ele>1269.0776367</ele>
        <time>2012-06-29T00:13:28Z</time>
      </trkpt>
      <trkpt lat="43.82048" lon="6.90854">
        <ele>1268.5969238</ele>
        <time>2012-06-29T00:13:31Z</time>
      </trkpt>
      <trkpt lat="43.82028" lon="6.90861">
        <ele>1267.635498</ele>
        <time>2012-06-29T00:13:35Z</time>
      </trkpt>
      <trkpt lat="43.8201" lon="6.90866">
        <ele>1266.6743164</ele>
        <time>2012-06-29T00:13:39Z</time>
      </trkpt>
      <trkpt lat="43.81999" lon="6.90872">
        <ele>1265.2324219</ele>
        <time>2012-06-29T00:13:42Z</time>
      </trkpt>
      <trkpt lat="43.81987" lon="6.90873">
        <ele>1264.2709961</ele>
        <time>2012-06-29T00:13:46Z</time>
      </trkpt>
      <trkpt lat="43.81962" lon="6.90874">
        <ele>1263.7902832</ele>
        <time>2012-06-29T00:13:52Z</time>
      </trkpt>
      <trkpt lat="43.81947" lon="6.90875">
        <ele>1262.3483887</ele>
        <time>2012-06-29T00:13:55Z</time>
      </trkpt>
      <trkpt lat="43.81901" lon="6.90879">
        <ele>1256.5803223</ele>
        <time>2012-06-29T00:14:06Z</time>
      </trkpt>
      <trkpt lat="43.81882" lon="6.90876">
        <ele>1254.1772461</ele>
        <time>2012-06-29T00:14:11Z</time>
      </trkpt>
      <trkpt lat="43.8186" lon="6.90851">
        <ele>1255.6191406</ele>
        <time>2012-06-29T00:14:21Z</time>
      </trkpt>
      <trkpt lat="43.81851" lon="6.90843">
        <ele>1257.541748</ele>
        <time>2012-06-29T00:14:25Z</time>
      </trkpt>
      <trkpt lat="43.8185" lon="6.90837">
        <ele>1260.4257813</ele>
        <time>2012-06-29T00:14:27Z</time>
      </trkpt>
      <trkpt lat="43.81842" lon="6.90818">
        <ele>1261.387207</ele>
        <time>2012-06-29T00:14:31Z</time>
      </trkpt>
      <trkpt lat="43.81828" lon="6.90795">
        <ele>1261.8679199</ele>
        <time>2012-06-29T00:14:37Z</time>
      </trkpt>
      <trkpt lat="43.81813" lon="6.90769">
        <ele>1261.387207</ele>
        <time>2012-06-29T00:14:42Z</time>
      </trkpt>
      <trkpt lat="43.81801" lon="6.90738">
        <ele>1256.0996094</ele>
        <time>2012-06-29T00:14:47Z</time>
      </trkpt>
      <trkpt lat="43.81779" lon="6.90687">
        <ele>1248.4091797</ele>
        <time>2012-06-29T00:14:57Z</time>
      </trkpt>
      <trkpt lat="43.81763" lon="6.90636">
        <ele>1236.873291</ele>
        <time>2012-06-29T00:15:04Z</time>
      </trkpt>
      <trkpt lat="43.81749" lon="6.90568">
        <ele>1227.7407227</ele>
        <time>2012-06-29T00:15:14Z</time>
      </trkpt>
      <trkpt lat="43.81745" lon="6.90528">
        <ele>1219.0891113</ele>
        <time>2012-06-29T00:15:25Z</time>
      </trkpt>
      <trkpt lat="43.8174" lon="6.90499">
        <ele>1216.2050781</ele>
        <time>2012-06-29T00:15:57Z</time>
      </trkpt>
      <trkpt lat="43.81736" lon="6.90492">
        <ele>1215.2438965</ele>
        <time>2012-06-29T00:15:59Z</time>
      </trkpt>
      <trkpt lat="43.81723" lon="6.90475">
        <ele>1210.4370117</ele>
        <time>2012-06-29T00:16:03Z</time>
      </trkpt>
      <trkpt lat="43.81705" lon="6.90446">
        <ele>1204.1887207</ele>
        <time>2012-06-29T00:16:09Z</time>
      </trkpt>
      <trkpt lat="43.81695" lon="6.90409">
        <ele>1201.3046875</ele>
        <time>2012-06-29T00:16:14Z</time>
      </trkpt>
      <trkpt lat="43.81683" lon="6.90384">
        <ele>1202.746582</ele>
        <time>2012-06-29T00:16:18Z</time>
      </trkpt>
      <trkpt lat="43.81673" lon="6.90365">
        <ele>1202.746582</ele>
        <time>2012-06-29T00:16:21Z</time>
      </trkpt>
      <trkpt lat="43.81655" lon="6.90348">
        <ele>1201.7854004</ele>
        <time>2012-06-29T00:16:25Z</time>
      </trkpt>
      <trkpt lat="43.81644" lon="6.90344">
        <ele>1198.4206543</ele>
        <time>2012-06-29T00:16:28Z</time>
      </trkpt>
      <trkpt lat="43.81627" lon="6.9032">
        <ele>1197.4594727</ele>
        <time>2012-06-29T00:16:34Z</time>
      </trkpt>
      <trkpt lat="43.81618" lon="6.90305">
        <ele>1195.0559082</ele>
        <time>2012-06-29T00:16:48Z</time>
      </trkpt>
      <trkpt lat="43.8161" lon="6.90277">
        <ele>1189.2880859</ele>
        <time>2012-06-29T00:16:54Z</time>
      </trkpt>
      <trkpt lat="43.81605" lon="6.90228">
        <ele>1185.4428711</ele>
        <time>2012-06-29T00:17:02Z</time>
      </trkpt>
      <trkpt lat="43.81589" lon="6.90156">
        <ele>1181.5976563</ele>
        <time>2012-06-29T00:17:13Z</time>
      </trkpt>
      <trkpt lat="43.81578" lon="6.90145">
        <ele>1180.6364746</ele>
        <time>2012-06-29T00:17:16Z</time>
      </trkpt>
      <trkpt lat="43.8156" lon="6.90137">
        <ele>1176.7910156</ele>
        <time>2012-06-29T00:17:20Z</time>
      </trkpt>
      <trkpt lat="43.81543" lon="6.90122">
        <ele>1174.8684082</ele>
        <time>2012-06-29T00:17:24Z</time>
      </trkpt>
      <trkpt lat="43.81521" lon="6.90112">
        <ele>1170.5424805</ele>
        <time>2012-06-29T00:17:29Z</time>
      </trkpt>
      <trkpt lat="43.81484" lon="6.90086">
        <ele>1168.1391602</ele>
        <time>2012-06-29T00:17:40Z</time>
      </trkpt>
      <trkpt lat="43.81481" lon="6.90085">
        <ele>1168.1391602</ele>
        <time>2012-06-29T00:17:41Z</time>
      </trkpt>
      <trkpt lat="43.81475" lon="6.90073">
        <ele>1172.4650879</ele>
        <time>2012-06-29T00:17:44Z</time>
      </trkpt>
      <trkpt lat="43.8146" lon="6.90032">
        <ele>1175.348877</ele>
        <time>2012-06-29T00:17:53Z</time>
      </trkpt>
      <trkpt lat="43.81445" lon="6.89982">
        <ele>1181.1171875</ele>
        <time>2012-06-29T00:18:02Z</time>
      </trkpt>
      <trkpt lat="43.81432" lon="6.89957">
        <ele>1173.9069824</ele>
        <time>2012-06-29T00:18:07Z</time>
      </trkpt>
      <trkpt lat="43.81425" lon="6.89937">
        <ele>1175.348877</ele>
        <time>2012-06-29T00:18:11Z</time>
      </trkpt>
      <trkpt lat="43.81407" lon="6.89904">
        <ele>1170.0617676</ele>
        <time>2012-06-29T00:18:21Z</time>
      </trkpt>
      <trkpt lat="43.81406" lon="6.899">
        <ele>1169.5812988</ele>
        <time>2012-06-29T00:18:23Z</time>
      </trkpt>
      <trkpt lat="43.81402" lon="6.8989">
        <ele>1165.2553711</ele>
        <time>2012-06-29T00:18:44Z</time>
      </trkpt>
      <trkpt lat="43.81401" lon="6.89891">
        <ele>1164.7746582</ele>
        <time>2012-06-29T00:19:34Z</time>
      </trkpt>
      <trkpt lat="43.81404" lon="6.89886">
        <ele>1164.2939453</ele>
        <time>2012-06-29T00:20:12Z</time>
      </trkpt>
      <trkpt lat="43.81406" lon="6.89884">
        <ele>1162.3710938</ele>
        <time>2012-06-29T00:23:03Z</time>
      </trkpt>
      <trkpt lat="43.81402" lon="6.89869">
        <ele>1162.8518066</ele>
        <time>2012-06-29T00:23:31Z</time>
      </trkpt>
      <trkpt lat="43.814" lon="6.89855">
        <ele>1161.4099121</ele>
        <time>2012-06-29T00:23:36Z</time>
      </trkpt>
      <trkpt lat="43.81392" lon="6.89802">
        <ele>1160.4484863</ele>
        <time>2012-06-29T00:23:48Z</time>
      </trkpt>
      <trkpt lat="43.81391" lon="6.89796">
        <ele>1160.4484863</ele>
        <time>2012-06-29T00:23:49Z</time>
      </trkpt>
      <trkpt lat="43.81386" lon="6.89723">
        <ele>1159.4873047</ele>
        <time>2012-06-29T00:24:01Z</time>
      </trkpt>
      <trkpt lat="43.81382" lon="6.89696">
        <ele>1155.6420898</ele>
        <time>2012-06-29T00:24:05Z</time>
      </trkpt>
      <trkpt lat="43.8137" lon="6.89635">
        <ele>1154.2001953</ele>
        <time>2012-06-29T00:24:18Z</time>
      </trkpt>
      <trkpt lat="43.81357" lon="6.89577">
        <ele>1150.8354492</ele>
        <time>2012-06-29T00:24:29Z</time>
      </trkpt>
      <trkpt lat="43.81321" lon="6.8949">
        <ele>1144.5866699</ele>
        <time>2012-06-29T00:24:47Z</time>
      </trkpt>
      <trkpt lat="43.81305" lon="6.89455">
        <ele>1144.1062012</ele>
        <time>2012-06-29T00:24:55Z</time>
      </trkpt>
      <trkpt lat="43.8128" lon="6.89433">
        <ele>1144.5866699</ele>
        <time>2012-06-29T00:25:02Z</time>
      </trkpt>
      <trkpt lat="43.81248" lon="6.89377">
        <ele>1139.2995605</ele>
        <time>2012-06-29T00:25:12Z</time>
      </trkpt>
      <trkpt lat="43.81216" lon="6.89245">
        <ele>1134.4931641</ele>
        <time>2012-06-29T00:25:28Z</time>
      </trkpt>
      <trkpt lat="43.81189" lon="6.89186">
        <ele>1132.5705566</ele>
        <time>2012-06-29T00:25:36Z</time>
      </trkpt>
      <trkpt lat="43.81158" lon="6.89147">
        <ele>1132.0898438</ele>
        <time>2012-06-29T00:25:47Z</time>
      </trkpt>
      <trkpt lat="43.81124" lon="6.89133">
        <ele>1132.5705566</ele>
        <time>2012-06-29T00:25:59Z</time>
      </trkpt>
      <trkpt lat="43.8108" lon="6.89131">
        <ele>1129.2055664</ele>
        <time>2012-06-29T00:26:13Z</time>
      </trkpt>
      <trkpt lat="43.81063" lon="6.89139">
        <ele>1126.8024902</ele>
        <time>2012-06-29T00:26:17Z</time>
      </trkpt>
      <trkpt lat="43.81054" lon="6.89142">
        <ele>1126.3217773</ele>
        <time>2012-06-29T00:26:19Z</time>
      </trkpt>
      <trkpt lat="43.81012" lon="6.89148">
        <ele>1125.8410645</ele>
        <time>2012-06-29T00:26:31Z</time>
      </trkpt>
      <trkpt lat="43.80967" lon="6.89143">
        <ele>1126.8024902</ele>
        <time>2012-06-29T00:26:47Z</time>
      </trkpt>
      <trkpt lat="43.80956" lon="6.89147">
        <ele>1127.7636719</ele>
        <time>2012-06-29T00:26:54Z</time>
      </trkpt>
      <trkpt lat="43.80954" lon="6.89153">
        <ele>1127.7636719</ele>
        <time>2012-06-29T00:26:58Z</time>
      </trkpt>
      <trkpt lat="43.80945" lon="6.89187">
        <ele>1128.2443848</ele>
        <time>2012-06-29T00:27:17Z</time>
      </trkpt>
      <trkpt lat="43.80943" lon="6.89225">
        <ele>1128.2443848</ele>
        <time>2012-06-29T00:27:36Z</time>
      </trkpt>
      <trkpt lat="43.8093" lon="6.89241">
        <ele>1127.2832031</ele>
        <time>2012-06-29T00:27:46Z</time>
      </trkpt>
      <trkpt lat="43.80885" lon="6.89243">
        <ele>1126.8024902</ele>
        <time>2012-06-29T00:27:59Z</time>
      </trkpt>
      <trkpt lat="43.80839" lon="6.89241">
        <ele>1125.8410645</ele>
        <time>2012-06-29T00:28:09Z</time>
      </trkpt>
      <trkpt lat="43.80823" lon="6.8923">
        <ele>1125.8410645</ele>
        <time>2012-06-29T00:28:13Z</time>
      </trkpt>
      <trkpt lat="43.80773" lon="6.89192">
        <ele>1125.3603516</ele>
        <time>2012-06-29T00:28:27Z</time>
      </trkpt>
      <trkpt lat="43.80759" lon="6.89201">
        <ele>1124.3991699</ele>
        <time>2012-06-29T00:28:31Z</time>
      </trkpt>
      <trkpt lat="43.80758" lon="6.89213">
        <ele>1124.8798828</ele>
        <time>2012-06-29T00:28:36Z</time>
      </trkpt>
      <trkpt lat="43.80765" lon="6.89216">
        <ele>1124.8798828</ele>
        <time>2012-06-29T00:28:53Z</time>
      </trkpt>
      <trkpt lat="43.80764" lon="6.89216">
        <ele>1124.8798828</ele>
        <time>2012-06-29T00:29:12Z</time>
      </trkpt>
    </trkseg>
  </trk>
</gpx>